Provisional Data: Swatara Creek near Annville, PA


Please select a monitoring station.
Please select start date.
Please select start date.

Toggle Unit: C/F Toggle Unit: C/F
Sample Time Temperature (C) Temperature (F) Specific Conductivity (mS/cm) pH   Turbidity (NTU+) DO (mg/L)
6/23/2021 12:15:00 PM 15.35 59.63 8.24 9.55 98.5 0
6/23/2021 12:30:00 PM 19.08 66.344 0.182 7.18 20.97 0
6/23/2021 12:45:00 PM 19.22 66.596 0.182 7.28 17.97 0
6/23/2021 1:00:00 PM 19.32 66.776 0.182 7.33 17.15 0
6/23/2021 1:15:00 PM 19.51 67.118 0.181 7.37 22.56 0
6/23/2021 1:30:00 PM 19.66 67.388 0.181 7.38 15.61 0
6/23/2021 1:45:00 PM 19.81 67.658 0.181 7.4 19 0
6/23/2021 2:00:00 PM 19.93 67.874 0.181 7.4 18.73 0
6/23/2021 2:15:00 PM 20.13 68.234 0.181 7.42 16.42 0
6/23/2021 2:30:00 PM 20.24 68.432 0.181 7.42 16.79 0
6/23/2021 2:45:00 PM 20.25 68.45 0.18 7.42 14.68 0
6/23/2021 3:00:00 PM 20.36 68.648 0.18 7.43 14.81 0
6/23/2021 3:15:00 PM 20.46 68.828 0.18 7.43 17.29 0
6/23/2021 3:30:00 PM 20.52 68.936 0.18 7.44 17.77 0
6/23/2021 3:45:00 PM 20.56 69.008 0.18 7.45 19.12 0
6/23/2021 4:00:00 PM 20.58 69.044 0.18 7.44 17.71 0
6/23/2021 4:15:00 PM 20.51 68.918 0.18 7.45 15.93 0
6/23/2021 4:30:00 PM 20.51 68.918 0.179 7.45 17.7 0
6/23/2021 4:45:00 PM 20.45 68.81 0.179 7.46 15.53 0
6/23/2021 5:00:00 PM 20.47 68.846 0.179 7.45 15.45 0
6/23/2021 5:15:00 PM 20.53 68.954 0.179 7.46 15.73 0
6/23/2021 5:30:00 PM 20.53 68.954 0.179 7.46 14.95 0
6/23/2021 5:45:00 PM 20.52 68.936 0.179 7.46 16.77 0
6/23/2021 6:00:00 PM 20.49 68.882 0.179 7.45 14.68 0
6/23/2021 6:15:00 PM 20.45 68.81 0.179 7.46 16.27 0
6/23/2021 6:30:00 PM 20.4 68.72 0.178 7.45 15 0
6/23/2021 6:45:00 PM 20.37 68.666 0.178 7.45 14.37 0
6/23/2021 7:00:00 PM 20.33 68.594 0.178 7.44 16.91 0
6/23/2021 7:15:00 PM 20.33 68.594 0.177 7.44 15.14 0
6/23/2021 7:30:00 PM 20.32 68.576 0.177 7.43 16.27 0
6/23/2021 7:45:00 PM 20.31 68.558 0.177 7.43 15.24 0
6/23/2021 8:00:00 PM 20.32 68.576 0.177 7.42 16.2 0
6/23/2021 8:15:00 PM 20.31 68.558 0.176 7.42 15.73 0
6/23/2021 8:30:00 PM 20.33 68.594 0.176 7.42 15.28 0
6/23/2021 8:45:00 PM 20.3 68.54 0.176 7.41 16.68 0
6/23/2021 9:00:00 PM 20.28 68.504 0.176 7.4 16.82 0
6/23/2021 9:15:00 PM 20.26 68.468 0.175 7.4 17.17 0
6/23/2021 9:30:00 PM 20.21 68.378 0.176 7.39 16.95 0
6/23/2021 9:45:00 PM 20.16 68.288 0.175 7.39 13.47 0
6/23/2021 10:00:00 PM 20.12 68.216 0.175 7.39 16.51 0
6/23/2021 10:15:00 PM 20.07 68.126 0.175 7.39 17.39 0
6/23/2021 10:30:00 PM 20.03 68.054 0.175 7.38 17.25 0
6/23/2021 10:45:00 PM 19.98 67.964 0.175 7.38 17.51 0
6/23/2021 11:00:00 PM 19.94 67.892 0.175 7.39 17.79 0
6/23/2021 11:15:00 PM 19.89 67.802 0.175 7.38 16.13 0
6/23/2021 11:30:00 PM 19.85 67.73 0.175 7.37 18.46 0
6/23/2021 11:45:00 PM 19.8 67.64 0.175 7.37 21.64 0
6/24/2021 12:00:00 AM 19.75 67.55 0.174 7.37 17.64 0
6/24/2021 12:15:00 AM 19.69 67.442 0.175 7.37 17.22 0
6/24/2021 12:30:00 AM 19.64 67.352 0.175 7.36 16.57 0
6/24/2021 12:45:00 AM 19.58 67.244 0.175 7.37 19.04 0
6/24/2021 1:00:00 AM 19.51 67.118 0.175 7.36 16.3 0
6/24/2021 1:15:00 AM 19.44 66.992 0.175 7.36 19.92 0
6/24/2021 1:30:00 AM 19.38 66.884 0.175 7.36 19.75 0
6/24/2021 1:45:00 AM 19.31 66.758 0.175 7.35 16.64 0
6/24/2021 2:00:00 AM 19.24 66.632 0.175 7.36 17.99 0
6/24/2021 2:15:00 AM 19.18 66.524 0.175 7.35 18.35 0
6/24/2021 2:30:00 AM 19.12 66.416 0.175 7.35 16.79 0
6/24/2021 2:45:00 AM 19.07 66.326 0.175 7.35 22.7 0
6/24/2021 3:00:00 AM 19.02 66.236 0.175 7.36 18.39 0
6/24/2021 3:15:00 AM 18.96 66.128 0.176 7.35 17.54 0
6/24/2021 3:30:00 AM 18.93 66.074 0.176 7.35 16.88 0
6/24/2021 3:45:00 AM 18.88 65.984 0.176 7.35 19.25 0
6/24/2021 4:00:00 AM 18.84 65.912 0.176 7.35 15.34 0
6/24/2021 4:15:00 AM 18.79 65.82201 0.176 7.35 16.07 0
6/24/2021 4:30:00 AM 18.76 65.768 0.176 7.35 20.37 0
6/24/2021 4:45:00 AM 18.72 65.696 0.176 7.34 17.37 0
6/24/2021 5:00:00 AM 18.67 65.606 0.176 7.34 17.94 0
6/24/2021 5:15:00 AM 18.62 65.516 0.176 7.35 11.68 0
6/24/2021 5:30:00 AM 18.58 65.444 0.176 7.34 16.39 0
6/24/2021 5:45:00 AM 18.53 65.354 0.176 7.33 18.04 0
6/24/2021 6:00:00 AM 18.49 65.282 0.176 7.32 18.17 0
6/24/2021 6:15:00 AM 18.44 65.192 0.177 7.31 16.61 0
6/24/2021 6:30:00 AM 18.39 65.102 0.177 7.31 16.57 0
6/24/2021 6:45:00 AM 18.36 65.048 0.177 7.31 15.96 0
6/24/2021 7:00:00 AM 18.32 64.976 0.177 7.3 17.26 0
6/24/2021 7:15:00 AM 18.28 64.904 0.178 7.29 16.34 0
6/24/2021 7:30:00 AM 18.24 64.832 0.177 7.3 14.36 0
6/24/2021 7:45:00 AM 18.22 64.796 0.177 7.29 15.58 0
6/24/2021 8:00:00 AM 18.19 64.742 0.178 7.29 14.5 0
6/24/2021 8:15:00 AM 18.16 64.688 0.178 7.29 14.73 0
6/24/2021 8:30:00 AM 18.15 64.67 0.178 7.3 15.88 0
6/24/2021 8:45:00 AM 18.13 64.634 0.178 7.31 13 0
6/24/2021 9:00:00 AM 18.14 64.652 0.178 7.31 14.78 0
6/24/2021 9:15:00 AM 18.14 64.652 0.178 7.31 12.85 0
6/24/2021 9:30:00 AM 18.18 64.724 0.178 7.32 16.35 0
6/24/2021 9:45:00 AM 18.19 64.742 0.178 7.31 14.18 0
6/24/2021 10:00:00 AM 18.25 64.85 0.178 7.33 11.56 0
6/24/2021 10:15:00 AM 18.32 64.976 0.178 7.33 10.39 0
6/24/2021 10:30:00 AM 18.41 65.138 0.178 7.33 10.97 0
6/24/2021 10:45:00 AM 18.49 65.282 0.178 7.34 9.59 0
6/24/2021 11:00:00 AM 18.64 65.552 0.178 7.35 11.13 0
6/24/2021 11:15:00 AM 18.78 65.804 0.178 7.35 9.6 0
6/24/2021 11:30:00 AM 18.92 66.056 0.178 7.35 11.05 0
6/24/2021 11:45:00 AM 19.09 66.362 0.178 7.37 9.17 0
6/24/2021 12:00:00 PM 19.27 66.686 0.178 7.38 11.94 0
6/24/2021 12:15:00 PM 19.43 66.974 0.178 7.39 9.06 0
6/24/2021 12:30:00 PM 19.6 67.28 0.178 7.4 8.87 0
6/24/2021 12:45:00 PM 19.8 67.64 0.178 7.39 10.02 0
6/24/2021 1:00:00 PM 20.03 68.054 0.178 7.41 9.4 0
6/24/2021 1:15:00 PM 20.24 68.432 0.178 7.41 8.08 0
6/24/2021 1:30:00 PM 20.3 68.54 0.178 7.41 9.08 0
6/24/2021 1:45:00 PM 20.47 68.846 0.179 7.41 8.66 0
6/24/2021 2:00:00 PM 20.56 69.008 0.179 7.41 8.56 0
6/24/2021 2:15:00 PM 20.76 69.368 0.179 7.42 8.68 0
6/24/2021 2:30:00 PM 20.92 69.656 0.179 7.42 7.83 0
6/24/2021 2:45:00 PM 21.14 70.052 0.179 7.44 7.19 0
6/24/2021 3:00:00 PM 21.32 70.376 0.179 7.46 12.41 0
6/24/2021 3:15:00 PM 21.43 70.574 0.179 7.45 8.2 0
6/24/2021 3:30:00 PM 21.61 70.898 0.179 7.46 7.57 0
6/24/2021 3:45:00 PM 21.7 71.06 0.179 7.48 8.61 0
6/24/2021 4:00:00 PM 21.74 71.132 0.179 7.49 6.58 0
6/24/2021 4:15:00 PM 21.74 71.132 0.18 7.47 7.27 0
6/24/2021 4:30:00 PM 21.73 71.114 0.179 7.48 7.08 0
6/24/2021 4:45:00 PM 21.74 71.132 0.18 7.48 7.29 0
6/24/2021 5:00:00 PM 21.8 71.24 0.18 7.49 6.87 0
6/24/2021 5:15:00 PM 21.82 71.276 0.18 7.5 6.4 0
6/24/2021 5:30:00 PM 21.81 71.258 0.18 7.49 6.67 0
6/24/2021 5:45:00 PM 21.77 71.186 0.18 7.49 7.87 0
6/24/2021 6:00:00 PM 21.71 71.078 0.18 7.49 7.77 0
6/24/2021 6:15:00 PM 21.62 70.916 0.18 7.47 7.91 0
6/24/2021 6:30:00 PM 21.54 70.772 0.18 7.47 6.98 0
6/24/2021 6:45:00 PM 21.46 70.628 0.18 7.46 5.5 0
6/24/2021 7:00:00 PM 21.36 70.448 0.18 7.44 6.08 0
6/24/2021 7:15:00 PM 21.29 70.32201 0.18 7.43 6.29 0
6/24/2021 7:30:00 PM 21.22 70.196 0.181 7.42 7.2 0
6/24/2021 7:45:00 PM 21.16 70.088 0.18 7.42 8.73 0
6/24/2021 8:00:00 PM 21.1 69.98 0.18 7.41 7.54 0
6/24/2021 8:15:00 PM 21.05 69.89 0.18 7.4 9.97 0
6/24/2021 8:30:00 PM 21 69.8 0.18 7.39 7.53 0
6/24/2021 8:45:00 PM 20.96 69.728 0.18 7.39 20.98 0
6/24/2021 9:00:00 PM 20.94 69.692 0.18 7.38 7.48 0
6/24/2021 9:15:00 PM 20.89 69.602 0.181 7.37 7.07 0
6/24/2021 9:30:00 PM 20.86 69.548 0.18 7.37 8.5 0
6/24/2021 9:45:00 PM 20.83 69.494 0.18 7.37 15.91 0
6/24/2021 10:00:00 PM 20.8 69.44 0.18 7.36 7.41 0
6/24/2021 10:15:00 PM 20.76 69.368 0.18 7.35 8.62 0
6/24/2021 10:30:00 PM 20.73 69.314 0.181 7.35 8.34 0
6/24/2021 10:45:00 PM 20.7 69.26 0.18 7.35 9.5 0
6/24/2021 11:00:00 PM 20.67 69.206 0.18 7.34 9.1 0
6/24/2021 11:15:00 PM 20.65 69.17 0.18 7.33 9.18 0
6/24/2021 11:30:00 PM 20.62 69.116 0.18 7.33 7.96 0
6/24/2021 11:45:00 PM 20.6 69.08 0.18 7.33 8.88 0
6/25/2021 12:00:00 AM 20.56 69.008 0.181 7.33 9.92 0
6/25/2021 12:15:00 AM 20.53 68.954 0.181 7.32 8.22 0
6/25/2021 12:30:00 AM 20.51 68.918 0.181 7.32 9.86 0
6/25/2021 12:45:00 AM 20.48 68.864 0.181 7.32 9.69 0
6/25/2021 1:00:00 AM 20.45 68.81 0.181 7.31 11 0
6/25/2021 1:15:00 AM 20.41 68.738 0.181 7.32 8.88 0
6/25/2021 1:30:00 AM 20.38 68.684 0.181 7.31 12.26 0
6/25/2021 1:45:00 AM 20.34 68.612 0.181 7.32 10.51 0
6/25/2021 2:00:00 AM 20.29 68.522 0.181 7.31 11.67 0
6/25/2021 2:15:00 AM 20.23 68.414 0.181 7.3 9.8 0
6/25/2021 2:30:00 AM 20.17 68.306 0.181 7.31 10.07 0
6/25/2021 2:45:00 AM 20.13 68.234 0.181 7.3 10.44 0
6/25/2021 3:00:00 AM 20.07 68.126 0.182 7.3 10.77 0
6/25/2021 3:15:00 AM 20.01 68.018 0.181 7.3 10.97 0
6/25/2021 3:30:00 AM 19.96 67.92799 0.182 7.3 12.06 0
6/25/2021 3:45:00 AM 19.89 67.802 0.182 7.3 9.96 0
6/25/2021 4:00:00 AM 19.84 67.712 0.182 7.29 12.21 0
6/25/2021 4:15:00 AM 19.78 67.604 0.174 7.3 12.25 0
6/25/2021 4:30:00 AM 19.72 67.496 0.182 7.29 11.68 0
6/25/2021 4:45:00 AM 19.65 67.37 0.182 7.29 12.33 0
6/25/2021 5:00:00 AM 19.59 67.262 0.183 7.3 10.24 0
6/25/2021 5:15:00 AM 19.54 67.172 0.183 7.29 12.68 0
6/25/2021 5:30:00 AM 19.48 67.064 0.183 7.3 11.52 0
6/25/2021 5:45:00 AM 19.42 66.956 0.183 7.3 10.97 0
6/25/2021 6:00:00 AM 19.37 66.866 0.183 7.29 11.39 0
6/25/2021 6:15:00 AM 19.31 66.758 0.183 7.3 12.87 0
6/25/2021 6:30:00 AM 19.26 66.668 0.183 7.29 11.49 0
6/25/2021 6:45:00 AM 19.21 66.578 0.181 7.3 11.16 0
6/25/2021 7:00:00 AM 19.17 66.506 0.184 7.3 12.08 0
6/25/2021 7:15:00 AM 19.13 66.434 0.177 7.3 9.64 0
6/25/2021 7:30:00 AM 19.09 66.362 0.185 7.3 9.77 0
6/25/2021 7:45:00 AM 19.07 66.326 0.179 7.31 9.52 0
6/25/2021 8:00:00 AM 19.05 66.29 0.185 7.31 10.51 0
6/25/2021 8:15:00 AM 19.03 66.254 0.185 7.31 11.57 0
6/25/2021 8:30:00 AM 19.02 66.236 0.185 7.32 8.26 0
6/25/2021 8:45:00 AM 19.01 66.218 0.186 7.32 7.82 0
6/25/2021 9:00:00 AM 19.03 66.254 0.186 7.33 8.51 0
6/25/2021 9:15:00 AM 19.04 66.272 0.183 7.34 9.21 0
6/25/2021 9:30:00 AM 19.07 66.326 0.186 7.35 7.12 0
6/25/2021 9:45:00 AM 19.11 66.398 0.186 7.35 7.25 0
6/25/2021 10:00:00 AM 19.18 66.524 0.186 7.36 7.08 0
6/25/2021 10:15:00 AM 19.25 66.65 0.187 7.37 6.69 0
6/25/2021 10:30:00 AM 19.31 66.758 0.187 7.37 7.19 0
6/25/2021 10:45:00 AM 19.44 66.992 0.187 7.39 6.38 0
6/25/2021 11:00:00 AM 19.55 67.19 0.187 7.4 6.27 0
6/25/2021 11:15:00 AM 19.65 67.37 0.188 7.41 6.82 0
6/25/2021 11:30:00 AM 19.8 67.64 0.188 7.42 6.07 0
6/25/2021 11:45:00 AM 20 68 0.188 7.44 6.47 0
6/25/2021 12:00:00 PM 20.17 68.306 0.188 7.45 5.59 0
6/25/2021 12:15:00 PM 20.35 68.63 0.188 7.46 4.82 0
6/25/2021 12:30:00 PM 20.59 69.062 0.189 7.47 6.14 0
6/25/2021 12:45:00 PM 20.8 69.44 0.189 7.49 5.27 0
6/25/2021 1:00:00 PM 21.03 69.854 0.189 7.5 4.86 0
6/25/2021 1:15:00 PM 21.26 70.268 0.189 7.51 4.64 0
6/25/2021 1:30:00 PM 21.49 70.682 0.19 7.53 4.55 0
6/25/2021 1:45:00 PM 21.72 71.096 0.19 7.55 4.89 0
6/25/2021 2:00:00 PM 21.94 71.492 0.191 7.56 5.85 0
6/25/2021 2:15:00 PM 22.1 71.78 0.191 7.57 5.33 0
6/25/2021 2:30:00 PM 22.29 72.122 0.191 7.58 5.47 0
6/25/2021 2:45:00 PM 22.44 72.392 0.185 7.6 10.08 0
6/25/2021 3:00:00 PM 22.54 72.57201 0.192 7.62 5.19 0
6/25/2021 3:15:00 PM 22.62 72.716 0.192 7.65 4.05 0
6/25/2021 3:30:00 PM 22.66 72.788 0.192 7.66 4.64 0
6/25/2021 3:45:00 PM 22.66 72.788 0.193 7.67 6.57 0
6/25/2021 4:00:00 PM 22.79 73.022 0.181 7.68 3.96 0
6/25/2021 4:15:00 PM 22.91 73.238 0.193 7.69 4.49 0
6/25/2021 4:30:00 PM 22.98 73.364 0.193 7.71 5.88 0
6/25/2021 4:45:00 PM 23.05 73.49 0.185 7.7 4.03 0
6/25/2021 5:00:00 PM 23.08 73.544 0.194 7.72 4.61 0
6/25/2021 5:15:00 PM 23.08 73.544 0.187 7.71 4.79 0
6/25/2021 5:30:00 PM 23.06 73.508 0.169 7.72 4.68 0
6/25/2021 5:45:00 PM 23.02 73.436 0.189 7.72 6.16 0
6/25/2021 6:00:00 PM 22.99 73.382 0.184 7.71 6.68 0
6/25/2021 6:15:00 PM 22.84 73.112 0.194 7.69 6.84 0
6/25/2021 6:30:00 PM 22.72 72.896 0.194 7.66 7.52 0
6/25/2021 6:45:00 PM 22.62 72.716 0.195 7.65 8.17 0
6/25/2021 7:00:00 PM 22.52 72.536 0.195 7.64 6.61 0
6/25/2021 7:15:00 PM 22.43 72.374 0.195 7.61 6.91 0
6/25/2021 7:30:00 PM 22.34 72.212 0.195 7.59 5.92 0
6/25/2021 7:45:00 PM 22.25 72.05 0.196 7.57 5.06 0
6/25/2021 8:00:00 PM 22.17 71.906 0.196 7.56 4.58 0
6/25/2021 8:15:00 PM 22.11 71.798 0.196 7.55 4.87 0
6/25/2021 8:30:00 PM 22.05 71.69 0.196 7.53 6.64 0
6/25/2021 8:45:00 PM 22 71.6 0.196 7.51 4.47 0
6/25/2021 9:00:00 PM 21.96 71.528 0.196 7.49 5.09 0
6/25/2021 9:15:00 PM 21.9 71.42 0.196 7.48 5.19 0
6/25/2021 9:30:00 PM 21.86 71.348 0.197 7.47 6.41 0
6/25/2021 9:45:00 PM 21.81 71.258 0.197 7.45 6.79 0
6/25/2021 10:00:00 PM 21.78 71.204 0.197 7.45 5.79 0
6/25/2021 10:15:00 PM 21.74 71.132 0.197 7.44 4.96 0
6/25/2021 10:30:00 PM 21.7 71.06 0.197 7.43 6.43 0
6/25/2021 10:45:00 PM 21.66 70.988 0.197 7.42 6.4 0
6/25/2021 11:00:00 PM 21.63 70.934 0.197 7.41 6.69 0
6/25/2021 11:15:00 PM 21.58 70.844 0.197 7.4 6.61 0
6/25/2021 11:30:00 PM 21.56 70.808 0.197 7.4 7.21 0
6/25/2021 11:45:00 PM 21.53 70.754 0.197 7.39 6.86 0
6/26/2021 12:00:00 AM 21.49 70.682 0.197 7.38 6.58 0
6/26/2021 12:15:00 AM 21.48 70.664 0.197 7.38 6.7 0
6/26/2021 12:30:00 AM 21.46 70.628 0.196 7.37 6.67 0
6/26/2021 12:45:00 AM 21.43 70.574 0.197 7.36 7.28 0
6/26/2021 1:00:00 AM 21.43 70.574 0.197 7.36 7.42 0
6/26/2021 1:15:00 AM 21.42 70.556 0.197 7.36 7.88 0
6/26/2021 1:30:00 AM 21.39 70.502 0.197 7.36 7.56 0
6/26/2021 1:45:00 AM 21.35 70.43 0.197 7.34 7.88 0
6/26/2021 2:00:00 AM 21.32 70.376 0.197 7.35 8.12 0
6/26/2021 2:15:00 AM 21.29 70.32201 0.198 7.35 6.34 0
6/26/2021 2:30:00 AM 21.26 70.268 0.198 7.34 7.23 0
6/26/2021 2:45:00 AM 21.23 70.214 0.198 7.34 8.13 0
6/26/2021 3:00:00 AM 21.21 70.17799 0.198 7.33 7.5 0
6/26/2021 3:15:00 AM 21.18 70.124 0.197 7.33 7.1 0
6/26/2021 3:30:00 AM 21.16 70.088 0.197 7.33 8.39 0
6/26/2021 3:45:00 AM 21.12 70.016 0.198 7.32 7.98 0
6/26/2021 4:00:00 AM 21.09 69.962 0.198 7.32 9.6 0
6/26/2021 4:15:00 AM 21.06 69.908 0.198 7.32 9.71 0
6/26/2021 4:30:00 AM 21.03 69.854 0.198 7.31 10.31 0
6/26/2021 4:45:00 AM 21 69.8 0.198 7.31 10.61 0
6/26/2021 5:00:00 AM 20.97 69.746 0.199 7.31 9.81 0
6/26/2021 5:15:00 AM 20.94 69.692 0.199 7.3 8.48 0
6/26/2021 5:30:00 AM 20.92 69.656 0.199 7.3 9.82 0
6/26/2021 5:45:00 AM 20.88 69.584 0.199 7.3 10.21 0
6/26/2021 6:00:00 AM 20.86 69.548 0.199 7.3 8.89 0
6/26/2021 6:15:00 AM 20.83 69.494 0.199 7.3 8.45 0
6/26/2021 6:30:00 AM 20.8 69.44 0.199 7.3 9.36 0
6/26/2021 6:45:00 AM 20.79 69.422 0.199 7.29 9.76 0
6/26/2021 7:00:00 AM 20.78 69.404 0.199 7.29 10.56 0
6/26/2021 7:15:00 AM 20.77 69.386 0.199 7.28 6.99 0
6/26/2021 7:30:00 AM 20.77 69.386 0.199 7.29 6.11 0
6/26/2021 7:45:00 AM 20.78 69.404 0.199 7.28 5.89 0
6/26/2021 8:00:00 AM 20.78 69.404 0.2 7.28 7.01 0
6/26/2021 8:15:00 AM 20.79 69.422 0.2 7.28 6.08 0
6/26/2021 8:30:00 AM 20.79 69.422 0.2 7.29 6.56 0
6/26/2021 8:45:00 AM 20.81 69.458 0.2 7.3 6.25 0
6/26/2021 9:00:00 AM 20.83 69.494 0.2 7.3 7.91 0
6/26/2021 9:15:00 AM 20.87 69.566 0.2 7.31 6.17 0
6/26/2021 9:30:00 AM 20.92 69.656 0.2 7.32 7.28 0
6/26/2021 9:45:00 AM 20.97 69.746 0.2 7.33 7.07 0
6/26/2021 10:00:00 AM 21.02 69.836 0.201 7.34 6.95 0
6/26/2021 10:15:00 AM 21.09 69.962 0.201 7.36 5.37 0
6/26/2021 10:30:00 AM 21.16 70.088 0.2 7.37 4.78 0
6/26/2021 10:45:00 AM 21.22 70.196 0.201 7.38 4.59 0
6/26/2021 11:00:00 AM 21.28 70.304 0.201 7.39 4.8 0
6/26/2021 11:15:00 AM 21.34 70.412 0.19 7.41 4.82 0
6/26/2021 11:30:00 AM 21.46 70.628 0.202 7.42 4.74 0
6/26/2021 11:45:00 AM 21.6 70.88 0.202 7.45 5.44 0
6/26/2021 12:00:00 PM 21.72 71.096 0.202 7.47 4.73 0
6/26/2021 12:15:00 PM 21.86 71.348 0.202 7.48 3.64 0
6/26/2021 12:30:00 PM 22.07 71.726 0.202 7.51 4.38 0
6/26/2021 12:45:00 PM 22.19 71.942 0.202 7.51 4.61 0
6/26/2021 1:00:00 PM 22.35 72.23 0.202 7.54 3.97 0
6/26/2021 1:15:00 PM 22.4 72.32 0.203 7.55 3.42 0
6/26/2021 1:30:00 PM 22.47 72.446 0.203 7.57 4.02 0
6/26/2021 1:45:00 PM 22.6 72.68 0.203 7.58 3.16 0
6/26/2021 2:00:00 PM 22.59 72.662 0.195 7.6 3.69 0
6/26/2021 2:15:00 PM 22.62 72.716 0.204 7.61 4.48 0
6/26/2021 2:30:00 PM 22.68 72.824 0.204 7.62 3.56 0
6/26/2021 2:45:00 PM 22.79 73.022 0.204 7.65 4.44 0
6/26/2021 3:00:00 PM 22.8 73.04 0.204 7.66 10.92 0
6/26/2021 3:15:00 PM 22.84 73.112 0.203 7.67 3.32 0
6/26/2021 3:30:00 PM 22.89 73.202 0.204 7.69 3.89 0
6/26/2021 3:45:00 PM 22.98 73.364 0.205 7.7 3.53 0
6/26/2021 4:00:00 PM 23.05 73.49 0.205 7.72 3.02 0
6/26/2021 4:15:00 PM 23.16 73.688 0.205 7.75 3.07 0
6/26/2021 4:30:00 PM 23.35 74.03 0.205 7.77 15.86 0
6/26/2021 4:45:00 PM 23.43 74.174 0.203 7.77 4.91 0
6/26/2021 5:00:00 PM 23.49 74.282 0.176 7.76 18.23 0
6/26/2021 5:15:00 PM 23.44 74.192 0.193 7.77 11.54 0
6/26/2021 5:30:00 PM 23.5 74.3 0.206 7.77 4.4 0
6/26/2021 5:45:00 PM 23.52 74.336 0.2 7.8 5.28 0
6/26/2021 6:00:00 PM 23.47 74.246 0.207 7.79 7.56 0
6/26/2021 6:15:00 PM 23.5 74.3 0.207 7.79 7.69 0
6/26/2021 6:30:00 PM 23.47 74.246 0.207 7.77 7.9 0
6/26/2021 6:45:00 PM 23.43 74.174 0.207 7.76 11.47 0
6/26/2021 7:00:00 PM 23.36 74.048 0.208 7.74 7.38 0
6/26/2021 7:15:00 PM 23.33 73.994 0.208 7.73 7.76 0
6/26/2021 7:30:00 PM 23.29 73.922 0.208 7.73 11.81 0
6/26/2021 7:45:00 PM 23.25 73.85 0.208 7.71 9.75 0
6/26/2021 8:00:00 PM 23.21 73.778 0.208 7.67 7.37 0
6/26/2021 8:15:00 PM 23.16 73.688 0.208 7.66 7.65 0
6/26/2021 8:30:00 PM 23.13 73.634 0.208 7.63 4.38 0
6/26/2021 8:45:00 PM 23.09 73.562 0.193 7.59 7.84 0
6/26/2021 9:00:00 PM 23.05 73.49 0.209 7.58 4.63 0
6/26/2021 9:15:00 PM 23.02 73.436 0.192 7.56 4.55 0
6/26/2021 9:30:00 PM 22.98 73.364 0.209 7.55 4.05 0
6/26/2021 9:45:00 PM 22.95 73.31 0.209 7.52 5.16 0
6/26/2021 10:00:00 PM 22.91 73.238 0.209 7.5 3.64 0
6/26/2021 10:15:00 PM 22.89 73.202 0.209 7.5 5.74 0
6/26/2021 10:30:00 PM 22.86 73.148 0.209 7.48 4.76 0
6/26/2021 10:45:00 PM 22.84 73.112 0.209 7.47 8.66 0
6/26/2021 11:00:00 PM 22.82 73.076 0.21 7.45 4.9 0
6/26/2021 11:15:00 PM 22.8 73.04 0.21 7.44 5.46 0
6/26/2021 11:30:00 PM 22.77 72.986 0.21 7.43 5.16 0
6/26/2021 11:45:00 PM 22.75 72.95 0.21 7.41 6.02 0
6/27/2021 12:00:00 AM 22.73 72.914 0.211 7.4 5.03 0
6/27/2021 12:15:00 AM 22.73 72.914 0.211 7.4 4.8 0
6/27/2021 12:30:00 AM 22.71 72.878 0.211 7.38 5.4 0
6/27/2021 12:45:00 AM 22.7 72.86 0.211 7.37 7.05 0
6/27/2021 1:00:00 AM 22.69 72.842 0.211 7.36 6.55 0
6/27/2021 1:15:00 AM 22.68 72.824 0.211 7.35 6.54 0
6/27/2021 1:30:00 AM 22.67 72.806 0.211 7.35 6.71 0
6/27/2021 1:45:00 AM 22.68 72.824 0.211 7.34 5.6 0
6/27/2021 2:00:00 AM 22.67 72.806 0.211 7.34 5.7 0
6/27/2021 2:15:00 AM 22.68 72.824 0.211 7.34 6 0
6/27/2021 2:30:00 AM 22.68 72.824 0.211 7.33 6.24 0
6/27/2021 2:45:00 AM 22.66 72.788 0.211 7.32 6.43 0
6/27/2021 3:00:00 AM 22.66 72.788 0.211 7.31 4.65 0
6/27/2021 3:15:00 AM 22.65 72.77 0.211 7.32 6.64 0
6/27/2021 3:30:00 AM 22.64 72.752 0.211 7.31 7.49 0
6/27/2021 3:45:00 AM 22.64 72.752 0.211 7.31 5.72 0
6/27/2021 4:00:00 AM 22.63 72.734 0.211 7.3 8.35 0
6/27/2021 4:15:00 AM 22.61 72.698 0.212 7.3 7.02 0
6/27/2021 4:30:00 AM 22.59 72.662 0.212 7.29 8.72 0
6/27/2021 4:45:00 AM 22.57 72.626 0.212 7.28 9.03 0
6/27/2021 5:00:00 AM 22.56 72.608 0.212 7.28 5.98 0
6/27/2021 5:15:00 AM 22.56 72.608 0.212 7.28 8.84 0
6/27/2021 5:30:00 AM 22.53 72.554 0.21 7.27 4992 0
6/27/2021 5:45:00 AM 22.51 72.518 0.193 7.27 6.46 0
6/27/2021 6:00:00 AM 22.52 72.536 0.211 7.27 8.86 0
6/27/2021 6:15:00 AM 22.5 72.5 0.212 7.27 9.43 0
6/27/2021 6:30:00 AM 22.5 72.5 0.212 7.26 37.38 0
6/27/2021 6:45:00 AM 22.51 72.518 0.212 7.26 8.05 0
6/27/2021 7:00:00 AM 22.51 72.518 0.212 7.26 7.3 0
6/27/2021 7:15:00 AM 22.52 72.536 0.212 7.26 8.39 0
6/27/2021 7:30:00 AM 22.53 72.554 0.212 7.25 7.53 0
6/27/2021 7:45:00 AM 22.54 72.57201 0.212 7.26 4.88 0
6/27/2021 8:00:00 AM 22.56 72.608 0.212 7.26 8.16 0
6/27/2021 8:15:00 AM 22.57 72.626 0.213 7.27 3.97 0
6/27/2021 8:30:00 AM 22.59 72.662 0.211 7.27 6.06 0
6/27/2021 8:45:00 AM 22.62 72.716 0.213 7.27 5.88 0
6/27/2021 9:00:00 AM 22.63 72.734 0.21 7.27 3.92 0
6/27/2021 9:15:00 AM 22.66 72.788 0.213 7.28 5.77 0
6/27/2021 9:30:00 AM 22.71 72.878 0.213 7.3 4.54 0
6/27/2021 9:45:00 AM 22.74 72.932 0.213 7.3 3.85 0
6/27/2021 10:00:00 AM 22.81 73.058 0.213 7.32 9.01 0
6/27/2021 10:15:00 AM 22.88 73.184 0.213 7.34 3.38 0
6/27/2021 10:30:00 AM 22.94 73.292 0.213 7.34 3.99 0
6/27/2021 10:45:00 AM 23.05 73.49 0.213 7.38 3.72 0
6/27/2021 11:00:00 AM 23.19 73.742 0.212 7.4 4.28 0
6/27/2021 11:15:00 AM 23.32 73.976 0.212 7.43 3.78 0
6/27/2021 11:30:00 AM 23.47 74.246 0.213 7.45 3.83 0
6/27/2021 11:45:00 AM 23.72 74.696 0.213 7.49 3.64 0
6/27/2021 12:00:00 PM 24 75.2 0.213 7.53 3.26 0
6/27/2021 12:15:00 PM 24.2 75.56 0.213 7.55 3.5 0
6/27/2021 12:30:00 PM 24.47 76.046 0.213 7.58 3.65 0
6/27/2021 12:45:00 PM 24.68 76.424 0.213 7.61 3.62 0
6/27/2021 1:00:00 PM 24.87 76.766 0.213 7.64 3.48 0
6/27/2021 1:15:00 PM 25.16 77.288 0.213 7.67 4.27 0
6/27/2021 1:30:00 PM 25.34 77.612 0.213 7.71 4.58 0
6/27/2021 1:45:00 PM 25.5 77.9 0.214 7.74 3.5 0
6/27/2021 2:00:00 PM 25.58 78.044 0.214 7.74 3.4 0
6/27/2021 2:15:00 PM 25.6 78.08 0.214 7.77 4.31 0
6/27/2021 2:30:00 PM 25.74 78.332 0.214 7.79 5.68 0
6/27/2021 2:45:00 PM 26.02 78.836 0.214 7.82 5.63 0
6/27/2021 3:00:00 PM 26.25 79.25 0.214 7.85 6.04 0
6/27/2021 3:15:00 PM 26.48 79.664 0.214 7.87 6.72 0
6/27/2021 3:30:00 PM 26.66 79.988 0.215 7.92 7.8 0
6/27/2021 3:45:00 PM 26.83 80.294 0.215 7.96 8.53 0
6/27/2021 4:00:00 PM 26.73 80.114 0.215 7.93 7.2 0
6/27/2021 4:15:00 PM 26.92 80.456 0.215 7.96 7.69 0
6/27/2021 4:30:00 PM 27.07 80.726 0.215 7.97 10.28 0
6/27/2021 4:45:00 PM 27.15 80.87 0.215 8.01 21.43 0
6/27/2021 5:00:00 PM 27.15 80.87 0.216 8.01 45.97 0
6/27/2021 5:15:00 PM 27.18 80.924 0.216 8.02 66.12 0
6/27/2021 5:30:00 PM 27.16 80.888 0.216 8.02 98.04 0
6/27/2021 5:45:00 PM 27.1 80.78 0.214 8.06 138.7 0
6/27/2021 6:00:00 PM 26.97 80.546 0.217 7.99 244.4 0
6/27/2021 6:15:00 PM 26.94 80.492 0.217 8 443.9 0
6/27/2021 6:30:00 PM 26.85 80.33 0.217 7.97 754.6 0
6/27/2021 6:45:00 PM 26.79 80.222 0.217 7.94 1117 0
6/27/2021 7:00:00 PM 26.71 80.078 0.217 7.94 1428 0
6/27/2021 7:15:00 PM 26.63 79.934 0.218 7.91 1546 0
6/27/2021 7:30:00 PM 26.55 79.79 0.218 7.84 2594 0
6/27/2021 7:45:00 PM 26.47 79.646 0.218 7.83 2736 0
6/27/2021 8:00:00 PM 26.4 79.52 0.218 7.79 2621 0
6/27/2021 8:15:00 PM 26.34 79.412 0.218 7.73 2893 0
6/27/2021 8:30:00 PM 26.27 79.286 0.218 7.71 3018 0
6/27/2021 8:45:00 PM 26.18 79.124 0.218 7.7 2323 0
6/27/2021 9:00:00 PM 26.11 78.998 0.219 7.66 2281 0
6/27/2021 9:15:00 PM 26.03 78.854 0.219 7.64 2853 0
6/27/2021 9:30:00 PM 25.96 78.728 0.219 7.61 2255 0
6/27/2021 9:45:00 PM 25.89 78.602 0.219 7.61 2325 0
6/27/2021 10:00:00 PM 25.83 78.494 0.219 7.59 2078 0
6/27/2021 10:15:00 PM 25.78 78.404 0.188 7.55 3454 0
6/27/2021 10:30:00 PM 25.73 78.314 0.194 7.55 2160 0
6/27/2021 10:45:00 PM 25.68 78.224 0.194 7.53 2095 0
6/27/2021 11:00:00 PM 25.64 78.152 0.198 7.52 1945 0
6/27/2021 11:15:00 PM 25.6 78.08 0.2 7.5 1968 0
6/27/2021 11:30:00 PM 25.57 78.026 0.202 7.49 1928 0
6/27/2021 11:45:00 PM 25.54 77.972 0.22 7.46 1808 0
6/28/2021 12:00:00 AM 25.5 77.9 0.22 7.46 1737 0
6/28/2021 12:15:00 AM 25.47 77.846 0.22 7.45 1627 0
6/28/2021 12:30:00 AM 25.45 77.81 0.22 7.43 1664 0
6/28/2021 12:45:00 AM 25.41 77.738 0.22 7.43 1576 0
6/28/2021 1:00:00 AM 25.38 77.684 0.22 7.41 1543 0
6/28/2021 1:15:00 AM 25.34 77.612 0.22 7.4 2025 0
6/28/2021 1:30:00 AM 25.32 77.576 0.22 7.39 1235 0
6/28/2021 1:45:00 AM 25.27 77.486 0.22 7.37 1109 0
6/28/2021 2:00:00 AM 25.25 77.45 0.22 7.37 1150 0
6/28/2021 2:15:00 AM 25.2 77.36 0.22 7.37 889 0
6/28/2021 2:30:00 AM 25.17 77.306 0.22 7.36 1071 0
6/28/2021 2:45:00 AM 25.14 77.252 0.22 7.36 971 0
6/28/2021 3:00:00 AM 25.09 77.162 0.22 7.35 844.1 0
6/28/2021 3:15:00 AM 25.06 77.108 0.218 7.35 867.3 0
6/28/2021 3:30:00 AM 25.03 77.054 0.22 7.34 874.7 0
6/28/2021 3:45:00 AM 24.99 76.982 0.22 7.33 668.5 0
6/28/2021 4:00:00 AM 24.96 76.92799 0.22 7.33 608.7 0
6/28/2021 4:15:00 AM 24.93 76.874 0.22 7.33 613.9 0
6/28/2021 4:30:00 AM 24.89 76.802 0.22 7.31 602.7 0
6/28/2021 4:45:00 AM 24.86 76.748 0.219 7.31 431.4 0
6/28/2021 5:00:00 AM 24.83 76.694 0.219 7.31 667 0
6/28/2021 5:15:00 AM 24.79 76.622 0.219 7.31 524.5 0
6/28/2021 5:30:00 AM 24.75 76.55 0.219 7.3 518.7 0
6/28/2021 5:45:00 AM 24.72 76.496 0.219 7.3 513.1 0
6/28/2021 6:00:00 AM 24.69 76.442 0.219 7.29 49.29 0
6/28/2021 6:15:00 AM 24.67 76.406 0.219 7.29 20.9 0
6/28/2021 6:30:00 AM 24.64 76.352 0.219 7.28 20 0
6/28/2021 6:45:00 AM 24.62 76.316 0.219 7.27 20.98 0
6/28/2021 7:00:00 AM 24.61 76.298 0.219 7.28 12.32 0
6/28/2021 7:15:00 AM 24.59 76.262 0.219 7.28 11.36 0
6/28/2021 7:30:00 AM 24.59 76.262 0.219 7.27 10.11 0
6/28/2021 7:45:00 AM 24.58 76.244 0.219 7.27 11.76 0
6/28/2021 8:00:00 AM 24.59 76.262 0.219 7.28 10.12 0
6/28/2021 8:15:00 AM 24.6 76.28 0.219 7.28 9.81 0
6/28/2021 8:30:00 AM 24.62 76.316 0.219 7.28 10.39 0
6/28/2021 8:45:00 AM 24.62 76.316 0.218 7.29 13.23 0
6/28/2021 9:00:00 AM 24.64 76.352 0.218 7.3 10.22 0
6/28/2021 9:15:00 AM 24.69 76.442 0.218 7.3 9.01 0
6/28/2021 9:30:00 AM 24.74 76.532 0.218 7.32 10.24 0
6/28/2021 9:45:00 AM 24.8 76.64 0.218 7.34 9.32 0
6/28/2021 10:00:00 AM 24.87 76.766 0.218 7.37 8.99 0
6/28/2021 10:15:00 AM 24.91 76.838 0.218 7.37 401 0
6/28/2021 10:30:00 AM 24.93 76.874 0.218 7.37 12.48 0
6/28/2021 10:45:00 AM 24.97 76.946 0.218 7.4 8.99 0
6/28/2021 11:00:00 AM 25.02 77.036 0.217 7.41 8.24 0
6/28/2021 11:15:00 AM 25.16 77.288 0.217 7.45 9.64 0
6/28/2021 11:30:00 AM 25.31 77.558 0.217 7.47 9.19 0
6/28/2021 11:45:00 AM 25.5 77.9 0.217 7.51 9.43 0
6/28/2021 12:00:00 PM 25.74 78.332 0.217 7.55 22.43 0
6/28/2021 12:15:00 PM 26 78.8 0.217 7.61 141.4 0
6/28/2021 12:30:00 PM 26.33 79.394 0.217 7.63 344.8 0
6/28/2021 12:45:00 PM 26.66 79.988 0.216 7.68 7.07 0
6/28/2021 1:00:00 PM 26.93 80.474 0.217 7.78 7.94 0
6/28/2021 1:15:00 PM 27.17 80.906 0.216 7.82 8.26 0
6/28/2021 1:30:00 PM 27.44 81.392 0.216 7.86 8.04 0
6/28/2021 1:45:00 PM 27.79 82.022 0.217 7.9 7.47 0
6/28/2021 2:00:00 PM 28.02 82.436 0.217 7.95 9.85 0
6/28/2021 2:15:00 PM 28.27 82.886 0.217 7.97 8.34 0
6/28/2021 2:30:00 PM 28.44 83.192 0.217 8 9.5 0
6/28/2021 2:45:00 PM 28.5 83.3 0.217 8.01 7.86 0
6/28/2021 3:00:00 PM 28.68 83.624 0.217 8.05 7.56 0
6/28/2021 3:15:00 PM 28.81 83.858 0.217 8.07 9.32 0
6/28/2021 3:30:00 PM 28.95 84.11 0.217 8.07 7.12 0
6/28/2021 3:45:00 PM 29.16 84.488 0.218 8.11 7.14 0
6/28/2021 4:00:00 PM 29.33 84.794 0.218 8.14 8.68 0
6/28/2021 4:15:00 PM 29.44 84.992 0.215 8.15 6.68 0
6/28/2021 4:30:00 PM 29.51 85.118 0.219 8.13 7.58 0
6/28/2021 4:45:00 PM 29.45 85.01 0.218 8.14 8.51 0
6/28/2021 5:00:00 PM 29.55 85.18999 0.219 8.17 7.68 0
6/28/2021 5:15:00 PM 29.54 85.172 0.219 8.17 7.69 0
6/28/2021 5:30:00 PM 29.47 85.046 0.22 8.15 7.39 0
6/28/2021 5:45:00 PM 29.39 84.902 0.219 8.13 7.07 0
6/28/2021 6:00:00 PM 29.43 84.974 0.22 8.11 7.04 0
6/28/2021 6:15:00 PM 29.37 84.866 0.22 8.1 6.77 0
6/28/2021 6:30:00 PM 29.26 84.668 0.22 8.1 7.78 0
6/28/2021 6:45:00 PM 29.15 84.47 0.221 8.06 8.76 0
6/28/2021 7:00:00 PM 29.05 84.28999 0.221 8 7.85 0
6/28/2021 7:15:00 PM 28.94 84.092 0.221 7.96 8.83 0
6/28/2021 7:30:00 PM 28.83 83.894 0.222 7.91 7.03 0
6/28/2021 7:45:00 PM 28.68 83.624 0.222 7.9 8.52 0
6/28/2021 8:00:00 PM 28.57 83.426 0.222 7.85 7.2 0
6/28/2021 8:15:00 PM 28.46 83.228 0.222 7.82 7.04 0
6/28/2021 8:30:00 PM 28.33 82.994 0.222 7.77 7.46 0
6/28/2021 8:45:00 PM 28.23 82.814 0.222 7.72 7.48 0
6/28/2021 9:00:00 PM 28.13 82.634 0.223 7.68 7.63 0
6/28/2021 9:15:00 PM 28.04 82.472 0.223 7.67 7.07 0
6/28/2021 9:30:00 PM 27.96 82.328 0.223 7.63 7.84 0
6/28/2021 9:45:00 PM 27.89 82.202 0.223 7.61 7.09 0
6/28/2021 10:00:00 PM 27.83 82.094 0.223 7.59 7.54 0
6/28/2021 10:15:00 PM 27.78 82.004 0.223 7.56 7.8 0
6/28/2021 10:30:00 PM 27.71 81.878 0.223 7.55 9.13 0
6/28/2021 10:45:00 PM 27.65 81.77 0.223 7.52 8.45 0
6/28/2021 11:00:00 PM 27.59 81.662 0.223 7.5 8.56 0
6/28/2021 11:15:00 PM 27.54 81.57201 0.223 7.49 8.29 0
6/28/2021 11:30:00 PM 27.48 81.464 0.223 7.48 8.15 0
6/28/2021 11:45:00 PM 27.41 81.338 0.223 7.47 8.87 0
6/29/2021 12:00:00 AM 27.35 81.23 0.223 7.46 8.96 0
6/29/2021 12:15:00 AM 27.29 81.122 0.223 7.44 8.35 0
6/29/2021 12:30:00 AM 27.24 81.032 0.224 7.43 9.14 0
6/29/2021 12:45:00 AM 27.19 80.942 0.223 7.42 8.99 0
6/29/2021 1:00:00 AM 27.14 80.852 0.223 7.41 8.43 0
6/29/2021 1:15:00 AM 27.08 80.744 0.224 7.4 8.21 0
6/29/2021 1:30:00 AM 27.02 80.636 0.223 7.39 8.43 0
6/29/2021 1:45:00 AM 26.99 80.582 0.223 7.39 8.86 0
6/29/2021 2:00:00 AM 26.93 80.474 0.224 7.37 8.46 0
6/29/2021 2:15:00 AM 26.91 80.438 0.223 7.37 7.89 0
6/29/2021 2:30:00 AM 26.85 80.33 0.223 7.36 8.24 0
6/29/2021 2:45:00 AM 26.79 80.222 0.223 7.35 8.31 0
6/29/2021 3:00:00 AM 26.73 80.114 0.223 7.35 9.19 0
6/29/2021 3:15:00 AM 26.68 80.024 0.223 7.35 8.85 0
6/29/2021 3:30:00 AM 26.63 79.934 0.223 7.34 7.9 0
6/29/2021 3:45:00 AM 26.58 79.844 0.223 7.33 9.07 0
6/29/2021 4:00:00 AM 26.53 79.754 0.223 7.33 8.24 0
6/29/2021 4:15:00 AM 26.49 79.682 0.223 7.33 8.33 0
6/29/2021 4:30:00 AM 26.43 79.574 0.223 7.32 8.22 0
6/29/2021 4:45:00 AM 26.37 79.466 0.223 7.31 8.58 0
6/29/2021 5:00:00 AM 26.33 79.394 0.223 7.31 8.23 0
6/29/2021 5:15:00 AM 26.27 79.286 0.223 7.31 8.2 0
6/29/2021 5:30:00 AM 26.22 79.196 0.223 7.3 10.33 0
6/29/2021 5:45:00 AM 26.19 79.142 0.223 7.3 8.39 0
6/29/2021 6:00:00 AM 26.13 79.034 0.223 7.3 9.1 0
6/29/2021 6:15:00 AM 26.09 78.962 0.223 7.29 8.83 0
6/29/2021 6:30:00 AM 26.03 78.854 0.223 7.29 9.07 0
6/29/2021 6:45:00 AM 25.99 78.782 0.223 7.29 571.9 0
6/29/2021 7:00:00 AM 25.97 78.746 0.223 7.28 8.23 0
6/29/2021 7:15:00 AM 25.95 78.71 0.223 7.28 9 0
6/29/2021 7:30:00 AM 25.94 78.692 0.223 7.28 9.15 0
6/29/2021 7:45:00 AM 25.92 78.656 0.223 7.28 8.3 0
6/29/2021 8:00:00 AM 25.92 78.656 0.223 7.28 9.01 0
6/29/2021 8:15:00 AM 25.91 78.638 0.223 7.28 8.51 0
6/29/2021 8:30:00 AM 25.9 78.62 0.223 7.28 7.99 0
6/29/2021 8:45:00 AM 25.89 78.602 0.223 7.28 7.54 0
6/29/2021 9:00:00 AM 25.9 78.62 0.223 7.28 7.71 0
6/29/2021 9:15:00 AM 25.91 78.638 0.223 7.29 7.52 0
6/29/2021 9:30:00 AM 25.92 78.656 0.223 7.3 7.62 0
6/29/2021 9:45:00 AM 25.96 78.728 0.223 7.3 8.2 0
6/29/2021 10:00:00 AM 26.01 78.818 0.223 7.32 7.32 0
6/29/2021 10:15:00 AM 26.05 78.89 0.223 7.32 7.38 0
6/29/2021 10:30:00 AM 26.15 79.07 0.223 7.34 7.94 0
6/29/2021 10:45:00 AM 26.26 79.268 0.223 7.37 7.87 0
6/29/2021 11:00:00 AM 26.44 79.592 0.223 7.4 7.52 0
6/29/2021 11:15:00 AM 26.6 79.88 0.223 7.43 7.23 0
6/29/2021 11:30:00 AM 26.79 80.222 0.223 7.47 7.19 0
6/29/2021 11:45:00 AM 27.01 80.618 0.222 7.49 7.12 0
6/29/2021 12:00:00 PM 27.26 81.068 0.222 7.54 6.85 0
6/29/2021 12:15:00 PM 27.52 81.536 0.222 7.58 7.32 0
6/29/2021 12:30:00 PM 27.87 82.166 0.222 7.64 7.08 0
6/29/2021 12:45:00 PM 28.18 82.724 0.222 7.68 6.86 0
6/29/2021 1:00:00 PM 28.5 83.3 0.222 7.72 7.24 0
6/29/2021 1:15:00 PM 28.82 83.876 0.222 7.78 8.76 0
6/29/2021 1:30:00 PM 29.06 84.308 0.223 7.89 11.86 0
6/29/2021 1:45:00 PM 29.29 84.722 0.222 7.84 8.66 0
6/29/2021 2:00:00 PM 29.64 85.35201 0.222 7.89 8.35 0
6/29/2021 2:15:00 PM 29.94 85.892 0.222 7.94 7.32 0
6/29/2021 2:30:00 PM 30.22 86.396 0.223 7.97 7.66 0
6/29/2021 2:45:00 PM 30.12 86.216 0.223 7.98 8 0
6/29/2021 3:00:00 PM 30.33 86.594 0.223 8 7.67 0
6/29/2021 3:15:00 PM 30.63 87.134 0.223 8.05 7.72 0
6/29/2021 3:30:00 PM 30.81 87.458 0.223 8.12 8.2 0
6/29/2021 3:45:00 PM 30.85 87.53 0.224 8.14 7.39 0
6/29/2021 4:00:00 PM 30.9 87.62 0.224 8.17 12.31 0
6/29/2021 4:15:00 PM 31.13 88.034 0.224 8.17 8.75 0
6/29/2021 4:30:00 PM 31.22 88.196 0.224 8.15 8.01 0
6/29/2021 4:45:00 PM 31.33 88.394 0.224 8.17 8.83 0
6/29/2021 5:00:00 PM 31.35 88.43 0.225 8.19 7.29 0
6/29/2021 5:15:00 PM 31.33 88.394 0.225 8.21 7.32 0
6/29/2021 5:30:00 PM 31.28 88.304 0.225 8.18 8.92 0
6/29/2021 5:45:00 PM 31.16 88.088 0.225 8.11 7.87 0
6/29/2021 6:00:00 PM 31.12 88.01601 0.226 8.12 7.77 0
6/29/2021 6:15:00 PM 30.98 87.764 0.226 8.1 8.63 0
6/29/2021 6:30:00 PM 30.82 87.476 0.226 8.05 11.29 0
6/29/2021 6:45:00 PM 30.62 87.116 0.227 8.04 6.98 0
6/29/2021 7:00:00 PM 30.46 86.828 0.227 7.97 8.31 0
6/29/2021 7:15:00 PM 30.31 86.558 0.228 7.93 6.84 0
6/29/2021 7:30:00 PM 30.14 86.252 0.228 7.88 6.95 0
6/29/2021 7:45:00 PM 29.98 85.964 0.228 7.83 7.23 0
6/29/2021 8:00:00 PM 29.87 85.76601 0.229 7.8 7.71 0
6/29/2021 8:15:00 PM 29.7 85.46001 0.229 7.73 7.65 0
6/29/2021 8:30:00 PM 29.55 85.18999 0.229 7.7 7.57 0
6/29/2021 8:45:00 PM 29.44 84.992 0.229 7.67 7.66 0
6/29/2021 9:00:00 PM 29.31 84.758 0.229 7.65 7.46 0
6/29/2021 9:15:00 PM 29.19 84.542 0.229 7.63 7.89 0
6/29/2021 9:30:00 PM 29.09 84.362 0.23 7.59 8.5 0
6/29/2021 9:45:00 PM 28.99 84.182 0.23 7.58 8.32 0
6/29/2021 10:00:00 PM 28.93 84.074 0.23 7.56 7.74 0
6/29/2021 10:15:00 PM 28.82 83.876 0.23 7.53 8.42 0
6/29/2021 10:30:00 PM 28.77 83.786 0.23 7.53 7.41 0
6/29/2021 10:45:00 PM 28.66 83.588 0.231 7.5 7.36 0
6/29/2021 11:00:00 PM 28.58 83.444 0.231 7.49 8.08 0
6/29/2021 11:15:00 PM 28.52 83.336 0.231 7.47 8.67 0
6/29/2021 11:30:00 PM 28.42 83.156 0.231 7.46 8.26 0
6/29/2021 11:45:00 PM 28.35 83.03 0.231 7.47 7.75 0
6/30/2021 12:00:00 AM 28.29 82.922 0.231 7.44 8.03 0
6/30/2021 12:15:00 AM 28.18 82.724 0.231 7.42 7.35 0
6/30/2021 12:30:00 AM 28.12 82.616 0.231 7.42 8.26 0
6/30/2021 12:45:00 AM 28 82.4 0.231 7.4 7.61 0
6/30/2021 1:00:00 AM 27.94 82.292 0.232 7.39 7.84 0
6/30/2021 1:15:00 AM 27.87 82.166 0.231 7.38 7.33 0
6/30/2021 1:30:00 AM 27.79 82.022 0.232 7.38 7.83 0
6/30/2021 1:45:00 AM 27.72 81.896 0.232 7.37 7.6 0
6/30/2021 2:00:00 AM 27.65 81.77 0.232 7.37 7.93 0
6/30/2021 2:15:00 AM 27.6 81.68 0.232 7.35 8 0
6/30/2021 2:30:00 AM 27.53 81.554 0.232 7.36 8.42 0
6/30/2021 2:45:00 AM 27.49 81.482 0.232 7.35 7.92 0
6/30/2021 3:00:00 AM 27.44 81.392 0.232 7.33 7.53 0
6/30/2021 3:15:00 AM 27.36 81.248 0.232 7.33 7.91 0
6/30/2021 3:30:00 AM 27.28 81.104 0.232 7.33 7.34 0
6/30/2021 3:45:00 AM 27.24 81.032 0.232 7.32 7.88 0
6/30/2021 4:00:00 AM 27.2 80.96 0.232 7.32 8.82 0
6/30/2021 4:15:00 AM 27.13 80.834 0.232 7.32 8.08 0
6/30/2021 4:30:00 AM 27.06 80.708 0.232 7.32 4992 0
6/30/2021 4:45:00 AM 27.03 80.654 0.232 7.31 16.97 0
6/30/2021 5:00:00 AM 26.92 80.456 0.232 7.3 9.03 0
6/30/2021 5:15:00 AM 26.91 80.438 0.232 7.3 4992 0
6/30/2021 5:30:00 AM 26.83 80.294 0.233 7.3 8.17 0
6/30/2021 5:45:00 AM 26.81 80.258 0.233 7.29 8.89 0
6/30/2021 6:00:00 AM 26.73 80.114 0.233 7.29 7.92 0
6/30/2021 6:15:00 AM 26.67 80.006 0.233 7.28 7.96 0
6/30/2021 6:30:00 AM 26.65 79.97 0.233 7.28 8.35 0
6/30/2021 6:45:00 AM 26.59 79.862 0.233 7.28 8.32 0
6/30/2021 7:00:00 AM 26.61 79.898 0.233 7.28 8.26 0
6/30/2021 7:15:00 AM 26.55 79.79 0.233 7.28 8.51 0
6/30/2021 7:30:00 AM 26.52 79.736 0.233 7.27 8.15 0
6/30/2021 7:45:00 AM 26.48 79.664 0.233 7.28 8.12 0
6/30/2021 8:00:00 AM 26.48 79.664 0.233 7.28 8.05 0
6/30/2021 8:15:00 AM 26.49 79.682 0.233 7.27 7.62 0
6/30/2021 8:30:00 AM 26.47 79.646 0.233 7.27 7.82 0
6/30/2021 8:45:00 AM 26.47 79.646 0.233 7.27 8.11 0
6/30/2021 9:00:00 AM 26.48 79.664 0.234 7.27 6.83 0
6/30/2021 9:15:00 AM 26.51 79.718 0.234 7.28 7.99 0
6/30/2021 9:30:00 AM 26.52 79.736 0.234 7.28 7.49 0
6/30/2021 9:45:00 AM 26.53 79.754 0.234 7.28 7.54 0
6/30/2021 10:00:00 AM 26.58 79.844 0.234 7.29 6.62 0
6/30/2021 10:15:00 AM 26.64 79.952 0.234 7.3 7.83 0
6/30/2021 10:30:00 AM 26.7 80.06 0.234 7.31 8.01 0
6/30/2021 10:45:00 AM 26.84 80.312 0.233 7.34 7.53 0
6/30/2021 11:00:00 AM 27.03 80.654 0.233 7.36 7.23 0
6/30/2021 11:15:00 AM 27.2 80.96 0.233 7.4 7.23 0
6/30/2021 11:30:00 AM 27.38 81.284 0.233 7.42 7 0
6/30/2021 11:45:00 AM 27.62 81.716 0.223 7.47 7.17 0
6/30/2021 12:00:00 PM 27.88 82.184 0.233 7.5 7.21 0
6/30/2021 12:15:00 PM 28.09 82.562 0.212 7.52 7.05 0
6/30/2021 12:30:00 PM 28.41 83.138 0.212 7.55 6.84 0
6/30/2021 12:45:00 PM 28.7 83.66 0.229 7.57 6.79 0
6/30/2021 1:00:00 PM 29.1 84.38 0.224 7.62 6.39 0
6/30/2021 1:15:00 PM 29.5 85.1 0.216 7.67 6.75 0
6/30/2021 1:30:00 PM 29.82 85.676 0.233 7.72 7.55 0
6/30/2021 1:45:00 PM 29.97 85.946 0.212 7.73 7.15 0
6/30/2021 2:00:00 PM 30.11 86.198 0.213 7.75 7.3 0
6/30/2021 2:15:00 PM 30.35 86.63 0.229 7.8 6.82 0
6/30/2021 2:30:00 PM 30.53 86.954 0.226 7.83 7.15 0
6/30/2021 2:45:00 PM 30.86 87.548 0.223 7.86 6.87 0
6/30/2021 3:00:00 PM 31.02 87.836 0.234 7.9 7.03 0
6/30/2021 3:15:00 PM 31.11 87.998 0.233 7.92 6.79 0
6/30/2021 3:30:00 PM 31.03 87.854 0.234 7.92 6.92 0
6/30/2021 3:45:00 PM 31.12 88.01601 0.234 7.93 6.45 0
6/30/2021 4:00:00 PM 31.07 87.926 0.234 7.95 6.68 0
6/30/2021 4:15:00 PM 31.36 88.448 0.234 7.96 6.58 0
6/30/2021 4:30:00 PM 31.45 88.61 0.234 8.02 6.77 0
6/30/2021 4:45:00 PM 31.33 88.394 0.234 7.98 6.5 0
6/30/2021 5:00:00 PM 31.41 88.538 0.234 7.99 6.84 0
6/30/2021 5:15:00 PM 31.28 88.304 0.235 7.96 7.21 0
6/30/2021 5:30:00 PM 31.42 88.556 0.235 8 7.16 0
6/30/2021 5:45:00 PM 31.27 88.286 0.235 7.97 6.87 0
6/30/2021 6:00:00 PM 31.23 88.214 0.235 7.99 6.87 0
6/30/2021 6:15:00 PM 30.93 87.674 0.235 7.92 6.77 0
6/30/2021 6:30:00 PM 30.52 86.936 0.236 7.89 7.04 0
6/30/2021 6:45:00 PM 30.32 86.576 0.236 7.86 6.49 0
6/30/2021 7:00:00 PM 30.19 86.342 0.236 7.82 6.73 0
6/30/2021 7:15:00 PM 30.12 86.216 0.236 7.78 6.61 0
6/30/2021 7:30:00 PM 29.99 85.982 0.237 7.75 6.87 0
6/30/2021 7:45:00 PM 29.55 85.18999 0.231 7.7 11.77 0
6/30/2021 8:00:00 PM 29.42 84.956 0.23 7.64 22.97 0
6/30/2021 8:15:00 PM 29.43 84.974 0.233 7.61 13.92 0
6/30/2021 8:30:00 PM 29.38 84.884 0.234 7.59 10 0
6/30/2021 8:45:00 PM 29.25 84.65 0.235 7.57 9.39 0
6/30/2021 9:00:00 PM 29.15 84.47 0.235 7.53 8.49 0
6/30/2021 9:15:00 PM 29.11 84.39799 0.235 7.52 7.63 0
6/30/2021 9:30:00 PM 28.99 84.182 0.236 7.49 6.94 0
6/30/2021 9:45:00 PM 28.9 84.02 0.235 7.47 7.39 0
6/30/2021 10:00:00 PM 28.82 83.876 0.236 7.46 7.64 0
6/30/2021 10:15:00 PM 28.77 83.786 0.236 7.45 7.69 0
6/30/2021 10:30:00 PM 28.68 83.624 0.236 7.4 7.1 0
6/30/2021 10:45:00 PM 28.59 83.462 0.236 7.41 7.13 0
6/30/2021 11:00:00 PM 28.57 83.426 0.236 7.42 7.5 0
6/30/2021 11:15:00 PM 28.47 83.24599 0.237 7.39 7.92 0
6/30/2021 11:30:00 PM 28.31 82.958 0.237 7.38 8.59 0
6/30/2021 11:45:00 PM 28.28 82.904 0.238 7.37 7.33 0
7/1/2021 12:00:00 AM 28.19 82.742 0.238 7.36 7.39 0
7/1/2021 12:15:00 AM 28.09 82.562 0.238 7.33 7.16 0
7/1/2021 12:30:00 AM 28.06 82.508 0.239 7.34 7.87 0
7/1/2021 12:45:00 AM 27.98 82.364 0.239 7.34 8.02 0
7/1/2021 1:00:00 AM 27.85 82.13 0.239 7.33 7.07 0
7/1/2021 1:15:00 AM 27.81 82.058 0.24 7.33 7.31 0
7/1/2021 1:30:00 AM 27.72 81.896 0.24 7.33 7.26 0
7/1/2021 1:45:00 AM 27.65 81.77 0.24 7.33 7.18 0
7/1/2021 2:00:00 AM 27.57 81.626 0.24 7.32 7.39 0
7/1/2021 2:15:00 AM 27.5 81.5 0.24 7.32 6.89 0
7/1/2021 2:30:00 AM 27.39 81.302 0.24 7.31 11.02 0
7/1/2021 2:45:00 AM 27.34 81.212 0.24 7.31 9.24 0
7/1/2021 3:00:00 AM 27.3 81.14 0.241 7.31 9.92 0
7/1/2021 3:15:00 AM 27.26 81.068 0.241 7.31 10 0
7/1/2021 3:30:00 AM 27.19 80.942 0.241 7.31 8.53 0
7/1/2021 3:45:00 AM 27.15 80.87 0.241 7.31 7.91 0
7/1/2021 4:00:00 AM 27.11 80.798 0.242 7.31 7.5 0
7/1/2021 4:15:00 AM 27.05 80.69 0.241 7.31 7.69 0
7/1/2021 4:30:00 AM 27.03 80.654 0.242 7.31 8.12 0
7/1/2021 4:45:00 AM 26.99 80.582 0.242 7.3 8.23 0
7/1/2021 5:00:00 AM 26.91 80.438 0.242 7.3 7.87 0
7/1/2021 5:15:00 AM 26.89 80.402 0.242 7.29 8.23 0
7/1/2021 5:30:00 AM 26.85 80.33 0.238 7.3 8.21 0
7/1/2021 5:45:00 AM 26.81 80.258 0.243 7.29 8.67 0
7/1/2021 6:00:00 AM 26.77 80.186 0.219 7.29 9.38 0
7/1/2021 6:15:00 AM 26.7 80.06 0.232 7.28 10.34 0
7/1/2021 6:30:00 AM 26.7 80.06 0.243 7.29 7.78 0
7/1/2021 6:45:00 AM 26.67 80.006 0.243 7.29 20.7 0
7/1/2021 7:00:00 AM 26.63 79.934 0.243 7.28 8.31 0
7/1/2021 7:15:00 AM 26.61 79.898 0.243 7.29 7.3 0
7/1/2021 7:30:00 AM 26.6 79.88 0.243 7.29 9.44 0
7/1/2021 7:45:00 AM 26.6 79.88 0.228 7.3 7.28 0
7/1/2021 8:00:00 AM 26.59 79.862 0.236 7.29 7.48 0
7/1/2021 8:15:00 AM 26.54 79.772 0.243 7.29 7.32 0
7/1/2021 8:30:00 AM 26.49 79.682 0.243 7.3 7.05 0
7/1/2021 8:45:00 AM 26.4 79.52 0.24 7.29 8.52 0
7/1/2021 9:00:00 AM 26.37 79.466 0.24 7.28 10.41 0
7/1/2021 9:15:00 AM 26.37 79.466 0.241 7.28 9.3 0
7/1/2021 9:30:00 AM 26.32 79.376 0.262 7.29 8.48 0
7/1/2021 9:45:00 AM 26.12 79.016 0.232 7.33 21.83 0
7/1/2021 10:00:00 AM 25.97 78.746 0.225 7.3 72.05 0
7/1/2021 10:15:00 AM 26.01 78.818 0.214 7.3 37.19 0
7/1/2021 10:30:00 AM 26.11 78.998 0.235 7.31 19.83 0
7/1/2021 10:45:00 AM 26.14 79.052 0.261 7.31 13.4 0
7/1/2021 11:00:00 AM 26.1 78.98 0.24 7.31 2804 0
7/1/2021 11:15:00 AM 26.11 78.998 0.238 7.32 9.13 0
7/1/2021 11:30:00 AM 26.22 79.196 0.237 7.35 8.54 0
7/1/2021 11:45:00 AM 26.31 79.358 0.244 7.37 8.32 0
7/1/2021 12:00:00 PM 26.39 79.502 0.237 7.38 8.16 0
7/1/2021 12:15:00 PM 26.35 79.43 0.24 7.38 8.43 0
7/1/2021 12:30:00 PM 26.29 79.32201 0.255 7.37 8.46 0
7/1/2021 12:45:00 PM 26.24 79.232 0.246 7.37 7.82 0
7/1/2021 1:00:00 PM 26.1 78.98 0.233 7.38 8.12 0
7/1/2021 1:15:00 PM 25.66 78.188 0.208 7.39 138.4 0
7/1/2021 1:30:00 PM 25.55 77.99 0.203 7.33 186.8 0
7/1/2021 1:45:00 PM 25.82 78.476 0.219 7.37 57.39 0
7/1/2021 2:00:00 PM 25.94 78.692 0.227 7.38 32.23 0
7/1/2021 2:15:00 PM 26.05 78.89 0.23 7.4 21.38 0
7/1/2021 2:30:00 PM 26.09 78.962 0.231 7.42 2975 0
7/1/2021 2:45:00 PM 26.09 78.962 0.231 7.43 11.18 0
7/1/2021 3:00:00 PM 26.05 78.89 0.231 7.44 10.87 0
7/1/2021 3:15:00 PM 26.03 78.854 0.231 7.43 9.71 0
7/1/2021 3:30:00 PM 26.08 78.944 0.247 7.46 12.32 0
7/1/2021 3:45:00 PM 26.1 78.98 0.231 7.47 12.02 0
7/1/2021 4:00:00 PM 26.09 78.962 0.231 7.47 13.04 0
7/1/2021 4:15:00 PM 26.09 78.962 0.231 7.48 10.7 0
7/1/2021 4:30:00 PM 26.14 79.052 0.231 7.5 12.1 0
7/1/2021 4:45:00 PM 26.11 78.998 0.232 7.5 11.68 0
7/1/2021 5:00:00 PM 26.08 78.944 0.233 7.5 11.94 0
7/1/2021 5:15:00 PM 26.06 78.908 0.234 7.5 13.47 0
7/1/2021 5:30:00 PM 26.07 78.926 0.235 7.5 14.15 0
7/1/2021 5:45:00 PM 26.09 78.962 0.239 7.51 14.5 0
7/1/2021 6:00:00 PM 26.08 78.944 0.248 7.51 14.46 0
7/1/2021 6:15:00 PM 26.08 78.944 0.236 7.52 13.97 0
7/1/2021 6:30:00 PM 26.07 78.926 0.235 7.53 13.42 0
7/1/2021 6:45:00 PM 26.04 78.872 0.235 7.53 12.58 0
7/1/2021 7:00:00 PM 26.03 78.854 0.235 7.54 13.21 0
7/1/2021 7:15:00 PM 25.99 78.782 0.236 7.54 10.75 0
7/1/2021 7:30:00 PM 25.97 78.746 0.236 7.54 12.19 0
7/1/2021 7:45:00 PM 25.93 78.674 0.237 7.55 11.89 0
7/1/2021 8:00:00 PM 25.87 78.566 0.237 7.53 11.73 0
7/1/2021 8:15:00 PM 25.83 78.494 0.237 7.52 9.71 0
7/1/2021 8:30:00 PM 25.49 77.882 0.225 7.51 58.62 0
7/1/2021 8:45:00 PM 25.49 77.882 0.229 7.49 43.43 0
7/1/2021 9:00:00 PM 25.49 77.882 0.234 7.5 21.24 0
7/1/2021 9:15:00 PM 25.39 77.702 0.235 7.49 18.32 0
7/1/2021 9:30:00 PM 25.29 77.522 0.236 7.48 16.57 0
7/1/2021 9:45:00 PM 25.17 77.306 0.237 7.47 19.35 0
7/1/2021 10:00:00 PM 25.07 77.126 0.237 7.47 27.58 0
7/1/2021 10:15:00 PM 24.99 76.982 0.237 7.46 23.7 0
7/1/2021 10:30:00 PM 24.91 76.838 0.237 7.46 23.07 0
7/1/2021 10:45:00 PM 24.84 76.712 0.237 7.45 27.35 0
7/1/2021 11:00:00 PM 24.76 76.568 0.237 7.45 28 0
7/1/2021 11:15:00 PM 24.69 76.442 0.238 7.45 29.68 0
7/1/2021 11:30:00 PM 24.64 76.352 0.248 7.45 34.85 0
7/1/2021 11:45:00 PM 24.61 76.298 0.242 7.44 40 0
7/2/2021 12:00:00 AM 24.61 76.298 0.236 7.44 41.24 0
7/2/2021 12:15:00 AM 24.59 76.262 0.235 7.44 35.39 0
7/2/2021 12:30:00 AM 24.55 76.19 0.234 7.43 34.87 0
7/2/2021 12:45:00 AM 24.54 76.172 0.233 7.42 31.81 0
7/2/2021 1:00:00 AM 24.48 76.064 0.231 7.42 34.98 0
7/2/2021 1:15:00 AM 24.4 75.92 0.229 7.41 37.59 0
7/2/2021 1:30:00 AM 24.32 75.776 0.227 7.41 39.16 0
7/2/2021 1:45:00 AM 24.21 75.578 0.225 7.41 45.5 0
7/2/2021 2:00:00 AM 24.11 75.398 0.223 7.41 49.86 0
7/2/2021 2:15:00 AM 24.02 75.236 0.223 7.41 55.84 0
7/2/2021 2:30:00 AM 23.88 74.984 0.223 7.41 60.15 0
7/2/2021 2:45:00 AM 23.74 74.732 0.223 7.42 71.29 0
7/2/2021 3:00:00 AM 23.6 74.48 0.222 7.42 80.88 0
7/2/2021 3:15:00 AM 23.5 74.3 0.22 7.43 88.37 0
7/2/2021 3:30:00 AM 23.43 74.174 0.218 7.43 85.67 0
7/2/2021 3:45:00 AM 23.38 74.084 0.216 7.43 85.97 0
7/2/2021 4:00:00 AM 23.33 73.994 0.215 7.42 86.82 0
7/2/2021 4:15:00 AM 23.33 73.994 0.214 7.42 86.04 0
7/2/2021 4:30:00 AM 23.31 73.958 0.213 7.41 78.34 0
7/2/2021 4:45:00 AM 23.3 73.94 0.213 7.41 73.64 0
7/2/2021 5:00:00 AM 23.29 73.922 0.213 7.4 73.02 0
7/2/2021 5:15:00 AM 23.29 73.922 0.213 7.39 65.91 0
7/2/2021 5:30:00 AM 23.29 73.922 0.214 7.39 65.56 0
7/2/2021 5:45:00 AM 23.28 73.904 0.214 7.38 63.62 0
7/2/2021 6:00:00 AM 23.27 73.886 0.214 7.38 64.22 0
7/2/2021 6:15:00 AM 23.25 73.85 0.215 7.37 64.65 0
7/2/2021 6:30:00 AM 23.21 73.778 0.215 7.37 66.55 0
7/2/2021 6:45:00 AM 23.18 73.724 0.216 7.37 58.75 0
7/2/2021 7:00:00 AM 23.14 73.652 0.217 7.37 65.9 0
7/2/2021 7:15:00 AM 23.11 73.598 0.218 7.37 64.72 0
7/2/2021 7:30:00 AM 23.08 73.544 0.221 7.37 64.12 0
7/2/2021 7:45:00 AM 23.04 73.472 0.222 7.37 59.9 0
7/2/2021 8:00:00 AM 22.99 73.382 0.224 7.37 59.31 0
7/2/2021 8:15:00 AM 22.99 73.382 0.228 7.38 61.71 0
7/2/2021 8:30:00 AM 22.97 73.346 0.23 7.38 57.64 0
7/2/2021 8:45:00 AM 22.93 73.274 0.231 7.37 57.46 0
7/2/2021 9:00:00 AM 22.93 73.274 0.233 7.38 52.57 0
7/2/2021 9:15:00 AM 22.93 73.274 0.237 7.39 49.45 0
7/2/2021 9:30:00 AM 22.91 73.238 0.237 7.39 45.94 0
7/2/2021 9:45:00 AM 22.9 73.22 0.239 7.39 49.4 0
7/2/2021 10:00:00 AM 22.9 73.22 0.24 7.39 44.89 0
7/2/2021 10:15:00 AM 22.88 73.184 0.24 7.39 45.13 0
7/2/2021 10:30:00 AM 22.9 73.22 0.241 7.39 43.02 0
7/2/2021 10:45:00 AM 22.9 73.22 0.241 7.39 38.74 0
7/2/2021 11:00:00 AM 22.91 73.238 0.241 7.39 39.53 0
7/2/2021 11:15:00 AM 22.93 73.274 0.241 7.4 37.84 0
7/2/2021 11:30:00 AM 22.95 73.31 0.241 7.4 37.2 0
7/2/2021 11:45:00 AM 22.97 73.346 0.241 7.4 37.25 0
7/2/2021 12:00:00 PM 23 73.4 0.241 7.4 35.41 0
7/2/2021 12:15:00 PM 23.03 73.454 0.241 7.4 47.65 0
7/2/2021 12:30:00 PM 23.1 73.58 0.24 7.4 34.18 0
7/2/2021 12:45:00 PM 23.18 73.724 0.233 7.41 33.45 0
7/2/2021 1:00:00 PM 23.25 73.85 0.229 7.42 31.19 0
7/2/2021 1:15:00 PM 23.3 73.94 0.24 7.42 28.61 0
7/2/2021 1:30:00 PM 23.34 74.012 0.239 7.41 29.22 0
7/2/2021 1:45:00 PM 23.27 73.886 0.226 7.42 41.65 0
7/2/2021 2:00:00 PM 23.4 74.12 0.236 7.43 34.83 0
7/2/2021 2:15:00 PM 23.52 74.336 0.236 7.44 26.92 0
7/2/2021 2:30:00 PM 23.64 74.552 0.231 7.45 26.15 0
7/2/2021 2:45:00 PM 23.77 74.786 0.233 7.46 27.09 0
7/2/2021 3:00:00 PM 23.83 74.894 0.235 7.46 23.76 0
7/2/2021 3:15:00 PM 23.95 75.11 0.23 7.46 24.16 0
7/2/2021 3:30:00 PM 23.9 75.02 0.23 7.46 27.63 0
7/2/2021 3:45:00 PM 23.87 74.966 0.227 7.46 23.93 0
7/2/2021 4:00:00 PM 23.76 74.768 0.232 7.47 24.69 0
7/2/2021 4:15:00 PM 23.75 74.75 0.233 7.47 22.65 0
7/2/2021 4:30:00 PM 23.74 74.732 0.226 7.47 24.54 0
7/2/2021 4:45:00 PM 23.75 74.75 0.226 7.48 20.74 0
7/2/2021 5:00:00 PM 23.79 74.82201 0.229 7.48 21.3 0
7/2/2021 5:15:00 PM 23.77 74.786 0.229 7.49 18.5 0
7/2/2021 5:30:00 PM 23.86 74.948 0.228 7.5 20.67 0
7/2/2021 5:45:00 PM 23.87 74.966 0.227 7.49 21.19 0
7/2/2021 6:00:00 PM 23.83 74.894 0.227 7.49 20.81 0
7/2/2021 6:15:00 PM 23.77 74.786 0.227 7.5 19.9 0
7/2/2021 6:30:00 PM 23.73 74.714 0.227 7.49 24.63 0
7/2/2021 6:45:00 PM 23.64 74.552 0.222 7.49 19.54 0
7/2/2021 7:00:00 PM 23.58 74.444 0.225 7.48 18.33 0
7/2/2021 7:15:00 PM 23.55 74.39 0.229 7.48 23.76 0
7/2/2021 7:30:00 PM 23.48 74.264 0.228 7.48 21.03 0
7/2/2021 7:45:00 PM 23.41 74.138 0.228 7.48 22.41 0
7/2/2021 8:00:00 PM 23.42 74.156 0.228 7.49 24.35 0
7/2/2021 8:15:00 PM 23.37 74.066 0.228 7.48 23.68 0
7/2/2021 8:30:00 PM 23.37 74.066 0.227 7.48 27.74 0
7/2/2021 8:45:00 PM 23.33 73.994 0.226 7.48 31.12 0
7/2/2021 9:00:00 PM 23.26 73.868 0.224 7.51 40.87 0
7/2/2021 9:15:00 PM 23.15 73.67 0.222 7.53 57.55 0
7/2/2021 9:30:00 PM 23.04 73.472 0.222 7.55 55.75 0
7/2/2021 9:45:00 PM 22.93 73.274 0.224 7.55 66.96 0
7/2/2021 10:00:00 PM 22.74 72.932 0.223 7.56 78.85 0
7/2/2021 10:15:00 PM 22.57 72.626 0.221 7.57 88.52 0
7/2/2021 10:30:00 PM 22.36 72.248 0.216 7.58 115.5 0
7/2/2021 10:45:00 PM 22.19 71.942 0.212 7.59 121 0
7/2/2021 11:00:00 PM 22.04 71.672 0.207 7.59 125.1 0
7/2/2021 11:15:00 PM 21.9 71.42 0.204 7.57 122.6 0
7/2/2021 11:30:00 PM 21.8 71.24 0.2 7.57 126.3 0
7/2/2021 11:45:00 PM 21.73 71.114 0.197 7.55 121.8 0
7/3/2021 12:00:00 AM 21.68 71.024 0.195 7.53 114.4 0
7/3/2021 12:15:00 AM 21.65 70.97 0.196 7.52 107.6 0
7/3/2021 12:30:00 AM 21.63 70.934 0.196 7.5 97.45 0
7/3/2021 12:45:00 AM 21.62 70.916 0.197 7.49 88.85 0
7/3/2021 1:00:00 AM 21.61 70.898 0.199 7.48 76.65 0
7/3/2021 1:15:00 AM 21.62 70.916 0.2 7.48 69.54 0
7/3/2021 1:30:00 AM 21.65 70.97 0.202 7.47 66.22 0
7/3/2021 1:45:00 AM 21.64 70.952 0.204 7.47 62.47 0
7/3/2021 2:00:00 AM 21.63 70.934 0.205 7.46 55.46 0
7/3/2021 2:15:00 AM 21.62 70.916 0.207 7.46 48.4 0
7/3/2021 2:30:00 AM 21.62 70.916 0.209 7.46 46.49 0
7/3/2021 2:45:00 AM 21.62 70.916 0.21 7.46 41.81 0
7/3/2021 3:00:00 AM 21.57 70.826 0.212 7.46 38.54 0
7/3/2021 3:15:00 AM 21.59 70.862 0.213 7.46 38.63 0
7/3/2021 3:30:00 AM 21.56 70.808 0.214 7.47 35.19 0
7/3/2021 3:45:00 AM 21.52 70.736 0.215 7.46 36.02 0
7/3/2021 4:00:00 AM 21.5 70.7 0.216 7.46 33.05 0
7/3/2021 4:15:00 AM 21.48 70.664 0.217 7.46 30.88 0
7/3/2021 4:30:00 AM 21.45 70.61 0.217 7.46 29.92 0
7/3/2021 4:45:00 AM 21.42 70.556 0.218 7.46 29.9 0
7/3/2021 5:00:00 AM 21.4 70.52 0.219 7.47 29.64 0
7/3/2021 5:15:00 AM 21.37 70.466 0.219 7.47 30.99 0
7/3/2021 5:30:00 AM 21.34 70.412 0.22 7.46 29.68 0
7/3/2021 5:45:00 AM 21.32 70.376 0.22 7.46 30.25 0
7/3/2021 6:00:00 AM 21.3 70.34 0.221 7.47 26.5 0
7/3/2021 6:15:00 AM 21.25 70.25 0.221 7.47 25.76 0
7/3/2021 6:30:00 AM 21.22 70.196 0.221 7.46 26.33 0
7/3/2021 6:45:00 AM 21.21 70.17799 0.222 7.46 25.35 0
7/3/2021 7:00:00 AM 21.19 70.142 0.222 7.46 26.17 0
7/3/2021 7:15:00 AM 21.19 70.142 0.222 7.46 24.68 0
7/3/2021 7:30:00 AM 21.15 70.07 0.222 7.46 24.63 0
7/3/2021 7:45:00 AM 21.12 70.016 0.223 7.46 23.14 0
7/3/2021 8:00:00 AM 21.13 70.034 0.223 7.47 23.08 0
7/3/2021 8:15:00 AM 21.1 69.98 0.223 7.46 22.45 0
7/3/2021 8:30:00 AM 21.07 69.926 0.223 7.46 20.32 0
7/3/2021 8:45:00 AM 21.06 69.908 0.223 7.47 21.58 0
7/3/2021 9:00:00 AM 21.06 69.908 0.224 7.47 21.44 0
7/3/2021 9:15:00 AM 21.05 69.89 0.224 7.47 18.18 0
7/3/2021 9:30:00 AM 21.08 69.944 0.224 7.48 18.76 0
7/3/2021 9:45:00 AM 21.07 69.926 0.224 7.48 19.6 0
7/3/2021 10:00:00 AM 21.15 70.07 0.224 7.49 18.33 0
7/3/2021 10:15:00 AM 21.2 70.16 0.224 7.49 18.39 0
7/3/2021 10:30:00 AM 21.22 70.196 0.224 7.5 16.52 0
7/3/2021 10:45:00 AM 21.33 70.394 0.224 7.51 16.61 0
7/3/2021 11:00:00 AM 21.4 70.52 0.224 7.52 16.24 0
7/3/2021 11:15:00 AM 21.47 70.646 0.224 7.52 15.13 0
7/3/2021 11:30:00 AM 21.54 70.772 0.223 7.53 15.32 0
7/3/2021 11:45:00 AM 21.61 70.898 0.223 7.55 13.91 0
7/3/2021 12:00:00 PM 21.68 71.024 0.222 7.55 13.76 0
7/3/2021 12:15:00 PM 21.78 71.204 0.222 7.57 13.06 0
7/3/2021 12:30:00 PM 21.94 71.492 0.222 7.59 14.36 0
7/3/2021 12:45:00 PM 22.03 71.654 0.221 7.6 12.24 0
7/3/2021 1:00:00 PM 22.2 71.96 0.221 7.61 13.41 0
7/3/2021 1:15:00 PM 22.38 72.284 0.221 7.64 12.92 0
7/3/2021 1:30:00 PM 22.59 72.662 0.221 7.65 12.43 0
7/3/2021 1:45:00 PM 22.55 72.59 0.221 7.65 11.57 0
7/3/2021 2:00:00 PM 22.77 72.986 0.221 7.68 11.75 0
7/3/2021 2:15:00 PM 23.01 73.418 0.221 7.7 12.38 0
7/3/2021 2:30:00 PM 23.09 73.562 0.221 7.71 11.69 0
7/3/2021 2:45:00 PM 23.27 73.886 0.221 7.74 11.61 0
7/3/2021 3:00:00 PM 23.37 74.066 0.221 7.74 11.52 0
7/3/2021 3:15:00 PM 23.24 73.832 0.221 7.74 12.03 0
7/3/2021 3:30:00 PM 23.21 73.778 0.221 7.74 11.74 0
7/3/2021 3:45:00 PM 23.17 73.706 0.221 7.74 11.31 0
7/3/2021 4:00:00 PM 23.15 73.67 0.221 7.73 11.08 0
7/3/2021 4:15:00 PM 23.3 73.94 0.221 7.76 11.48 0
7/3/2021 4:30:00 PM 23.45 74.21 0.221 7.77 11.84 0
7/3/2021 4:45:00 PM 23.39 74.102 0.221 7.76 11.87 0
7/3/2021 5:00:00 PM 23.36 74.048 0.221 7.76 11.65 0
7/3/2021 5:15:00 PM 23.31 73.958 0.221 7.75 12.91 0
7/3/2021 5:30:00 PM 23.26 73.868 0.221 7.76 12.33 0
7/3/2021 5:45:00 PM 23.22 73.796 0.222 7.74 11.74 0
7/3/2021 6:00:00 PM 23.16 73.688 0.222 7.74 11.2 0
7/3/2021 6:15:00 PM 23.13 73.634 0.222 7.72 11.88 0
7/3/2021 6:30:00 PM 23.08 73.544 0.222 7.72 12.21 0
7/3/2021 6:45:00 PM 23 73.4 0.222 7.7 11.74 0
7/3/2021 7:00:00 PM 22.96 73.328 0.222 7.7 11.4 0
7/3/2021 7:15:00 PM 22.91 73.238 0.223 7.69 12.34 0
7/3/2021 7:30:00 PM 22.84 73.112 0.223 7.68 11.14 0
7/3/2021 7:45:00 PM 22.79 73.022 0.223 7.66 11.75 0
7/3/2021 8:00:00 PM 22.73 72.914 0.224 7.66 11.79 0
7/3/2021 8:15:00 PM 22.68 72.824 0.224 7.65 12.86 0
7/3/2021 8:30:00 PM 22.64 72.752 0.224 7.64 11.86 0
7/3/2021 8:45:00 PM 22.59 72.662 0.225 7.64 11.94 0
7/3/2021 9:00:00 PM 22.55 72.59 0.225 7.62 13.26 0
7/3/2021 9:15:00 PM 22.5 72.5 0.226 7.62 12.25 0
7/3/2021 9:30:00 PM 22.47 72.446 0.226 7.61 13.24 0
7/3/2021 9:45:00 PM 22.45 72.41 0.227 7.61 13.26 0
7/3/2021 10:00:00 PM 22.41 72.338 0.228 7.6 14.72 0
7/3/2021 10:15:00 PM 22.38 72.284 0.228 7.59 13.29 0
7/3/2021 10:30:00 PM 22.35 72.23 0.229 7.59 11.55 0
7/3/2021 10:45:00 PM 22.34 72.212 0.227 7.58 12.69 0
7/3/2021 11:00:00 PM 22.31 72.158 0.23 7.58 12.69 0
7/3/2021 11:15:00 PM 22.27 72.086 0.231 7.57 13.7 0
7/3/2021 11:30:00 PM 22.25 72.05 0.232 7.57 11.2 0
7/3/2021 11:45:00 PM 22.22 71.996 0.232 7.55 11.76 0
7/4/2021 12:00:00 AM 22.2 71.96 0.233 7.57 12.01 0
7/4/2021 12:15:00 AM 22.14 71.852 0.233 7.56 12.99 0
7/4/2021 12:30:00 AM 22.1 71.78 0.224 7.56 11.51 0
7/4/2021 12:45:00 AM 22.07 71.726 0.235 7.56 12.45 0
7/4/2021 1:00:00 AM 22.02 71.636 0.227 7.55 12.78 0
7/4/2021 1:15:00 AM 21.98 71.564 0.232 7.55 12.06 0
7/4/2021 1:30:00 AM 21.94 71.492 0.235 7.55 13.06 0
7/4/2021 1:45:00 AM 21.89 71.402 0.217 7.54 13.46 0
7/4/2021 2:00:00 AM 21.84 71.312 0.236 7.54 13.61 0
7/4/2021 2:15:00 AM 21.8 71.24 0.236 7.54 12 0
7/4/2021 2:30:00 AM 21.77 71.186 0.236 7.54 15.31 0
7/4/2021 2:45:00 AM 21.73 71.114 0.219 7.53 12.02 0
7/4/2021 3:00:00 AM 21.69 71.042 0.217 7.53 12.19 0
7/4/2021 3:15:00 AM 21.65 70.97 0.233 7.53 10.73 0
7/4/2021 3:30:00 AM 21.62 70.916 0.236 7.53 12.09 0
7/4/2021 3:45:00 AM 21.58 70.844 0.236 7.52 11.2 0
7/4/2021 4:00:00 AM 21.56 70.808 0.236 7.52 11.83 0
7/4/2021 4:15:00 AM 21.53 70.754 0.236 7.52 13.13 0
7/4/2021 4:30:00 AM 21.5 70.7 0.235 7.53 11.52 0
7/4/2021 4:45:00 AM 21.47 70.646 0.236 7.53 14.82 0
7/4/2021 5:00:00 AM 21.42 70.556 0.236 7.52 13.19 0
7/4/2021 5:15:00 AM 21.4 70.52 0.235 7.52 11.76 0
7/4/2021 5:30:00 AM 21.35 70.43 0.235 7.51 11.47 0
7/4/2021 5:45:00 AM 21.33 70.394 0.217 7.52 11.68 0
7/4/2021 6:00:00 AM 21.29 70.32201 0.235 7.51 12.62 0
7/4/2021 6:15:00 AM 21.25 70.25 0.235 7.51 14.94 0
7/4/2021 6:30:00 AM 21.22 70.196 0.234 7.51 13.83 0
7/4/2021 6:45:00 AM 21.19 70.142 0.212 7.51 12.98 0
7/4/2021 7:00:00 AM 21.16 70.088 0.212 7.51 13.59 0
7/4/2021 7:15:00 AM 21.14 70.052 0.212 7.51 11.83 0
7/4/2021 7:30:00 AM 21.12 70.016 0.21 7.51 12.57 0
7/4/2021 7:45:00 AM 21.09 69.962 0.211 7.51 12.21 0
7/4/2021 8:00:00 AM 21.06 69.908 0.209 7.51 10.6 0
7/4/2021 8:15:00 AM 21.05 69.89 0.23 7.51 11.77 0
7/4/2021 8:30:00 AM 21.04 69.872 0.233 7.51 12.38 0
7/4/2021 8:45:00 AM 21.06 69.908 0.224 7.52 12.19 0
7/4/2021 9:00:00 AM 21.04 69.872 0.226 7.52 11.19 0
7/4/2021 9:15:00 AM 21.06 69.908 0.233 7.52 10.4 0
7/4/2021 9:30:00 AM 21.08 69.944 0.232 7.54 11.9 0
7/4/2021 9:45:00 AM 21.12 70.016 0.233 7.54 10.12 0
7/4/2021 10:00:00 AM 21.15 70.07 0.233 7.55 10.58 0
7/4/2021 10:15:00 AM 21.24 70.232 0.226 7.56 9.62 0
7/4/2021 10:30:00 AM 21.36 70.448 0.22 7.58 9.77 0
7/4/2021 10:45:00 AM 21.46 70.628 0.216 7.6 9.14 0
7/4/2021 11:00:00 AM 21.61 70.898 0.211 7.62 10.38 0
7/4/2021 11:15:00 AM 21.73 71.114 0.21 7.63 9.12 0
7/4/2021 11:30:00 AM 21.89 71.402 0.212 7.65 9.51 0
7/4/2021 11:45:00 AM 22.09 71.762 0.231 7.67 9.42 0
7/4/2021 12:00:00 PM 22.27 72.086 0.232 7.7 8.53 0
7/4/2021 12:15:00 PM 22.42 72.356 0.232 7.72 10.34 0
7/4/2021 12:30:00 PM 22.59 72.662 0.231 7.73 8.29 0
7/4/2021 12:45:00 PM 22.84 73.112 0.231 7.76 8.4 0
7/4/2021 1:00:00 PM 23.12 73.616 0.231 7.8 9.49 0
7/4/2021 1:15:00 PM 23.3 73.94 0.233 7.83 7.75 0
7/4/2021 1:30:00 PM 23.61 74.498 0.232 7.86 8.16 0
7/4/2021 1:45:00 PM 23.77 74.786 0.232 7.88 8.22 0
7/4/2021 2:00:00 PM 24.02 75.236 0.232 7.92 8.13 0
7/4/2021 2:15:00 PM 24.27 75.686 0.232 7.96 8.05 0
7/4/2021 2:30:00 PM 24.5 76.1 0.232 7.98 8.34 0
7/4/2021 2:45:00 PM 24.61 76.298 0.232 7.99 7.9 0
7/4/2021 3:00:00 PM 24.81 76.658 0.232 8.03 7.81 0
7/4/2021 3:15:00 PM 24.78 76.604 0.232 8.04 7.91 0
7/4/2021 3:30:00 PM 24.98 76.964 0.232 8.07 8.4 0
7/4/2021 3:45:00 PM 25.19 77.342 0.232 8.09 7.76 0
7/4/2021 4:00:00 PM 25.26 77.468 0.232 8.11 8.57 0
7/4/2021 4:15:00 PM 25.32 77.576 0.232 8.11 8.43 0
7/4/2021 4:30:00 PM 25.36 77.648 0.232 8.12 8.55 0
7/4/2021 4:45:00 PM 25.33 77.594 0.232 8.14 7.82 0
7/4/2021 5:00:00 PM 25.37 77.666 0.232 8.14 7.4 0
7/4/2021 5:15:00 PM 25.32 77.576 0.232 8.14 8.21 0
7/4/2021 5:30:00 PM 25.29 77.522 0.232 8.1 7.41 0
7/4/2021 5:45:00 PM 25.23 77.414 0.232 8.11 7.48 0
7/4/2021 6:00:00 PM 25.17 77.306 0.232 8.1 9.12 0
7/4/2021 6:15:00 PM 25.09 77.162 0.232 8.08 9.44 0
7/4/2021 6:30:00 PM 24.98 76.964 0.232 8.06 8.18 0
7/4/2021 6:45:00 PM 24.89 76.802 0.232 8.03 7.54 0
7/4/2021 7:00:00 PM 24.78 76.604 0.232 8.01 8.29 0
7/4/2021 7:15:00 PM 24.68 76.424 0.232 7.97 8.56 0
7/4/2021 7:30:00 PM 24.59 76.262 0.232 7.95 8.11 0
7/4/2021 7:45:00 PM 24.49 76.082 0.232 7.93 8.26 0
7/4/2021 8:00:00 PM 24.4 75.92 0.228 7.9 9.75 0
7/4/2021 8:15:00 PM 24.32 75.776 0.224 7.88 8.33 0
7/4/2021 8:30:00 PM 24.24 75.632 0.231 7.85 8.3 0
7/4/2021 8:45:00 PM 24.16 75.488 0.228 7.81 8.73 0
7/4/2021 9:00:00 PM 24.09 75.362 0.225 7.78 8.35 0
7/4/2021 9:15:00 PM 24.04 75.272 0.224 7.76 9.98 0
7/4/2021 9:30:00 PM 23.98 75.164 0.224 7.74 9.01 0
7/4/2021 9:45:00 PM 23.92 75.056 0.232 7.72 10.11 0
7/4/2021 10:00:00 PM 23.85 74.93 0.219 7.7 8.77 0
7/4/2021 10:15:00 PM 23.8 74.84 0.23 7.68 8.66 0
7/4/2021 10:30:00 PM 23.75 74.75 0.232 7.67 9.6 0
7/4/2021 10:45:00 PM 23.67 74.606 0.232 7.65 9.51 0
7/4/2021 11:00:00 PM 23.62 74.516 0.232 7.63 10.06 0
7/4/2021 11:15:00 PM 23.57 74.426 0.232 7.62 9.19 0
7/4/2021 11:30:00 PM 23.51 74.318 0.232 7.61 9.95 0
7/4/2021 11:45:00 PM 23.45 74.21 0.232 7.59 10.08 0
7/5/2021 12:00:00 AM 23.41 74.138 0.222 7.58 10.02 0
7/5/2021 12:15:00 AM 23.4 74.12 0.221 7.57 9.7 0
7/5/2021 12:30:00 AM 23.36 74.048 0.206 7.57 9.94 0
7/5/2021 12:45:00 AM 23.33 73.994 0.219 7.56 9.64 0
7/5/2021 1:00:00 AM 23.29 73.922 0.233 7.55 10.66 0
7/5/2021 1:15:00 AM 23.23 73.814 0.23 7.54 8.47 0
7/5/2021 1:30:00 AM 23.2 73.76 0.215 7.53 8.61 0
7/5/2021 1:45:00 AM 23.18 73.724 0.225 7.53 9.95 0
7/5/2021 2:00:00 AM 23.16 73.688 0.207 7.53 8.67 0
7/5/2021 2:15:00 AM 23.11 73.598 0.222 7.52 8.4 0
7/5/2021 2:30:00 AM 23.08 73.544 0.222 7.52 10.04 0
7/5/2021 2:45:00 AM 23.03 73.454 0.222 7.51 9.25 0
7/5/2021 3:00:00 AM 22.98 73.364 0.222 7.5 10.05 0
7/5/2021 3:15:00 AM 22.95 73.31 0.223 7.5 10.97 0
7/5/2021 3:30:00 AM 22.89 73.202 0.223 7.49 9.68 0
7/5/2021 3:45:00 AM 22.85 73.13 0.225 7.49 8.88 0
7/5/2021 4:00:00 AM 22.78 73.004 0.224 7.48 9.63 0
7/5/2021 4:15:00 AM 22.74 72.932 0.217 7.48 9.11 0
7/5/2021 4:30:00 AM 22.7 72.86 0.217 7.49 9.48 0
7/5/2021 4:45:00 AM 22.64 72.752 0.21 7.48 8.99 0
7/5/2021 5:00:00 AM 22.59 72.662 0.21 7.48 8.68 0
7/5/2021 5:15:00 AM 22.52 72.536 0.216 7.47 9.86 0
7/5/2021 5:30:00 AM 22.47 72.446 0.225 7.47 10.28 0
7/5/2021 5:45:00 AM 22.42 72.356 0.232 7.46 9.94 0
7/5/2021 6:00:00 AM 22.35 72.23 0.221 7.46 9.79 0
7/5/2021 6:15:00 AM 22.3 72.14 0.216 7.46 10.85 0
7/5/2021 6:30:00 AM 22.24 72.032 0.214 7.45 11.1 0
7/5/2021 6:45:00 AM 22.21 71.978 0.226 7.45 10.38 0
7/5/2021 7:00:00 AM 22.16 71.888 0.226 7.45 10.4 0
7/5/2021 7:15:00 AM 22.11 71.798 0.226 7.45 10.42 0
7/5/2021 7:30:00 AM 22.09 71.762 0.225 7.45 9.34 0
7/5/2021 7:45:00 AM 22.05 71.69 0.223 7.45 9.21 0
7/5/2021 8:00:00 AM 22.03 71.654 0.222 7.45 10.1 0
7/5/2021 8:15:00 AM 22 71.6 0.226 7.45 8.55 0
7/5/2021 8:30:00 AM 22 71.6 0.227 7.45 8.33 0
7/5/2021 8:45:00 AM 21.99 71.582 0.227 7.46 9.28 0
7/5/2021 9:00:00 AM 22 71.6 0.227 7.47 9.02 0
7/5/2021 9:15:00 AM 22.01 71.618 0.232 7.47 8.85 0
7/5/2021 9:30:00 AM 22.04 71.672 0.232 7.48 10.85 0
7/5/2021 9:45:00 AM 22.06 71.708 0.229 7.49 9.56 0
7/5/2021 10:00:00 AM 22.12 71.816 0.229 7.51 7.78 0
7/5/2021 10:15:00 AM 22.18 71.924 0.229 7.52 8 0
7/5/2021 10:30:00 AM 22.27 72.086 0.229 7.54 8.42 0
7/5/2021 10:45:00 AM 22.39 72.302 0.229 7.56 8.53 0
7/5/2021 11:00:00 AM 22.51 72.518 0.22 7.59 8.31 0
7/5/2021 11:15:00 AM 22.7 72.86 0.232 7.62 7.76 0
7/5/2021 11:30:00 AM 22.88 73.184 0.232 7.65 7.28 0
7/5/2021 11:45:00 AM 23.09 73.562 0.232 7.69 7.09 0
7/5/2021 12:00:00 PM 23.31 73.958 0.232 7.73 7.88 0
7/5/2021 12:15:00 PM 23.57 74.426 0.232 7.78 8.26 0
7/5/2021 12:30:00 PM 23.83 74.894 0.227 7.78 8.16 0
7/5/2021 12:45:00 PM 24.04 75.272 0.227 7.82 8.39 0
7/5/2021 1:00:00 PM 24.28 75.704 0.226 7.87 7.67 0
7/5/2021 1:15:00 PM 24.6 76.28 0.226 7.98 7.09 0
7/5/2021 1:30:00 PM 24.86 76.748 0.232 8.02 7.24 0
7/5/2021 1:45:00 PM 25.14 77.252 0.229 8.07 8.35 0
7/5/2021 2:00:00 PM 25.39 77.702 0.226 8.13 7.61 0
7/5/2021 2:15:00 PM 25.63 78.134 0.225 8.17 8.02 0
7/5/2021 2:30:00 PM 25.83 78.494 0.226 8.22 9.65 0
7/5/2021 2:45:00 PM 25.95 78.71 0.226 8.24 7.72 0
7/5/2021 3:00:00 PM 26.14 79.052 0.225 8.27 7.11 0
7/5/2021 3:15:00 PM 26.35 79.43 0.224 8.3 7.42 0
7/5/2021 3:30:00 PM 26.57 79.826 0.215 8.33 7.63 0
7/5/2021 3:45:00 PM 26.69 80.042 0.225 8.36 6.99 0
7/5/2021 4:00:00 PM 26.76 80.168 0.225 8.34 8.6 0
7/5/2021 4:15:00 PM 26.83 80.294 0.231 8.4 7.94 0
7/5/2021 4:30:00 PM 26.93 80.474 0.231 8.4 7.45 0
7/5/2021 4:45:00 PM 26.95 80.51 0.216 8.42 7.15 0
7/5/2021 5:00:00 PM 26.95 80.51 0.229 8.4 8.68 0
7/5/2021 5:15:00 PM 26.93 80.474 0.225 8.41 11.07 0
7/5/2021 5:30:00 PM 26.87 80.366 0.228 8.42 9.47 0
7/5/2021 5:45:00 PM 26.78 80.204 0.227 8.41 11.78 0
7/5/2021 6:00:00 PM 26.77 80.186 0.226 8.39 8.41 0
7/5/2021 6:15:00 PM 26.69 80.042 0.227 8.39 1226 0
7/5/2021 6:30:00 PM 26.58 79.844 0.22 8.38 8.55 0
7/5/2021 6:45:00 PM 26.49 79.682 0.216 8.36 7.75 0
7/5/2021 7:00:00 PM 26.39 79.502 0.212 8.34 7.24 0
7/5/2021 7:15:00 PM 26.31 79.358 0.213 8.31 7.03 0
7/5/2021 7:30:00 PM 26.22 79.196 0.212 8.3 7.38 0
7/5/2021 7:45:00 PM 26.13 79.034 0.212 8.26 7.54 0
7/5/2021 8:00:00 PM 26.06 78.908 0.213 8.23 7.64 0
7/5/2021 8:15:00 PM 25.98 78.764 0.213 8.19 7.07 0
7/5/2021 8:30:00 PM 25.91 78.638 0.235 8.16 7.53 0
7/5/2021 8:45:00 PM 25.83 78.494 0.236 8.13 7.6 0
7/5/2021 9:00:00 PM 25.74 78.332 0.236 8.07 7.4 0
7/5/2021 9:15:00 PM 25.67 78.206 0.236 8.05 8.45 0
7/5/2021 9:30:00 PM 25.59 78.062 0.236 8.01 7.85 0
7/5/2021 9:45:00 PM 25.51 77.918 0.236 7.97 7.7 0
7/5/2021 10:00:00 PM 25.46 77.828 0.236 7.93 8.59 0
7/5/2021 10:15:00 PM 25.39 77.702 0.236 7.9 8.56 0
7/5/2021 10:30:00 PM 25.31 77.558 0.236 7.86 7.84 0
7/5/2021 10:45:00 PM 25.25 77.45 0.236 7.82 9.37 0
7/5/2021 11:00:00 PM 25.17 77.306 0.236 7.79 7.88 0
7/5/2021 11:15:00 PM 25.1 77.18 0.236 7.76 8.99 0
7/5/2021 11:30:00 PM 25.03 77.054 0.236 7.73 7.69 0
7/5/2021 11:45:00 PM 24.97 76.946 0.236 7.71 7.74 0
7/6/2021 12:00:00 AM 24.9 76.82 0.236 7.68 7.5 0
7/6/2021 12:15:00 AM 24.85 76.73 0.237 7.65 7.82 0
7/6/2021 12:30:00 AM 24.79 76.622 0.237 7.64 8.56 0
7/6/2021 12:45:00 AM 24.73 76.514 0.237 7.62 8.67 0
7/6/2021 1:00:00 AM 24.67 76.406 0.237 7.6 8.26 0
7/6/2021 1:15:00 AM 24.64 76.352 0.237 7.58 7.3 0
7/6/2021 1:30:00 AM 24.58 76.244 0.237 7.57 8.37 0
7/6/2021 1:45:00 AM 24.55 76.19 0.237 7.55 8.96 0
7/6/2021 2:00:00 AM 24.49 76.082 0.237 7.54 7.73 0
7/6/2021 2:15:00 AM 24.46 76.028 0.237 7.53 7.9 0
7/6/2021 2:30:00 AM 24.42 75.956 0.237 7.52 8.33 0
7/6/2021 2:45:00 AM 24.36 75.848 0.237 7.5 8.07 0
7/6/2021 3:00:00 AM 24.34 75.812 0.237 7.49 7.9 0
7/6/2021 3:15:00 AM 24.29 75.722 0.237 7.49 7.95 0
7/6/2021 3:30:00 AM 24.27 75.686 0.237 7.47 8.27 0
7/6/2021 3:45:00 AM 24.22 75.596 0.236 7.47 8.01 0
7/6/2021 4:00:00 AM 24.19 75.542 0.235 7.46 8.96 0
7/6/2021 4:15:00 AM 24.14 75.452 0.236 7.46 10.67 0
7/6/2021 4:30:00 AM 24.12 75.416 0.236 7.45 9.24 0
7/6/2021 4:45:00 AM 24.07 75.326 0.237 7.45 9.1 0
7/6/2021 5:00:00 AM 24.02 75.236 0.237 7.44 8.75 0
7/6/2021 5:15:00 AM 23.98 75.164 0.236 7.44 8.12 0
7/6/2021 5:30:00 AM 23.93 75.074 0.235 7.43 8.07 0
7/6/2021 5:45:00 AM 23.89 75.002 0.237 7.4 8.72 0
7/6/2021 6:00:00 AM 23.84 74.912 0.236 7.42 8.11 0
7/6/2021 6:15:00 AM 23.81 74.858 0.237 7.42 9.83 0
7/6/2021 6:30:00 AM 23.76 74.768 0.237 7.41 8.76 0
7/6/2021 6:45:00 AM 23.73 74.714 0.237 7.41 8.96 0
7/6/2021 7:00:00 AM 23.69 74.642 0.237 7.41 10.04 0
7/6/2021 7:15:00 AM 23.67 74.606 0.237 7.41 8.28 0
7/6/2021 7:30:00 AM 23.64 74.552 0.237 7.41 7.91 0
7/6/2021 7:45:00 AM 23.63 74.534 0.237 7.41 8.09 0
7/6/2021 8:00:00 AM 23.62 74.516 0.237 7.41 7.98 0
7/6/2021 8:15:00 AM 23.61 74.498 0.221 7.41 7.8 0
7/6/2021 8:30:00 AM 23.62 74.516 0.237 7.41 7.72 0
7/6/2021 8:45:00 AM 23.62 74.516 0.237 7.41 7.71 0
7/6/2021 9:00:00 AM 23.64 74.552 0.236 7.42 8.02 0
7/6/2021 9:15:00 AM 23.66 74.588 0.237 7.43 7.91 0
7/6/2021 9:30:00 AM 23.69 74.642 0.236 7.44 8.2 0
7/6/2021 9:45:00 AM 23.72 74.696 0.236 7.46 7.43 0
7/6/2021 10:00:00 AM 23.79 74.82201 0.236 7.48 7.98 0
7/6/2021 10:15:00 AM 23.85 74.93 0.236 7.49 7.46 0
7/6/2021 10:30:00 AM 23.94 75.092 0.236 7.51 8.6 0
7/6/2021 10:45:00 AM 24.05 75.29 0.236 7.54 7.57 0
7/6/2021 11:00:00 AM 24.2 75.56 0.236 7.58 7.22 0
7/6/2021 11:15:00 AM 24.35 75.83 0.236 7.62 8.03 0
7/6/2021 11:30:00 AM 24.54 76.172 0.236 7.67 6.86 0
7/6/2021 11:45:00 AM 24.74 76.532 0.235 7.67 6.88 0
7/6/2021 12:00:00 PM 25 77 0.235 7.79 8 0
7/6/2021 12:15:00 PM 25.26 77.468 0.235 7.85 7.06 0
7/6/2021 12:30:00 PM 25.55 77.99 0.235 7.92 6.92 0
7/6/2021 12:45:00 PM 25.86 78.548 0.235 7.98 7.8 0
7/6/2021 1:00:00 PM 26.16 79.088 0.235 8.04 6.95 0
7/6/2021 1:15:00 PM 26.47 79.646 0.235 8.11 6.68 0
7/6/2021 1:30:00 PM 26.78 80.204 0.235 8.18 6.84 0
7/6/2021 1:45:00 PM 27.06 80.708 0.229 8.22 6.69 0
7/6/2021 2:00:00 PM 27.28 81.104 0.235 8.29 6.75 0
7/6/2021 2:15:00 PM 27.46 81.42799 0.235 8.28 6.82 0
7/6/2021 2:30:00 PM 27.71 81.878 0.235 8.38 6.7 0
7/6/2021 2:45:00 PM 27.95 82.31 0.235 8.42 6.32 0
7/6/2021 3:00:00 PM 28.19 82.742 0.235 8.46 6.62 0
7/6/2021 3:15:00 PM 28.32 82.976 0.235 8.49 6.71 0
7/6/2021 3:30:00 PM 28.51 83.318 0.235 8.52 6.51 0
7/6/2021 3:45:00 PM 28.66 83.588 0.235 8.55 6.64 0
7/6/2021 4:00:00 PM 28.79 83.82201 0.235 8.58 6.89 0
7/6/2021 4:15:00 PM 28.9 84.02 0.235 8.6 6.84 0
7/6/2021 4:30:00 PM 28.95 84.11 0.235 8.6 6.79 0
7/6/2021 4:45:00 PM 28.95 84.11 0.236 8.61 6.87 0
7/6/2021 5:00:00 PM 28.96 84.128 0.236 8.62 6.94 0
7/6/2021 5:15:00 PM 28.93 84.074 0.236 8.64 7.08 0
7/6/2021 5:30:00 PM 28.91 84.038 0.236 8.64 6.94 0
7/6/2021 5:45:00 PM 28.88 83.98399 0.236 8.63 6.62 0
7/6/2021 6:00:00 PM 28.78 83.804 0.236 8.62 6.75 0
7/6/2021 6:15:00 PM 28.62 83.51601 0.236 8.59 6.65 0
7/6/2021 6:30:00 PM 28.49 83.282 0.236 8.58 6.91 0
7/6/2021 6:45:00 PM 28.35 83.03 0.237 8.56 6.8 0
7/6/2021 7:00:00 PM 28.24 82.832 0.237 8.53 7.91 0
7/6/2021 7:15:00 PM 28.19 82.742 0.237 8.5 7.94 0
7/6/2021 7:30:00 PM 28.1 82.58 0.237 8.49 6.92 0
7/6/2021 7:45:00 PM 28.02 82.436 0.237 8.46 7.36 0
7/6/2021 8:00:00 PM 27.93 82.274 0.238 8.42 8.05 0
7/6/2021 8:15:00 PM 27.84 82.112 0.238 8.39 7.76 0
7/6/2021 8:30:00 PM 27.76 81.968 0.238 8.38 7.96 0
7/6/2021 8:45:00 PM 27.67 81.806 0.238 8.34 7.94 0
7/6/2021 9:00:00 PM 27.6 81.68 0.238 8.3 7.49 0
7/6/2021 9:15:00 PM 27.54 81.57201 0.239 8.27 6.72 0
7/6/2021 9:30:00 PM 27.48 81.464 0.239 8.25 7.71 0
7/6/2021 9:45:00 PM 27.4 81.32 0.239 8.21 7.03 0
7/6/2021 10:00:00 PM 27.33 81.194 0.239 8.16 6.87 0
7/6/2021 10:15:00 PM 27.27 81.086 0.239 8.13 7.16 0
7/6/2021 10:30:00 PM 27.21 80.978 0.239 8.08 7.48 0
7/6/2021 10:45:00 PM 27.16 80.888 0.239 8.05 7.17 0
7/6/2021 11:00:00 PM 27.1 80.78 0.24 8 8.24 0
7/6/2021 11:15:00 PM 27.02 80.636 0.24 7.96 7.83 0
7/6/2021 11:30:00 PM 26.96 80.528 0.24 7.92 7.6 0
7/6/2021 11:45:00 PM 26.9 80.42 0.24 7.88 7.82 0
7/7/2021 12:00:00 AM 26.82 80.276 0.24 7.86 7.79 0
7/7/2021 12:15:00 AM 26.76 80.168 0.24 7.82 7.98 0
7/7/2021 12:30:00 AM 26.69 80.042 0.24 7.79 7.62 0
7/7/2021 12:45:00 AM 26.63 79.934 0.24 7.75 7.81 0
7/7/2021 1:00:00 AM 26.56 79.808 0.24 7.72 7.87 0
7/7/2021 1:15:00 AM 26.49 79.682 0.24 7.69 8.99 0
7/7/2021 1:30:00 AM 26.45 79.61 0.24 7.65 8.21 0
7/7/2021 1:45:00 AM 26.38 79.484 0.24 7.64 7.73 0
7/7/2021 2:00:00 AM 26.34 79.412 0.24 7.62 8.44 0
7/7/2021 2:15:00 AM 26.3 79.34 0.241 7.62 8.36 0
7/7/2021 2:30:00 AM 26.23 79.214 0.241 7.58 7.97 0
7/7/2021 2:45:00 AM 26.17 79.106 0.241 7.58 8.15 0
7/7/2021 3:00:00 AM 26.12 79.016 0.241 7.56 8.63 0
7/7/2021 3:15:00 AM 26.08 78.944 0.241 7.55 8.16 0
7/7/2021 3:30:00 AM 26.06 78.908 0.241 7.54 7.77 0
7/7/2021 3:45:00 AM 26.02 78.836 0.241 7.53 8.93 0
7/7/2021 4:00:00 AM 25.96 78.728 0.241 7.53 9.48 0
7/7/2021 4:15:00 AM 25.92 78.656 0.241 7.5 10.09 0
7/7/2021 4:30:00 AM 25.88 78.584 0.241 7.51 8.66 0
7/7/2021 4:45:00 AM 25.83 78.494 0.241 7.49 8.73 0
7/7/2021 5:00:00 AM 25.78 78.404 0.241 7.49 8.62 0
7/7/2021 5:15:00 AM 25.72 78.296 0.237 7.48 8.63 0
7/7/2021 5:30:00 AM 25.67 78.206 0.241 7.47 8.55 0
7/7/2021 5:45:00 AM 25.62 78.116 0.242 7.46 9.77 0
7/7/2021 6:00:00 AM 25.57 78.026 0.242 7.45 8.22 0
7/7/2021 6:15:00 AM 25.5 77.9 0.234 7.45 8.39 0
7/7/2021 6:30:00 AM 25.47 77.846 0.242 7.44 8.08 0
7/7/2021 6:45:00 AM 25.43 77.774 0.235 7.44 8.25 0
7/7/2021 7:00:00 AM 25.39 77.702 0.242 7.44 7.64 0
7/7/2021 7:15:00 AM 25.35 77.63 0.242 7.43 8.24 0
7/7/2021 7:30:00 AM 25.34 77.612 0.242 7.43 8.41 0
7/7/2021 7:45:00 AM 25.34 77.612 0.242 7.42 7.86 0
7/7/2021 8:00:00 AM 25.33 77.594 0.242 7.41 7.63 0
7/7/2021 8:15:00 AM 25.32 77.576 0.241 7.43 7.62 0
7/7/2021 8:30:00 AM 25.33 77.594 0.242 7.43 7.11 0
7/7/2021 8:45:00 AM 25.34 77.612 0.241 7.43 7.36 0
7/7/2021 9:00:00 AM 25.35 77.63 0.227 7.43 7.27 0
7/7/2021 9:15:00 AM 25.36 77.648 0.242 7.44 7.02 0
7/7/2021 9:30:00 AM 25.39 77.702 0.242 7.44 7.28 0
7/7/2021 9:45:00 AM 25.43 77.774 0.241 7.47 6.99 0
7/7/2021 10:00:00 AM 25.48 77.864 0.23 7.48 7.32 0
7/7/2021 10:15:00 AM 25.54 77.972 0.242 7.5 6.77 0
7/7/2021 10:30:00 AM 25.63 78.134 0.242 7.52 7.08 0
7/7/2021 10:45:00 AM 25.73 78.314 0.242 7.53 7.16 0
7/7/2021 11:00:00 AM 25.89 78.602 0.241 7.56 6.53 0
7/7/2021 11:15:00 AM 26.03 78.854 0.241 7.64 6.7 0
7/7/2021 11:30:00 AM 26.21 79.17799 0.241 7.69 7.09 0
7/7/2021 11:45:00 AM 26.43 79.574 0.241 7.75 9.19 0
7/7/2021 12:00:00 PM 26.67 80.006 0.241 7.85 6.5 0
7/7/2021 12:15:00 PM 26.87 80.366 0.227 7.9 6.81 0
7/7/2021 12:30:00 PM 27.11 80.798 0.24 7.96 6.57 0
7/7/2021 12:45:00 PM 27.42 81.356 0.24 8.05 6.69 0
7/7/2021 1:00:00 PM 27.7 81.86 0.24 8.11 8.82 0
7/7/2021 1:15:00 PM 27.91 82.238 0.241 8.17 7 0
7/7/2021 1:30:00 PM 28.2 82.76 0.24 8.24 7.1 0
7/7/2021 1:45:00 PM 28.51 83.318 0.24 8.32 6.71 0
7/7/2021 2:00:00 PM 28.46 83.228 0.24 8.35 6.47 0
7/7/2021 2:15:00 PM 28.42 83.156 0.24 8.33 6.25 0
7/7/2021 2:30:00 PM 28.81 83.858 0.24 8.41 6.66 0
7/7/2021 2:45:00 PM 28.98 84.164 0.24 8.46 6.38 0
7/7/2021 3:00:00 PM 29.25 84.65 0.24 8.51 6.7 0
7/7/2021 3:15:00 PM 29.46 85.028 0.24 8.53 6.46 0
7/7/2021 3:30:00 PM 29.62 85.316 0.24 8.55 6.37 0
7/7/2021 3:45:00 PM 29.77 85.586 0.24 8.57 6.49 0
7/7/2021 4:00:00 PM 29.88 85.784 0.24 8.6 6.44 0
7/7/2021 4:15:00 PM 29.77 85.586 0.239 8.61 7.16 0
7/7/2021 4:30:00 PM 29.92 85.856 0.239 8.62 6.53 0
7/7/2021 4:45:00 PM 30 86 0.239 8.57 6.88 0
7/7/2021 5:00:00 PM 30 86 0.239 8.58 6.34 0
7/7/2021 5:15:00 PM 30.04 86.07201 0.239 8.64 6.33 0
7/7/2021 5:30:00 PM 30.02 86.036 0.239 8.63 6.43 0
7/7/2021 5:45:00 PM 29.99 85.982 0.239 8.58 6.42 0
7/7/2021 6:00:00 PM 29.93 85.874 0.24 8.64 6.46 0
7/7/2021 6:15:00 PM 29.86 85.748 0.24 8.63 6.27 0
7/7/2021 6:30:00 PM 29.74 85.532 0.24 8.63 6.35 0
7/7/2021 6:45:00 PM 29.6 85.28 0.24 8.6 6.29 0
7/7/2021 7:00:00 PM 29.47 85.046 0.24 8.57 6.47 0
7/7/2021 7:15:00 PM 29.38 84.884 0.241 8.52 6.6 0
7/7/2021 7:30:00 PM 29.33 84.794 0.241 8.52 6.59 0
7/7/2021 7:45:00 PM 29.27 84.686 0.241 8.49 6.72 0
7/7/2021 8:00:00 PM 29.17 84.506 0.242 8.44 6.77 0
7/7/2021 8:15:00 PM 29.09 84.362 0.242 8.42 7.35 0
7/7/2021 8:30:00 PM 29.01 84.218 0.242 8.37 7.06 0
7/7/2021 8:45:00 PM 28.92 84.056 0.242 8.33 6.92 0
7/7/2021 9:00:00 PM 28.86 83.948 0.243 8.29 7.63 0
7/7/2021 9:15:00 PM 28.78 83.804 0.243 8.25 6.62 0
7/7/2021 9:30:00 PM 28.68 83.624 0.243 8.21 6.76 0
7/7/2021 9:45:00 PM 28.61 83.498 0.243 8.16 7.68 0
7/7/2021 10:00:00 PM 28.52 83.336 0.244 8.1 7.09 0
7/7/2021 10:15:00 PM 28.47 83.24599 0.244 8.09 6.53 0
7/7/2021 10:30:00 PM 28.4 83.12 0.244 8.04 6.99 0
7/7/2021 10:45:00 PM 28.33 82.994 0.244 8 6.93 0
7/7/2021 11:00:00 PM 28.21 82.778 0.244 7.95 7.02 0
7/7/2021 11:15:00 PM 28.16 82.688 0.244 7.9 6.98 0
7/7/2021 11:30:00 PM 28.11 82.598 0.244 7.88 7.59 0
7/7/2021 11:45:00 PM 28.02 82.436 0.245 7.83 7.65 0
7/8/2021 12:00:00 AM 27.93 82.274 0.245 7.79 7.67 0
7/8/2021 12:15:00 AM 27.87 82.166 0.245 7.76 8.26 0
7/8/2021 12:30:00 AM 27.78 82.004 0.245 7.73 7.18 0
7/8/2021 12:45:00 AM 27.71 81.878 0.245 7.69 7.8 0
7/8/2021 1:00:00 AM 27.65 81.77 0.246 7.68 7.3 0
7/8/2021 1:15:00 AM 27.54 81.57201 0.246 7.66 7.67 0
7/8/2021 1:30:00 AM 27.46 81.42799 0.246 7.63 7.2 0
7/8/2021 1:45:00 AM 27.4 81.32 0.246 7.62 6.65 0
7/8/2021 2:00:00 AM 27.32 81.176 0.246 7.61 7.38 0
7/8/2021 2:15:00 AM 27.27 81.086 0.246 7.59 8.4 0
7/8/2021 2:30:00 AM 27.21 80.978 0.246 7.57 8.08 0
7/8/2021 2:45:00 AM 27.12 80.816 0.246 7.56 7.69 0
7/8/2021 3:00:00 AM 27.07 80.726 0.246 7.56 7.9 0
7/8/2021 3:15:00 AM 27 80.6 0.246 7.55 8.36 0
7/8/2021 3:30:00 AM 26.93 80.474 0.246 7.54 8.01 0
7/8/2021 3:45:00 AM 26.88 80.384 0.247 7.52 8.34 0
7/8/2021 4:00:00 AM 26.89 80.402 0.247 7.51 9.09 0
7/8/2021 4:15:00 AM 26.78 80.204 0.247 7.51 8.13 0
7/8/2021 4:30:00 AM 26.76 80.168 0.246 7.5 8.25 0
7/8/2021 4:45:00 AM 26.74 80.132 0.247 7.5 8.41 0
7/8/2021 5:00:00 AM 26.68 80.024 0.248 7.49 9.8 0
7/8/2021 5:15:00 AM 26.6 79.88 0.248 7.48 8.6 0
7/8/2021 5:30:00 AM 26.53 79.754 0.248 7.47 7.36 0
7/8/2021 5:45:00 AM 26.48 79.664 0.246 7.47 12.48 0
7/8/2021 6:00:00 AM 26.46 79.628 0.248 7.46 7.18 0
7/8/2021 6:15:00 AM 26.44 79.592 0.248 7.46 7.01 0
7/8/2021 6:30:00 AM 26.38 79.484 0.248 7.45 7.07 0
7/8/2021 6:45:00 AM 26.33 79.394 0.249 7.45 7.47 0
7/8/2021 7:00:00 AM 26.3 79.34 0.249 7.45 8.42 0
7/8/2021 7:15:00 AM 26.25 79.25 0.249 7.44 7.67 0
7/8/2021 7:30:00 AM 26.2 79.16 0.249 7.44 7.83 0
7/8/2021 7:45:00 AM 26.17 79.106 0.249 7.44 7.2 0
7/8/2021 8:00:00 AM 26.17 79.106 0.249 7.44 7.65 0
7/8/2021 8:15:00 AM 26.13 79.034 0.249 7.44 8.1 0
7/8/2021 8:30:00 AM 26.12 79.016 0.249 7.44 7.37 0
7/8/2021 8:45:00 AM 26.12 79.016 0.249 7.43 7.21 0
7/8/2021 9:00:00 AM 26.07 78.926 0.249 7.44 6.61 0
7/8/2021 9:15:00 AM 26.09 78.962 0.25 7.45 7.35 0
7/8/2021 9:30:00 AM 26.11 78.998 0.25 7.46 6.5 0
7/8/2021 9:45:00 AM 26.13 79.034 0.25 7.48 6.85 0
7/8/2021 10:00:00 AM 26.14 79.052 0.249 7.48 7.49 0
7/8/2021 10:15:00 AM 26.17 79.106 0.25 7.5 6.55 0
7/8/2021 10:30:00 AM 26.15 79.07 0.25 7.5 6.91 0
7/8/2021 10:45:00 AM 26.16 79.088 0.25 7.52 6.75 0
7/8/2021 11:00:00 AM 26.18 79.124 0.25 7.55 7.17 0
7/8/2021 11:15:00 AM 26.2 79.16 0.25 7.57 6.54 0
7/8/2021 11:30:00 AM 26.25 79.25 0.249 7.6 6.52 0
7/8/2021 11:45:00 AM 26.27 79.286 0.249 7.62 6.45 0
7/8/2021 12:00:00 PM 26.31 79.358 0.249 7.66 6.8 0
7/8/2021 12:15:00 PM 26.33 79.394 0.249 7.67 6.64 0
7/8/2021 12:30:00 PM 26.34 79.412 0.249 7.69 6.52 0
7/8/2021 12:45:00 PM 26.39 79.502 0.249 7.74 6.31 0
7/8/2021 1:00:00 PM 26.43 79.574 0.248 7.78 6.3 0
7/8/2021 1:15:00 PM 26.45 79.61 0.248 7.81 6.74 0
7/8/2021 1:30:00 PM 26.5 79.7 0.248 7.86 6.38 0
7/8/2021 1:45:00 PM 26.6 79.88 0.248 7.93 6.2 0
7/8/2021 2:00:00 PM 26.74 80.132 0.247 8.01 6.76 0
7/8/2021 2:15:00 PM 26.76 80.168 0.241 8.06 6.31 0
7/8/2021 2:30:00 PM 26.81 80.258 0.247 8.11 6.49 0
7/8/2021 2:45:00 PM 26.98 80.564 0.247 8.17 6.17 0
7/8/2021 3:00:00 PM 27.05 80.69 0.247 8.22 6.58 0
7/8/2021 3:15:00 PM 27.08 80.744 0.246 8.28 6.37 0
7/8/2021 3:30:00 PM 27.04 80.672 0.247 8.29 6.78 0
7/8/2021 3:45:00 PM 26.93 80.474 0.247 8.25 6.09 0
7/8/2021 4:00:00 PM 26.86 80.348 0.246 8.22 6.1 0
7/8/2021 4:15:00 PM 26.81 80.258 0.246 8.22 5.82 0
7/8/2021 4:30:00 PM 26.67 80.006 0.24 8.22 6.96 0
7/8/2021 4:45:00 PM 26.46 79.628 0.224 8.04 69.72 0
7/8/2021 5:00:00 PM 26.47 79.646 0.231 8.07 38.18 0
7/8/2021 5:15:00 PM 26.4 79.52 0.232 8.07 24.63 0
7/8/2021 5:30:00 PM 26.19 79.142 0.223 8 55.91 0
7/8/2021 5:45:00 PM 25.06 77.108 0.158 7.61 420.7 0
7/8/2021 6:00:00 PM 25.62 78.116 0.194 7.77 126.9 0
7/8/2021 6:15:00 PM 25.89 78.602 0.215 7.91 66.78 0
7/8/2021 6:30:00 PM 25.87 78.566 0.219 7.96 40.59 0
7/8/2021 6:45:00 PM 25.33 77.594 0.206 7.83 60.31 0
7/8/2021 7:00:00 PM 25.18 77.324 0.202 7.73 106.7 0
7/8/2021 7:15:00 PM 25.11 77.198 0.202 7.68 99.1 0
7/8/2021 7:30:00 PM 24.77 76.586 0.195 7.57 123.6 0
7/8/2021 7:45:00 PM 24.73 76.514 0.199 7.55 132.8 0
7/8/2021 8:00:00 PM 24.81 76.658 0.205 7.52 132.5 0
7/8/2021 8:15:00 PM 25.16 77.288 0.216 7.54 138.4 0
7/8/2021 8:30:00 PM 25.48 77.864 0.225 7.59 85.64 0
7/8/2021 8:45:00 PM 25.55 77.99 0.228 7.62 59.85 0
7/8/2021 9:00:00 PM 25.5 77.9 0.228 7.6 61.96 0
7/8/2021 9:15:00 PM 25.44 77.792 0.228 7.57 57.12 0
7/8/2021 9:30:00 PM 25.37 77.666 0.223 7.56 53.24 0
7/8/2021 9:45:00 PM 25.32 77.576 0.227 7.53 50.78 0
7/8/2021 10:00:00 PM 25.28 77.504 0.228 7.52 49.12 0
7/8/2021 10:15:00 PM 25.25 77.45 0.229 7.52 45.39 0
7/8/2021 10:30:00 PM 25.2 77.36 0.23 7.51 45.46 0
7/8/2021 10:45:00 PM 25.18 77.324 0.231 7.5 38.27 0
7/8/2021 11:00:00 PM 25.1 77.18 0.229 7.49 38.67 0
7/8/2021 11:15:00 PM 25.03 77.054 0.228 7.47 39.17 0
7/8/2021 11:30:00 PM 24.94 76.892 0.225 7.45 39.01 0
7/8/2021 11:45:00 PM 24.83 76.694 0.224 7.43 39.49 0
7/9/2021 12:00:00 AM 24.76 76.568 0.223 7.42 38.95 0
7/9/2021 12:15:00 AM 24.71 76.478 0.223 7.42 39.54 0
7/9/2021 12:30:00 AM 24.62 76.316 0.223 7.41 36.59 0
7/9/2021 12:45:00 AM 24.57 76.226 0.226 7.4 34.94 0
7/9/2021 1:00:00 AM 24.47 76.046 0.226 7.39 37.96 0
7/9/2021 1:15:00 AM 24.36 75.848 0.228 7.38 37.98 0
7/9/2021 1:30:00 AM 24.25 75.65 0.229 7.37 40.65 0
7/9/2021 1:45:00 AM 24.15 75.47 0.229 7.36 39.62 0
7/9/2021 2:00:00 AM 24.07 75.326 0.227 7.35 45.32 0
7/9/2021 2:15:00 AM 24 75.2 0.225 7.34 45.22 0
7/9/2021 2:30:00 AM 23.95 75.11 0.223 7.33 43.77 0
7/9/2021 2:45:00 AM 23.91 75.038 0.222 7.33 37.02 0
7/9/2021 3:00:00 AM 23.89 75.002 0.221 7.32 38.14 0
7/9/2021 3:15:00 AM 23.85 74.93 0.22 7.32 36.7 0
7/9/2021 3:30:00 AM 23.86 74.948 0.22 7.32 35.35 0
7/9/2021 3:45:00 AM 23.85 74.93 0.221 7.31 32.47 0
7/9/2021 4:00:00 AM 23.86 74.948 0.222 7.31 29.61 0
7/9/2021 4:15:00 AM 23.85 74.93 0.223 7.31 32.48 0
7/9/2021 4:30:00 AM 23.84 74.912 0.224 7.32 29.95 0
7/9/2021 4:45:00 AM 23.86 74.948 0.226 7.32 28.25 0
7/9/2021 5:00:00 AM 23.86 74.948 0.222 7.32 25.53 0
7/9/2021 5:15:00 AM 23.83 74.894 0.228 7.32 25.51 0
7/9/2021 5:30:00 AM 23.84 74.912 0.23 7.32 23.68 0
7/9/2021 5:45:00 AM 23.8 74.84 0.231 7.32 23.79 0
7/9/2021 6:00:00 AM 23.8 74.84 0.233 7.33 22.26 0
7/9/2021 6:15:00 AM 23.81 74.858 0.235 7.33 22.82 0
7/9/2021 6:30:00 AM 23.78 74.804 0.236 7.33 20.77 0
7/9/2021 6:45:00 AM 23.77 74.786 0.237 7.33 19.65 0
7/9/2021 7:00:00 AM 23.75 74.75 0.238 7.33 18.23 0
7/9/2021 7:15:00 AM 23.72 74.696 0.239 7.33 18.53 0
7/9/2021 7:30:00 AM 23.72 74.696 0.24 7.34 17.07 0
7/9/2021 7:45:00 AM 23.7 74.66 0.241 7.34 17.01 0
7/9/2021 8:00:00 AM 23.7 74.66 0.241 7.34 18.03 0
7/9/2021 8:15:00 AM 23.69 74.642 0.242 7.34 15.2 0
7/9/2021 8:30:00 AM 23.68 74.624 0.243 7.34 17.09 0
7/9/2021 8:45:00 AM 23.7 74.66 0.243 7.34 14.51 0
7/9/2021 9:00:00 AM 23.69 74.642 0.244 7.35 14.27 0
7/9/2021 9:15:00 AM 23.67 74.606 0.244 7.35 14.49 0
7/9/2021 9:30:00 AM 23.71 74.67799 0.245 7.36 13.67 0
7/9/2021 9:45:00 AM 23.75 74.75 0.245 7.36 15.11 0
7/9/2021 10:00:00 AM 23.78 74.804 0.245 7.37 13.78 0
7/9/2021 10:15:00 AM 23.82 74.876 0.246 7.38 13.1 0
7/9/2021 10:30:00 AM 23.89 75.002 0.247 7.4 11.46 0
7/9/2021 10:45:00 AM 23.95 75.11 0.224 7.4 12.7 0
7/9/2021 11:00:00 AM 24.01 75.218 0.246 7.42 12.47 0
7/9/2021 11:15:00 AM 24.11 75.398 0.238 7.44 11.47 0
7/9/2021 11:30:00 AM 24.22 75.596 0.248 7.45 11.02 0
7/9/2021 11:45:00 AM 24.32 75.776 0.247 7.48 11.06 0
7/9/2021 12:00:00 PM 24.5 76.1 0.229 7.5 10.9 0
7/9/2021 12:15:00 PM 24.62 76.316 0.248 7.53 19.65 0
7/9/2021 12:30:00 PM 24.76 76.568 0.248 7.56 10.76 0
7/9/2021 12:45:00 PM 24.95 76.91 0.248 7.59 10.69 0
7/9/2021 1:00:00 PM 25.04 77.07201 0.248 7.61 9.82 0
7/9/2021 1:15:00 PM 25.08 77.144 0.247 7.63 9.26 0
7/9/2021 1:30:00 PM 25.23 77.414 0.227 7.66 9.86 0
7/9/2021 1:45:00 PM 25.43 77.774 0.224 7.68 10.07 0
7/9/2021 2:00:00 PM 25.4 77.72 0.236 7.7 10.72 0
7/9/2021 2:15:00 PM 25.46 77.828 0.234 7.72 9.25 0
7/9/2021 2:30:00 PM 25.61 78.098 0.234 7.75 9.61 0
7/9/2021 2:45:00 PM 25.89 78.602 0.246 7.79 8.9 0
7/9/2021 3:00:00 PM 26.03 78.854 0.227 7.82 10.23 0
7/9/2021 3:15:00 PM 26.07 78.926 0.243 7.85 8.92 0
7/9/2021 3:30:00 PM 26.15 79.07 0.241 7.88 9.05 0
7/9/2021 3:45:00 PM 26.2 79.16 0.223 7.92 8.36 0
7/9/2021 4:00:00 PM 26.28 79.304 0.223 7.92 9.12 0
7/9/2021 4:15:00 PM 26.35 79.43 0.222 7.95 8.48 0
7/9/2021 4:30:00 PM 26.33 79.394 0.223 7.96 8.4 0
7/9/2021 4:45:00 PM 26.37 79.466 0.237 7.98 8.68 0
7/9/2021 5:00:00 PM 26.35 79.43 0.237 7.97 8.74 0
7/9/2021 5:15:00 PM 26.29 79.32201 0.228 7.96 9.32 0
7/9/2021 5:30:00 PM 26.13 79.034 0.239 7.92 20.31 0
7/9/2021 5:45:00 PM 26.08 78.944 0.238 7.9 31.1 0
7/9/2021 6:00:00 PM 26.06 78.908 0.24 7.87 18.58 0
7/9/2021 6:15:00 PM 25.99 78.782 0.238 7.85 15.57 0
7/9/2021 6:30:00 PM 25.88 78.584 0.242 7.81 13.44 0
7/9/2021 6:45:00 PM 25.8 78.44 0.242 7.78 17.29 0
7/9/2021 7:00:00 PM 25.7 78.26 0.238 7.74 18.73 0
7/9/2021 7:15:00 PM 25.6 78.08 0.233 7.71 18.8 0
7/9/2021 7:30:00 PM 25.56 78.008 0.239 7.68 19.93 0
7/9/2021 7:45:00 PM 25.52 77.936 0.241 7.66 20.43 0
7/9/2021 8:00:00 PM 25.46 77.828 0.228 7.62 21.78 0
7/9/2021 8:15:00 PM 25.42 77.756 0.243 7.6 21.2 0
7/9/2021 8:30:00 PM 25.36 77.648 0.244 7.59 21.73 0
7/9/2021 8:45:00 PM 25.33 77.594 0.246 7.57 19.03 0
7/9/2021 9:00:00 PM 25.28 77.504 0.246 7.56 17.84 0
7/9/2021 9:15:00 PM 25.24 77.432 0.246 7.54 18.71 0
7/9/2021 9:30:00 PM 25.23 77.414 0.247 7.53 16.96 0
7/9/2021 9:45:00 PM 25.2 77.36 0.248 7.52 18.05 0
7/9/2021 10:00:00 PM 25.17 77.306 0.248 7.52 17.78 0
7/9/2021 10:15:00 PM 25.16 77.288 0.25 7.51 19.61 0
7/9/2021 10:30:00 PM 25.15 77.27 0.251 7.51 20.8 0
7/9/2021 10:45:00 PM 25.12 77.216 0.252 7.5 24.14 0
7/9/2021 11:00:00 PM 25.11 77.198 0.253 7.5 24.4 0
7/9/2021 11:15:00 PM 25.07 77.126 0.254 7.49 26.48 0
7/9/2021 11:30:00 PM 25.05 77.09 0.255 7.48 27.38 0
7/9/2021 11:45:00 PM 25.02 77.036 0.255 7.48 26.15 0
7/10/2021 12:00:00 AM 24.97 76.946 0.256 7.47 26.27 0
7/10/2021 12:15:00 AM 24.95 76.91 0.255 7.47 23.24 0
7/10/2021 12:30:00 AM 24.89 76.802 0.258 7.47 24.18 0
7/10/2021 12:45:00 AM 24.84 76.712 0.258 7.46 21.15 0
7/10/2021 1:00:00 AM 24.81 76.658 0.259 7.45 19 0
7/10/2021 1:15:00 AM 24.75 76.55 0.259 7.45 20.4 0
7/10/2021 1:30:00 AM 24.71 76.478 0.26 7.45 18.6 0
7/10/2021 1:45:00 AM 24.65 76.37 0.261 7.45 19.82 0
7/10/2021 2:00:00 AM 24.58 76.244 0.262 7.44 16.46 0
7/10/2021 2:15:00 AM 24.53 76.154 0.262 7.44 15.66 0
7/10/2021 2:30:00 AM 24.48 76.064 0.263 7.43 14.92 0
7/10/2021 2:45:00 AM 24.41 75.938 0.263 7.43 15.76 0
7/10/2021 3:00:00 AM 24.35 75.83 0.263 7.43 14.27 0
7/10/2021 3:15:00 AM 24.27 75.686 0.263 7.43 15.08 0
7/10/2021 3:30:00 AM 24.21 75.578 0.263 7.43 15.06 0
7/10/2021 3:45:00 AM 24.16 75.488 0.263 7.42 13.83 0
7/10/2021 4:00:00 AM 24.09 75.362 0.263 7.43 13.79 0
7/10/2021 4:15:00 AM 24.03 75.254 0.263 7.43 13.12 0
7/10/2021 4:30:00 AM 23.98 75.164 0.263 7.42 12.21 0
7/10/2021 4:45:00 AM 23.93 75.074 0.263 7.42 14 0
7/10/2021 5:00:00 AM 23.85 74.93 0.262 7.42 12.54 0
7/10/2021 5:15:00 AM 23.79 74.82201 0.262 7.42 12.86 0
7/10/2021 5:30:00 AM 23.72 74.696 0.261 7.41 12.17 0
7/10/2021 5:45:00 AM 23.66 74.588 0.261 7.41 12.93 0
7/10/2021 6:00:00 AM 23.62 74.516 0.26 7.4 12.61 0
7/10/2021 6:15:00 AM 23.55 74.39 0.26 7.4 12.4 0
7/10/2021 6:30:00 AM 23.49 74.282 0.257 7.4 15.31 0
7/10/2021 6:45:00 AM 23.45 74.21 0.259 7.4 11.73 0
7/10/2021 7:00:00 AM 23.4 74.12 0.258 7.4 14.64 0
7/10/2021 7:15:00 AM 23.37 74.066 0.258 7.4 11.64 0
7/10/2021 7:30:00 AM 23.33 73.994 0.257 7.4 10.58 0
7/10/2021 7:45:00 AM 23.3 73.94 0.257 7.4 11.21 0
7/10/2021 8:00:00 AM 23.26 73.868 0.256 7.4 11.2 0
7/10/2021 8:15:00 AM 23.24 73.832 0.256 7.4 11.9 0
7/10/2021 8:30:00 AM 23.23 73.814 0.242 7.4 9.9 0
7/10/2021 8:45:00 AM 23.22 73.796 0.255 7.4 10.38 0
7/10/2021 9:00:00 AM 23.18 73.724 0.255 7.4 9.94 0
7/10/2021 9:15:00 AM 23.22 73.796 0.254 7.41 9.09 0
7/10/2021 9:30:00 AM 23.22 73.796 0.254 7.41 9.71 0
7/10/2021 9:45:00 AM 23.24 73.832 0.245 7.43 9.11 0
7/10/2021 10:00:00 AM 23.27 73.886 0.253 7.44 9.02 0
7/10/2021 10:15:00 AM 23.35 74.03 0.253 7.46 9.39 0
7/10/2021 10:30:00 AM 23.41 74.138 0.252 7.48 8.56 0
7/10/2021 10:45:00 AM 23.51 74.318 0.252 7.5 8.12 0
7/10/2021 11:00:00 AM 23.6 74.48 0.252 7.52 8.16 0
7/10/2021 11:15:00 AM 23.75 74.75 0.251 7.56 8.33 0
7/10/2021 11:30:00 AM 23.91 75.038 0.251 7.6 8.5 0
7/10/2021 11:45:00 AM 24 75.2 0.251 7.63 8.14 0
7/10/2021 12:00:00 PM 24.09 75.362 0.251 7.67 8.43 0
7/10/2021 12:15:00 PM 24.15 75.47 0.25 7.7 7.9 0
7/10/2021 12:30:00 PM 24.23 75.614 0.25 7.74 7.56 0
7/10/2021 12:45:00 PM 24.26 75.668 0.25 7.77 8.01 0
7/10/2021 1:00:00 PM 24.29 75.722 0.25 7.8 8.25 0
7/10/2021 1:15:00 PM 24.32 75.776 0.25 7.83 7.57 0
7/10/2021 1:30:00 PM 24.34 75.812 0.249 7.85 8.08 0
7/10/2021 1:45:00 PM 24.43 75.974 0.249 7.9 8.01 0
7/10/2021 2:00:00 PM 24.67 76.406 0.249 7.95 14.75 0
7/10/2021 2:15:00 PM 24.78 76.604 0.249 7.98 7.48 0
7/10/2021 2:30:00 PM 24.96 76.92799 0.248 8.03 7.53 0
7/10/2021 2:45:00 PM 25.21 77.378 0.233 8.08 7.54 0
7/10/2021 3:00:00 PM 25.42 77.756 0.233 8.13 7.62 0
7/10/2021 3:15:00 PM 25.58 78.044 0.248 8.18 7.95 0
7/10/2021 3:30:00 PM 25.77 78.386 0.248 8.23 8.28 0
7/10/2021 3:45:00 PM 25.95 78.71 0.248 8.26 7.91 0
7/10/2021 4:00:00 PM 26.07 78.926 0.248 8.29 7.26 0
7/10/2021 4:15:00 PM 26.16 79.088 0.246 8.31 7.4 0
7/10/2021 4:30:00 PM 26.21 79.17799 0.232 8.33 7.29 0
7/10/2021 4:45:00 PM 26.2 79.16 0.247 8.34 7.71 0
7/10/2021 5:00:00 PM 26.16 79.088 0.247 8.33 7.16 0
7/10/2021 5:15:00 PM 26.2 79.16 0.247 8.35 7.55 0
7/10/2021 5:30:00 PM 26.11 78.998 0.247 8.38 7.74 0
7/10/2021 5:45:00 PM 26.07 78.926 0.247 8.36 7.7 0
7/10/2021 6:00:00 PM 26.03 78.854 0.247 8.37 7.77 0
7/10/2021 6:15:00 PM 25.96 78.728 0.247 8.35 7.54 0
7/10/2021 6:30:00 PM 25.91 78.638 0.247 8.36 7.61 0
7/10/2021 6:45:00 PM 25.84 78.512 0.229 8.34 7.36 0
7/10/2021 7:00:00 PM 25.8 78.44 0.247 8.32 7.79 0
7/10/2021 7:15:00 PM 25.73 78.314 0.247 8.29 10.08 0
7/10/2021 7:30:00 PM 25.68 78.224 0.247 8.27 7.83 0
7/10/2021 7:45:00 PM 25.61 78.098 0.247 8.26 7.47 0
7/10/2021 8:00:00 PM 25.54 77.972 0.247 8.22 7.56 0
7/10/2021 8:15:00 PM 25.48 77.864 0.247 8.19 7.47 0
7/10/2021 8:30:00 PM 25.4 77.72 0.247 8.15 7.48 0
7/10/2021 8:45:00 PM 25.32 77.576 0.248 8.12 7.54 0
7/10/2021 9:00:00 PM 25.26 77.468 0.248 8.09 7.73 0
7/10/2021 9:15:00 PM 25.19 77.342 0.248 8.03 8.24 0
7/10/2021 9:30:00 PM 25.13 77.234 0.248 8.02 7.72 0
7/10/2021 9:45:00 PM 25.07 77.126 0.248 7.99 9.29 0
7/10/2021 10:00:00 PM 25.01 77.018 0.248 7.95 7.91 0
7/10/2021 10:15:00 PM 24.95 76.91 0.249 7.93 8.82 0
7/10/2021 10:30:00 PM 24.88 76.784 0.249 7.89 8.13 0
7/10/2021 10:45:00 PM 24.8 76.64 0.249 7.85 8.49 0
7/10/2021 11:00:00 PM 24.74 76.532 0.249 7.81 8.09 0
7/10/2021 11:15:00 PM 24.67 76.406 0.249 7.79 8.1 0
7/10/2021 11:30:00 PM 24.6 76.28 0.249 7.76 8.39 0
7/10/2021 11:45:00 PM 24.54 76.172 0.249 7.73 7.51 0
7/11/2021 12:00:00 AM 24.49 76.082 0.249 7.71 8.25 0
7/11/2021 12:15:00 AM 24.44 75.992 0.25 7.68 8.35 0
7/11/2021 12:30:00 AM 24.39 75.902 0.25 7.66 15.3 0
7/11/2021 12:45:00 AM 24.34 75.812 0.25 7.64 7.7 0
7/11/2021 1:00:00 AM 24.31 75.758 0.25 7.62 8.17 0
7/11/2021 1:15:00 AM 24.27 75.686 0.25 7.6 8 0
7/11/2021 1:30:00 AM 24.21 75.578 0.25 7.58 8.62 0
7/11/2021 1:45:00 AM 24.17 75.506 0.251 7.57 9.33 0
7/11/2021 2:00:00 AM 24.13 75.434 0.251 7.56 8.01 0
7/11/2021 2:15:00 AM 24.1 75.38 0.25 7.55 8.69 0
7/11/2021 2:30:00 AM 24.07 75.326 0.251 7.54 8.54 0
7/11/2021 2:45:00 AM 24.04 75.272 0.252 7.54 8.21 0
7/11/2021 3:00:00 AM 24.02 75.236 0.252 7.53 8.36 0
7/11/2021 3:15:00 AM 23.98 75.164 0.252 7.52 8.67 0
7/11/2021 3:30:00 AM 23.97 75.146 0.252 7.52 8.72 0
7/11/2021 3:45:00 AM 23.93 75.074 0.253 7.51 9.09 0
7/11/2021 4:00:00 AM 23.9 75.02 0.253 7.5 8.85 0
7/11/2021 4:15:00 AM 23.87 74.966 0.253 7.49 11.85 0
7/11/2021 4:30:00 AM 23.84 74.912 0.253 7.49 9.56 0
7/11/2021 4:45:00 AM 23.79 74.82201 0.254 7.48 8.21 0
7/11/2021 5:00:00 AM 23.76 74.768 0.254 7.48 8.77 0
7/11/2021 5:15:00 AM 23.73 74.714 0.254 7.47 9.43 0
7/11/2021 5:30:00 AM 23.71 74.67799 0.255 7.46 8.54 0
7/11/2021 5:45:00 AM 23.67 74.606 0.254 7.45 8.11 0
7/11/2021 6:00:00 AM 23.62 74.516 0.254 7.44 8.38 0
7/11/2021 6:15:00 AM 23.58 74.444 0.255 7.44 8.64 0
7/11/2021 6:30:00 AM 23.56 74.408 0.255 7.43 8.87 0
7/11/2021 6:45:00 AM 23.51 74.318 0.255 7.42 8.09 0
7/11/2021 7:00:00 AM 23.5 74.3 0.256 7.42 8.67 0
7/11/2021 7:15:00 AM 23.47 74.246 0.256 7.42 8.74 0
7/11/2021 7:30:00 AM 23.45 74.21 0.256 7.42 9.09 0
7/11/2021 7:45:00 AM 23.44 74.192 0.256 7.42 7.89 0
7/11/2021 8:00:00 AM 23.44 74.192 0.256 7.41 8.02 0
7/11/2021 8:15:00 AM 23.42 74.156 0.256 7.41 8.76 0
7/11/2021 8:30:00 AM 23.41 74.138 0.256 7.41 7.92 0
7/11/2021 8:45:00 AM 23.42 74.156 0.256 7.42 7.62 0
7/11/2021 9:00:00 AM 23.42 74.156 0.257 7.42 8.49 0
7/11/2021 9:15:00 AM 23.46 74.228 0.257 7.43 7.47 0
7/11/2021 9:30:00 AM 23.48 74.264 0.257 7.44 7.57 0
7/11/2021 9:45:00 AM 23.48 74.264 0.255 7.45 7.61 0
7/11/2021 10:00:00 AM 23.51 74.318 0.257 7.45 7.33 0
7/11/2021 10:15:00 AM 23.53 74.354 0.257 7.47 7.65 0
7/11/2021 10:30:00 AM 23.53 74.354 0.256 7.47 7.71 0
7/11/2021 10:45:00 AM 23.52 74.336 0.257 7.48 7.89 0
7/11/2021 11:00:00 AM 23.52 74.336 0.257 7.49 7.44 0
7/11/2021 11:15:00 AM 23.54 74.372 0.257 7.51 7.62 0
7/11/2021 11:30:00 AM 23.56 74.408 0.257 7.52 7.28 0
7/11/2021 11:45:00 AM 23.57 74.426 0.257 7.54 7.1 0
7/11/2021 12:00:00 PM 23.59 74.462 0.248 7.55 7.06 0
7/11/2021 12:15:00 PM 23.62 74.516 0.256 7.57 7.05 0
7/11/2021 12:30:00 PM 23.65 74.57 0.256 7.61 6.72 0
7/11/2021 12:45:00 PM 23.68 74.624 0.256 7.62 6.7 0
7/11/2021 1:00:00 PM 23.71 74.67799 0.256 7.64 6.78 0
7/11/2021 1:15:00 PM 23.71 74.67799 0.255 7.66 6.54 0
7/11/2021 1:30:00 PM 23.77 74.786 0.256 7.68 6.71 0
7/11/2021 1:45:00 PM 24 75.2 0.256 7.74 6.68 0
7/11/2021 2:00:00 PM 24.32 75.776 0.256 7.81 6.76 0
7/11/2021 2:15:00 PM 24.66 76.388 0.256 7.86 6.59 0
7/11/2021 2:30:00 PM 24.77 76.586 0.256 7.9 6.59 0
7/11/2021 2:45:00 PM 24.86 76.748 0.256 7.96 6.31 0
7/11/2021 3:00:00 PM 24.76 76.568 0.256 7.98 6.57 0
7/11/2021 3:15:00 PM 24.7 76.46 0.255 7.98 6.89 0
7/11/2021 3:30:00 PM 24.73 76.514 0.246 8.01 6.94 0
7/11/2021 3:45:00 PM 25.01 77.018 0.241 8.09 7.08 0
7/11/2021 4:00:00 PM 25.22 77.396 0.255 8.16 6.53 0
7/11/2021 4:15:00 PM 25.35 77.63 0.254 8.19 6.77 0
7/11/2021 4:30:00 PM 25.35 77.63 0.254 8.22 6.62 0
7/11/2021 4:45:00 PM 25.28 77.504 0.254 8.22 6.65 0
7/11/2021 5:00:00 PM 25.29 77.522 0.254 8.24 6.74 0
7/11/2021 5:15:00 PM 25.21 77.378 0.254 8.21 6.84 0
7/11/2021 5:30:00 PM 25.29 77.522 0.251 8.25 9.33 0
7/11/2021 5:45:00 PM 25.35 77.63 0.252 8.27 9.17 0
7/11/2021 6:00:00 PM 25.36 77.648 0.252 8.31 7.93 0
7/11/2021 6:15:00 PM 25.38 77.684 0.252 8.32 6.75 0
7/11/2021 6:30:00 PM 25.35 77.63 0.252 8.31 6.94 0
7/11/2021 6:45:00 PM 25.28 77.504 0.252 8.29 6.74 0
7/11/2021 7:00:00 PM 25.25 77.45 0.252 8.28 6.85 0
7/11/2021 7:15:00 PM 25.19 77.342 0.253 8.26 7.33 0
7/11/2021 7:30:00 PM 25.14 77.252 0.253 8.23 6.84 0
7/11/2021 7:45:00 PM 25.08 77.144 0.253 8.2 6.8 0
7/11/2021 8:00:00 PM 25 77 0.253 8.17 6.88 0
7/11/2021 8:15:00 PM 24.95 76.91 0.253 8.13 6.63 0
7/11/2021 8:30:00 PM 24.89 76.802 0.248 8.09 7.04 0
7/11/2021 8:45:00 PM 24.83 76.694 0.253 8.05 7.17 0
7/11/2021 9:00:00 PM 24.79 76.622 0.253 8.01 7.08 0
7/11/2021 9:15:00 PM 24.74 76.532 0.254 7.97 7.48 0
7/11/2021 9:30:00 PM 24.69 76.442 0.253 7.94 7.01 0
7/11/2021 9:45:00 PM 24.63 76.334 0.253 7.89 7.11 0
7/11/2021 10:00:00 PM 24.43 75.974 0.246 7.85 41.41 0
7/11/2021 10:15:00 PM 23.98 75.164 0.213 7.68 256.7 0
7/11/2021 10:30:00 PM 23.91 75.038 0.206 7.64 185.9 0
7/11/2021 10:45:00 PM 23.94 75.092 0.223 7.65 91.19 0
7/11/2021 11:00:00 PM 23.26 73.868 0.197 7.55 149.4 0
7/11/2021 11:15:00 PM 22.87 73.166 0.176 7.37 271 0
7/11/2021 11:30:00 PM 22.7 72.86 0.164 7.24 312.5 0
7/11/2021 11:45:00 PM 22.39 72.302 0.148 7.13 306.9 0
7/12/2021 12:00:00 AM 22.36 72.248 0.147 7.08 255.1 0
7/12/2021 12:15:00 AM 22.58 72.644 0.161 7.1 214.2 0
7/12/2021 12:30:00 AM 22.68 72.824 0.169 7.14 216 0
7/12/2021 12:45:00 AM 22.46 72.42799 0.157 7.1 227.7 0
7/12/2021 1:00:00 AM 22.56 72.608 0.164 7.1 195.5 0
7/12/2021 1:15:00 AM 22.63 72.734 0.172 7.13 151.9 0
7/12/2021 1:30:00 AM 22.8 73.04 0.184 7.21 112.9 0
7/12/2021 1:45:00 AM 22.95 73.31 0.194 7.23 90 0
7/12/2021 2:00:00 AM 23.08 73.544 0.203 7.28 71.32 0
7/12/2021 2:15:00 AM 23.16 73.688 0.209 7.3 60.6 0
7/12/2021 2:30:00 AM 23.2 73.76 0.213 7.32 57.81 0
7/12/2021 2:45:00 AM 23.23 73.814 0.213 7.33 52.23 0
7/12/2021 3:00:00 AM 23.25 73.85 0.218 7.34 57.68 0
7/12/2021 3:15:00 AM 23.18 73.724 0.216 7.33 50.9 0
7/12/2021 3:30:00 AM 23.1 73.58 0.214 7.33 53.68 0
7/12/2021 3:45:00 AM 23.01 73.418 0.211 7.33 57.09 0
7/12/2021 4:00:00 AM 22.91 73.238 0.208 7.32 60.98 0
7/12/2021 4:15:00 AM 22.86 73.148 0.207 7.33 57.22 0
7/12/2021 4:30:00 AM 22.83 73.094 0.208 7.33 58.22 0
7/12/2021 4:45:00 AM 22.78 73.004 0.209 7.32 53.09 0
7/12/2021 5:00:00 AM 22.71 72.878 0.211 7.32 57.65 0
7/12/2021 5:15:00 AM 22.64 72.752 0.213 7.32 56.3 0
7/12/2021 5:30:00 AM 22.55 72.59 0.211 7.31 57.24 0
7/12/2021 5:45:00 AM 22.49 72.482 0.211 7.31 54.26 0
7/12/2021 6:00:00 AM 22.46 72.42799 0.209 7.31 54.11 0
7/12/2021 6:15:00 AM 22.45 72.41 0.208 7.3 60.44 0
7/12/2021 6:30:00 AM 22.43 72.374 0.205 7.3 53.65 0
7/12/2021 6:45:00 AM 22.43 72.374 0.204 7.3 49.47 0
7/12/2021 7:00:00 AM 22.5 72.5 0.204 7.3 49.94 0
7/12/2021 7:15:00 AM 22.55 72.59 0.204 7.3 46.87 0
7/12/2021 7:30:00 AM 22.6 72.68 0.203 7.29 43.64 0
7/12/2021 7:45:00 AM 22.66 72.788 0.204 7.29 44.72 0
7/12/2021 8:00:00 AM 22.7 72.86 0.205 7.29 36.88 0
7/12/2021 8:15:00 AM 22.76 72.968 0.119 7.3 33.64 0
7/12/2021 8:30:00 AM 22.82 73.076 0.129 7.3 32.52 0
7/12/2021 8:45:00 AM 22.92 73.256 0.121 7.3 28.55 0
7/12/2021 9:00:00 AM 22.95 73.31 0.122 7.31 25.42 0
7/12/2021 9:15:00 AM 23.02 73.436 0.128 7.32 29.46 0
7/12/2021 9:30:00 AM 23.08 73.544 0.131 7.33 26.12 0
7/12/2021 9:45:00 AM 23.11 73.598 0.127 7.34 22.85 0
7/12/2021 10:00:00 AM 23.14 73.652 0.127 7.33 24.55 0
7/12/2021 10:15:00 AM 23.16 73.688 0.129 7.34 29.19 0
7/12/2021 10:30:00 AM 23.21 73.778 0.13 7.35 21.04 0
7/12/2021 10:45:00 AM 23.24 73.832 0.13 7.35 26.42 0
7/12/2021 11:00:00 AM 23.32 73.976 0.13 7.35 23.51 0
7/12/2021 11:15:00 AM 23.41 74.138 0.132 7.36 22.39 0
7/12/2021 11:30:00 AM 23.49 74.282 0.132 7.36 25.6 0
7/12/2021 11:45:00 AM 23.59 74.462 0.13 7.36 20.16 0
7/12/2021 12:00:00 PM 23.65 74.57 0.126 7.36 21.25 0
7/12/2021 12:15:00 PM 23.8 74.84 0.128 7.35 21.29 0
7/12/2021 12:30:00 PM 23.86 74.948 0.127 7.35 21.64 0
7/12/2021 12:45:00 PM 23.99 75.182 0.13 7.35 27.12 0
7/12/2021 1:00:00 PM 24.1 75.38 0.133 7.34 23.89 0
7/12/2021 1:15:00 PM 24.2 75.56 0.135 7.33 28.26 0
7/12/2021 1:30:00 PM 24.31 75.758 0.128 7.33 30.32 0
7/12/2021 1:45:00 PM 24.43 75.974 0.132 7.32 26.27 0
7/12/2021 2:00:00 PM 24.56 76.208 0.132 7.32 27.6 0
7/12/2021 2:15:00 PM 24.66 76.388 0.134 7.32 27.84 0
7/12/2021 2:30:00 PM 24.76 76.568 0.13 7.32 28.88 0
7/12/2021 2:45:00 PM 24.85 76.73 0.132 7.33 31.16 0
7/12/2021 3:00:00 PM 24.95 76.91 0.128 7.33 30.97 0
7/12/2021 3:15:00 PM 24.89 76.802 0.132 7.33 28.86 0
7/12/2021 3:30:00 PM 24.92 76.856 0.133 7.34 28.51 0
7/12/2021 3:45:00 PM 25.04 77.07201 0.137 7.35 27.64 0
7/12/2021 4:00:00 PM 25.05 77.09 0.136 7.36 27.19 0
7/12/2021 4:15:00 PM 25.03 77.054 0.139 7.37 28.42 0
7/12/2021 4:30:00 PM 24.98 76.964 0.14 7.37 28.06 0
7/12/2021 4:45:00 PM 24.92 76.856 0.139 7.37 28.73 0
7/12/2021 5:00:00 PM 24.88 76.784 0.143 7.37 24.86 0
7/12/2021 5:15:00 PM 24.87 76.766 0.138 7.37 26.03 0
7/12/2021 5:30:00 PM 24.85 76.73 0.143 7.37 31.05 0
7/12/2021 5:45:00 PM 24.84 76.712 0.145 7.36 28.16 0
7/12/2021 6:00:00 PM 24.83 76.694 0.144 7.36 26.63 0
7/12/2021 6:15:00 PM 24.83 76.694 0.142 7.35 31.19 0
7/12/2021 6:30:00 PM 24.82 76.676 0.138 7.35 28.35 0
7/12/2021 6:45:00 PM 24.81 76.658 0.143 7.35 28.49 0
7/12/2021 7:00:00 PM 24.78 76.604 0.14 7.34 28.54 0
7/12/2021 7:15:00 PM 24.75 76.55 0.135 7.33 27.34 0
7/12/2021 7:30:00 PM 24.73 76.514 0.14 7.33 27.52 0
7/12/2021 7:45:00 PM 24.7 76.46 0.138 7.32 26.55 0
7/12/2021 8:00:00 PM 24.69 76.442 0.138 7.31 28.16 0
7/12/2021 8:15:00 PM 24.68 76.424 0.136 7.31 27.08 0
7/12/2021 8:30:00 PM 24.66 76.388 0.135 7.31 30.14 0
7/12/2021 8:45:00 PM 24.65 76.37 0.134 7.3 29.27 0
7/12/2021 9:00:00 PM 24.62 76.316 0.134 7.3 32.3 0
7/12/2021 9:15:00 PM 24.61 76.298 0.135 7.3 31.12 0
7/12/2021 9:30:00 PM 24.58 76.244 0.131 7.29 32.25 0
7/12/2021 9:45:00 PM 24.54 76.172 0.124 7.29 32.2 0
7/12/2021 10:00:00 PM 24.48 76.064 0.127 7.29 31.38 0
7/12/2021 10:15:00 PM 24.47 76.046 0.133 7.29 31.91 0
7/12/2021 10:30:00 PM 24.45 76.01 0.129 7.28 31.39 0
7/12/2021 10:45:00 PM 24.43 75.974 0.128 7.28 31.27 0
7/12/2021 11:00:00 PM 24.4 75.92 0.129 7.28 31.27 0
7/12/2021 11:15:00 PM 24.38 75.884 0.129 7.28 28.03 0
7/12/2021 11:30:00 PM 24.38 75.884 0.133 7.28 29.05 0
7/12/2021 11:45:00 PM 24.35 75.83 0.134 7.27 30.39 0
7/13/2021 12:00:00 AM 24.31 75.758 0.131 7.28 27.27 0
7/13/2021 12:15:00 AM 24.27 75.686 0.128 7.27 28.13 0
7/13/2021 12:30:00 AM 24.26 75.668 0.13 7.28 28.93 0
7/13/2021 12:45:00 AM 24.26 75.668 0.123 7.28 27.53 0
7/13/2021 1:00:00 AM 24.21 75.578 0.129 7.28 25.54 0
7/13/2021 1:15:00 AM 24.23 75.614 0.131 7.28 27.17 0
7/13/2021 1:30:00 AM 24.18 75.524 0.129 7.28 23.84 0
7/13/2021 1:45:00 AM 24.18 75.524 0.11 7.29 26.09 0
7/13/2021 2:00:00 AM 24.16 75.488 0.126 7.28 23.42 0
7/13/2021 2:15:00 AM 24.15 75.47 0.131 7.29 26.8 0
7/13/2021 2:30:00 AM 24.11 75.398 0.128 7.28 23.9 0
7/13/2021 2:45:00 AM 24.1 75.38 0.13 7.29 25.74 0
7/13/2021 3:00:00 AM 24.09 75.362 0.13 7.29 22.78 0
7/13/2021 3:15:00 AM 24.06 75.308 0.132 7.29 23.92 0
7/13/2021 3:30:00 AM 24.03 75.254 0.128 7.28 24.45 0
7/13/2021 3:45:00 AM 24.02 75.236 0.131 7.28 23.83 0
7/13/2021 4:00:00 AM 24.01 75.218 0.129 7.29 23.34 0
7/13/2021 4:15:00 AM 23.98 75.164 0.131 7.28 24.05 0
7/13/2021 4:30:00 AM 23.95 75.11 0.129 7.28 26.46 0
7/13/2021 4:45:00 AM 23.95 75.11 0.13 7.28 23.76 0
7/13/2021 5:00:00 AM 23.95 75.11 0.132 7.28 23.24 0
7/13/2021 5:15:00 AM 23.9 75.02 0.133 7.28 25.1 0
7/13/2021 5:30:00 AM 23.9 75.02 0.129 7.28 25.16 0
7/13/2021 5:45:00 AM 23.88 74.984 0.133 7.28 22.74 0
7/13/2021 6:00:00 AM 23.86 74.948 0.132 7.28 21.98 0
7/13/2021 6:15:00 AM 23.85 74.93 0.132 7.28 22.7 0
7/13/2021 6:30:00 AM 23.82 74.876 0.132 7.28 20.9 0
7/13/2021 6:45:00 AM 23.8 74.84 0.132 7.28 22.66 0
7/13/2021 7:00:00 AM 23.81 74.858 0.132 7.27 20.32 0
7/13/2021 7:15:00 AM 23.82 74.876 0.132 7.27 19.98 0
7/13/2021 7:30:00 AM 23.76 74.768 0.132 7.27 19.91 0
7/13/2021 7:45:00 AM 23.79 74.82201 0.132 7.27 19.77 0
7/13/2021 8:00:00 AM 23.74 74.732 0.132 7.27 18.56 0
7/13/2021 8:15:00 AM 23.75 74.75 0.133 7.27 17.99 0
7/13/2021 8:30:00 AM 23.79 74.82201 0.132 7.27 18.49 0
7/13/2021 8:45:00 AM 23.79 74.82201 0.131 7.27 18.64 0
7/13/2021 9:00:00 AM 23.79 74.82201 0.131 7.27 22.04 0
7/13/2021 9:15:00 AM 23.78 74.804 0.131 7.27 18.14 0
7/13/2021 9:30:00 AM 23.78 74.804 0.131 7.27 17.56 0
7/13/2021 9:45:00 AM 23.75 74.75 0.131 7.27 16.71 0
7/13/2021 10:00:00 AM 23.78 74.804 0.131 7.27 16.46 0
7/13/2021 10:15:00 AM 23.78 74.804 0.131 7.27 16.57 0
7/13/2021 10:30:00 AM 23.78 74.804 0.131 7.27 19.07 0
7/13/2021 10:45:00 AM 23.76 74.768 0.13 7.27 16.8 0
7/13/2021 11:00:00 AM 23.73 74.714 0.131 7.27 15.24 0
7/13/2021 11:15:00 AM 23.78 74.804 0.131 7.27 18.58 0
7/13/2021 11:30:00 AM 23.76 74.768 0.131 7.27 16.75 0
7/13/2021 11:45:00 AM 23.76 74.768 0.131 7.27 19.27 0
7/13/2021 12:00:00 PM 23.77 74.786 0.131 7.28 18.05 0
7/13/2021 12:15:00 PM 23.75 74.75 0.132 7.28 18.92 0
7/13/2021 12:30:00 PM 23.75 74.75 0.132 7.28 20.8 0
7/13/2021 12:45:00 PM 23.74 74.732 0.132 7.28 18.97 0
7/13/2021 1:00:00 PM 23.75 74.75 0.132 7.28 20.73 0
7/13/2021 1:15:00 PM 23.85 74.93 0.133 7.29 20.84 0
7/13/2021 1:30:00 PM 23.87 74.966 0.133 7.29 21.44 0
7/13/2021 1:45:00 PM 23.96 75.128 0.133 7.29 19.57 0
7/13/2021 2:00:00 PM 24.03 75.254 0.133 7.3 22.63 0
7/13/2021 2:15:00 PM 24.1 75.38 0.133 7.3 22.89 0
7/13/2021 2:30:00 PM 24.15 75.47 0.132 7.31 19.74 0
7/13/2021 2:45:00 PM 24.25 75.65 0.133 7.32 19.77 0
7/13/2021 3:00:00 PM 24.22 75.596 0.133 7.32 21.33 0
7/13/2021 3:15:00 PM 24.28 75.704 0.133 7.32 20.68 0
7/13/2021 3:30:00 PM 24.33 75.794 0.133 7.32 22.39 0
7/13/2021 3:45:00 PM 24.45 76.01 0.133 7.33 21.03 0
7/13/2021 4:00:00 PM 24.64 76.352 0.133 7.34 22.89 0
7/13/2021 4:15:00 PM 24.74 76.532 0.134 7.35 23.7 0
7/13/2021 4:30:00 PM 24.77 76.586 0.134 7.35 21.53 0
7/13/2021 4:45:00 PM 24.85 76.73 0.134 7.36 22.06 0
7/13/2021 5:00:00 PM 24.89 76.802 0.134 7.37 22.07 0
7/13/2021 5:15:00 PM 24.92 76.856 0.134 7.37 21.79 0
7/13/2021 5:30:00 PM 24.9 76.82 0.134 7.37 21.26 0
7/13/2021 5:45:00 PM 24.88 76.784 0.135 7.37 21.96 0
7/13/2021 6:00:00 PM 24.87 76.766 0.135 7.37 20.87 0
7/13/2021 6:15:00 PM 24.85 76.73 0.135 7.36 22.06 0
7/13/2021 6:30:00 PM 24.79 76.622 0.135 7.37 21.64 0
7/13/2021 6:45:00 PM 24.82 76.676 0.136 7.36 21.88 0
7/13/2021 7:00:00 PM 24.79 76.622 0.136 7.36 20.87 0
7/13/2021 7:15:00 PM 24.8 76.64 0.137 7.36 21.04 0
7/13/2021 7:30:00 PM 24.8 76.64 0.137 7.36 24.77 0
7/13/2021 7:45:00 PM 24.76 76.568 0.138 7.35 21.24 0
7/13/2021 8:00:00 PM 24.74 76.532 0.138 7.35 19.99 0
7/13/2021 8:15:00 PM 24.73 76.514 0.139 7.35 20.26 0
7/13/2021 8:30:00 PM 24.73 76.514 0.14 7.35 20.86 0
7/13/2021 8:45:00 PM 24.71 76.478 0.141 7.35 2756 0
7/13/2021 9:00:00 PM 24.69 76.442 0.141 7.35 2575 0
7/13/2021 9:15:00 PM 24.69 76.442 0.142 7.35 721.7 0
7/13/2021 9:30:00 PM 24.7 76.46 0.143 7.35 707.4 0
7/13/2021 9:45:00 PM 24.71 76.478 0.144 7.35 699.1 0
7/13/2021 10:00:00 PM 24.72 76.496 0.145 7.35 694.4 0
7/13/2021 10:15:00 PM 24.7 76.46 0.146 7.35 690.7 0
7/13/2021 10:30:00 PM 24.68 76.424 0.146 7.35 696.9 0
7/13/2021 10:45:00 PM 24.68 76.424 0.147 7.35 697.7 0
7/13/2021 11:00:00 PM 24.68 76.424 0.148 7.35 688.7 0
7/13/2021 11:15:00 PM 24.64 76.352 0.148 7.35 690.2 0
7/13/2021 11:30:00 PM 24.62 76.316 0.148 7.35 677.6 0
7/13/2021 11:45:00 PM 24.6 76.28 0.148 7.35 682.5 0
7/14/2021 12:00:00 AM 24.57 76.226 0.148 7.34 679.3 0
7/14/2021 12:15:00 AM 24.58 76.244 0.148 7.34 679.1 0
7/14/2021 12:30:00 AM 24.53 76.154 0.148 7.33 672.2 0
7/14/2021 12:45:00 AM 24.51 76.118 0.148 7.34 680.3 0
7/14/2021 1:00:00 AM 24.47 76.046 0.147 7.34 679.6 0
7/14/2021 1:15:00 AM 24.44 75.992 0.147 7.33 679.6 0
7/14/2021 1:30:00 AM 24.42 75.956 0.147 7.33 682.1 0
7/14/2021 1:45:00 AM 24.38 75.884 0.147 7.33 681.2 0
7/14/2021 2:00:00 AM 24.39 75.902 0.146 7.33 680 0
7/14/2021 2:15:00 AM 24.33 75.794 0.146 7.32 679.1 0
7/14/2021 2:30:00 AM 24.3 75.74 0.145 7.32 680 0
7/14/2021 2:45:00 AM 24.25 75.65 0.145 7.32 673.5 0
7/14/2021 3:00:00 AM 24.24 75.632 0.145 7.32 680.4 0
7/14/2021 3:15:00 AM 24.23 75.614 0.145 7.32 669.4 0
7/14/2021 3:30:00 AM 24.17 75.506 0.145 7.32 681.6 0
7/14/2021 3:45:00 AM 24.15 75.47 0.145 7.32 686.2 0
7/14/2021 4:00:00 AM 24.12 75.416 0.145 7.32 672.8 0
7/14/2021 4:15:00 AM 24.09 75.362 0.145 7.31 657.5 0
7/14/2021 4:30:00 AM 24.09 75.362 0.144 7.31 654 0
7/14/2021 4:45:00 AM 24.05 75.29 0.144 7.31 653.8 0
7/14/2021 5:00:00 AM 24.02 75.236 0.144 7.31 654.9 0
7/14/2021 5:15:00 AM 24.01 75.218 0.144 7.31 647.9 0
7/14/2021 5:30:00 AM 23.98 75.164 0.144 7.31 649.6 0
7/14/2021 5:45:00 AM 23.96 75.128 0.144 7.31 650.2 0
7/14/2021 6:00:00 AM 23.93 75.074 0.144 7.31 655.3 0
7/14/2021 6:15:00 AM 23.93 75.074 0.144 7.31 657.7 0
7/14/2021 6:30:00 AM 23.88 74.984 0.143 7.31 657.5 0
7/14/2021 6:45:00 AM 23.88 74.984 0.144 7.31 659.2 0
7/14/2021 7:00:00 AM 23.86 74.948 0.143 7.3 661.2 0
7/14/2021 7:15:00 AM 23.83 74.894 0.144 7.3 669.8 0
7/14/2021 7:30:00 AM 23.85 74.93 0.143 7.3 673 0
7/14/2021 7:45:00 AM 23.82 74.876 0.143 7.3 680 0
7/14/2021 8:00:00 AM 23.79 74.82201 0.143 7.3 669.6 0
7/14/2021 8:15:00 AM 23.81 74.858 0.143 7.3 677.8 0
7/14/2021 8:30:00 AM 23.8 74.84 0.143 7.3 684.8 0
7/14/2021 8:45:00 AM 23.82 74.876 0.143 7.3 675.4 0
7/14/2021 9:00:00 AM 23.79 74.82201 0.144 7.3 677.1 0
7/14/2021 9:15:00 AM 23.82 74.876 0.144 7.3 686.8 0
7/14/2021 9:30:00 AM 23.83 74.894 0.143 7.31 691.3 0
7/14/2021 9:45:00 AM 23.85 74.93 0.143 7.31 685.3 0
7/14/2021 10:00:00 AM 23.88 74.984 0.143 7.31 681.6 0
7/14/2021 10:15:00 AM 23.94 75.092 0.144 7.31 683.2 0
7/14/2021 10:30:00 AM 24.02 75.236 0.144 7.32 689.4 0
7/14/2021 10:45:00 AM 24.15 75.47 0.144 7.33 696.7 0
7/14/2021 11:00:00 AM 24.26 75.668 0.144 7.34 697 0
7/14/2021 11:15:00 AM 24.32 75.776 0.145 7.35 690.5 0
7/14/2021 11:30:00 AM 24.47 76.046 0.144 7.36 724.4 0
7/14/2021 11:45:00 AM 24.54 76.172 0.143 7.37 724 0
7/14/2021 12:00:00 PM 24.66 76.388 0.143 7.39 695.8 0
7/14/2021 12:15:00 PM 24.75 76.55 0.143 7.4 694 0
7/14/2021 12:30:00 PM 24.9 76.82 0.145 7.41 691.2 0
7/14/2021 12:45:00 PM 25.15 77.27 0.143 7.43 697.3 0
7/14/2021 1:00:00 PM 25.27 77.486 0.146 7.45 690.9 0
7/14/2021 1:15:00 PM 25.28 77.504 0.145 7.46 694.2 0
7/14/2021 1:30:00 PM 25.35 77.63 0.143 7.46 688.7 0
7/14/2021 1:45:00 PM 25.38 77.684 0.221 7.47 693.1 0
7/14/2021 2:00:00 PM 25.62 78.116 0.223 7.49 709.2 0
7/14/2021 2:15:00 PM 25.73 78.314 0.223 7.51 717.5 0
7/14/2021 2:30:00 PM 25.89 78.602 0.223 7.53 713.2 0
7/14/2021 2:45:00 PM 25.92 78.656 0.223 7.54 708.9 0
7/14/2021 3:00:00 PM 25.85 78.53 0.223 7.54 719.4 0
7/14/2021 3:15:00 PM 25.81 78.458 0.223 7.54 705.9 0
7/14/2021 3:30:00 PM 25.88 78.584 0.223 7.55 705.7 0
7/14/2021 3:45:00 PM 25.91 78.638 0.224 7.57 708 0
7/14/2021 4:00:00 PM 26.01 78.818 0.224 7.58 708.8 0
7/14/2021 4:15:00 PM 26.12 79.016 0.224 7.6 711.9 0
7/14/2021 4:30:00 PM 26.25 79.25 0.224 7.6 709.2 0
7/14/2021 4:45:00 PM 26.35 79.43 0.224 7.61 715.1 0
7/14/2021 5:00:00 PM 26.4 79.52 0.225 7.62 723.7 0
7/14/2021 5:15:00 PM 26.41 79.538 0.225 7.62 727.8 0
7/14/2021 5:30:00 PM 26.28 79.304 0.225 7.61 726.9 0
7/14/2021 5:45:00 PM 26.18 79.124 0.225 7.6 728.8 0
7/14/2021 6:00:00 PM 26.1 78.98 0.225 7.59 711.2 0
7/14/2021 6:15:00 PM 26.05 78.89 0.225 7.59 712.5 0
7/14/2021 6:30:00 PM 26.03 78.854 0.225 7.58 715.9 0
7/14/2021 6:45:00 PM 25.96 78.728 0.224 7.56 716.1 0
7/14/2021 7:00:00 PM 25.94 78.692 0.225 7.55 724.5 0
7/14/2021 7:15:00 PM 25.9 78.62 0.225 7.54 727.7 0
7/14/2021 7:30:00 PM 25.88 78.584 0.224 7.53 729.2 0
7/14/2021 7:45:00 PM 25.87 78.566 0.224 7.53 726.2 0
7/14/2021 8:00:00 PM 25.84 78.512 0.224 7.52 729.6 0
7/14/2021 8:15:00 PM 25.82 78.476 0.224 7.51 730.7 0
7/14/2021 8:30:00 PM 25.78 78.404 0.224 7.5 725 0
7/14/2021 8:45:00 PM 25.76 78.368 0.224 7.49 732 0
7/14/2021 9:00:00 PM 25.74 78.332 0.224 7.48 740.5 0
7/14/2021 9:15:00 PM 25.72 78.296 0.223 7.47 745.8 0
7/14/2021 9:30:00 PM 25.7 78.26 0.223 7.46 741.1 0
7/14/2021 9:45:00 PM 25.65 78.17 0.223 7.45 748 0
7/14/2021 10:00:00 PM 25.6 78.08 0.223 7.44 752.2 0
7/14/2021 10:15:00 PM 25.57 78.026 0.223 7.43 771 0
7/14/2021 10:30:00 PM 25.55 77.99 0.223 7.42 754 0
7/14/2021 10:45:00 PM 25.49 77.882 0.223 7.42 738.4 0
7/14/2021 11:00:00 PM 25.48 77.864 0.223 7.41 751.1 0
7/14/2021 11:15:00 PM 25.43 77.774 0.223 7.41 757 0
7/14/2021 11:30:00 PM 25.4 77.72 0.223 7.4 763.6 0
7/14/2021 11:45:00 PM 25.38 77.684 0.222 7.4 745.2 0
7/15/2021 12:00:00 AM 25.35 77.63 0.222 7.39 752.6 0
7/15/2021 12:15:00 AM 25.31 77.558 0.222 7.39 744.9 0
7/15/2021 12:30:00 AM 25.27 77.486 0.222 7.38 750.5 0
7/15/2021 12:45:00 AM 25.23 77.414 0.222 7.38 751.2 0
7/15/2021 1:00:00 AM 25.19 77.342 0.222 7.38 753 0
7/15/2021 1:15:00 AM 25.15 77.27 0.222 7.37 733.2 0
7/15/2021 1:30:00 AM 25.11 77.198 0.222 7.36 724.4 0
7/15/2021 1:45:00 AM 25.07 77.126 0.222 7.36 693.8 0
7/15/2021 2:00:00 AM 25.04 77.07201 0.222 7.36 676.6 0
7/15/2021 2:15:00 AM 25.02 77.036 0.222 7.36 649.5 0
7/15/2021 2:30:00 AM 24.99 76.982 0.222 7.35 622 0
7/15/2021 2:45:00 AM 24.94 76.892 0.222 7.35 586 0
7/15/2021 3:00:00 AM 24.91 76.838 0.222 7.34 523.4 0
7/15/2021 3:15:00 AM 24.87 76.766 0.222 7.34 485.5 0
7/15/2021 3:30:00 AM 24.83 76.694 0.222 7.33 453.5 0
7/15/2021 3:45:00 AM 24.8 76.64 0.222 7.33 417.3 0
7/15/2021 4:00:00 AM 24.76 76.568 0.222 7.33 393.5 0
7/15/2021 4:15:00 AM 24.71 76.478 0.221 7.32 377.2 0
7/15/2021 4:30:00 AM 24.68 76.424 0.221 7.32 359.4 0
7/15/2021 4:45:00 AM 24.63 76.334 0.221 7.32 349.8 0
7/15/2021 5:00:00 AM 24.59 76.262 0.221 7.31 339.2 0
7/15/2021 5:15:00 AM 24.55 76.19 0.221 7.31 348.7 0
7/15/2021 5:30:00 AM 24.5 76.1 0.222 7.31 333.9 0
7/15/2021 5:45:00 AM 24.45 76.01 0.222 7.31 335.9 0
7/15/2021 6:00:00 AM 24.4 75.92 0.222 7.31 304.9 0
7/15/2021 6:15:00 AM 24.38 75.884 0.222 7.29 275.7 0
7/15/2021 6:30:00 AM 24.35 75.83 0.222 7.29 267.1 0
7/15/2021 6:45:00 AM 24.29 75.722 0.222 7.3 273.9 0
7/15/2021 7:00:00 AM 24.28 75.704 0.222 7.29 247 0
7/15/2021 7:15:00 AM 24.22 75.596 0.222 7.29 238.1 0
7/15/2021 7:30:00 AM 24.21 75.578 0.222 7.29 233.9 0
7/15/2021 7:45:00 AM 24.18 75.524 0.222 7.29 226.2 0
7/15/2021 8:00:00 AM 24.15 75.47 0.222 7.29 224.9 0
7/15/2021 8:15:00 AM 24.14 75.452 0.223 7.29 222.1 0
7/15/2021 8:30:00 AM 24.13 75.434 0.223 7.29 225.3 0
7/15/2021 8:45:00 AM 24.12 75.416 0.223 7.29 220.1 0
7/15/2021 9:00:00 AM 24.12 75.416 0.223 7.3 216.9 0
7/15/2021 9:15:00 AM 24.14 75.452 0.223 7.31 214.7 0
7/15/2021 9:30:00 AM 24.18 75.524 0.224 7.31 210.7 0
7/15/2021 9:45:00 AM 24.2 75.56 0.224 7.32 203.2 0
7/15/2021 10:00:00 AM 24.26 75.668 0.224 7.33 200.4 0
7/15/2021 10:15:00 AM 24.32 75.776 0.224 7.34 196.4 0
7/15/2021 10:30:00 AM 24.4 75.92 0.225 7.36 190.7 0
7/15/2021 10:45:00 AM 24.47 76.046 0.225 7.37 176.7 0
7/15/2021 11:00:00 AM 24.58 76.244 0.225 7.4 171.2 0
7/15/2021 11:15:00 AM 24.69 76.442 0.225 7.42 167.7 0
7/15/2021 11:30:00 AM 24.8 76.64 0.225 7.44 162 0
7/15/2021 11:45:00 AM 24.94 76.892 0.226 7.46 156.5 0
7/15/2021 12:00:00 PM 25.1 77.18 0.226 7.49 150.4 0
7/15/2021 12:15:00 PM 25.28 77.504 0.226 7.52 146.8 0
7/15/2021 12:30:00 PM 25.49 77.882 0.226 7.56 145.9 0
7/15/2021 12:45:00 PM 25.67 78.206 0.227 7.59 147.8 0
7/15/2021 1:00:00 PM 25.88 78.584 0.227 7.63 147.5 0
7/15/2021 1:15:00 PM 25.98 78.764 0.227 7.65 147.9 0
7/15/2021 1:30:00 PM 26.22 79.196 0.227 7.69 147.5 0
7/15/2021 1:45:00 PM 26.42 79.556 0.228 7.73 145.9 0
7/15/2021 2:00:00 PM 26.58 79.844 0.228 7.76 148.2 0
7/15/2021 2:15:00 PM 26.77 80.186 0.228 7.8 147.3 0
7/15/2021 2:30:00 PM 26.95 80.51 0.228 7.83 145.4 0
7/15/2021 2:45:00 PM 27.08 80.744 0.229 7.86 147.6 0
7/15/2021 3:00:00 PM 27.09 80.762 0.229 7.88 148.5 0
7/15/2021 3:15:00 PM 27.25 81.05 0.229 7.91 148.1 0
7/15/2021 3:30:00 PM 27.36 81.248 0.23 7.94 147.4 0
7/15/2021 3:45:00 PM 27.42 81.356 0.23 7.95 148.1 0
7/15/2021 4:00:00 PM 27.51 81.518 0.23 7.97 149.3 0
7/15/2021 4:15:00 PM 27.44 81.392 0.231 7.97 149.3 0
7/15/2021 4:30:00 PM 27.36 81.248 0.231 7.95 149.3 0
7/15/2021 4:45:00 PM 27.33 81.194 0.231 7.96 149.5 0
7/15/2021 5:00:00 PM 27.29 81.122 0.231 7.95 151.2 0
7/15/2021 5:15:00 PM 27.27 81.086 0.232 7.97 151.5 0
7/15/2021 5:30:00 PM 27.2 80.96 0.232 7.95 153.5 0
7/15/2021 5:45:00 PM 27.16 80.888 0.232 7.94 150.8 0
7/15/2021 6:00:00 PM 27.15 80.87 0.233 7.93 153.8 0
7/15/2021 6:15:00 PM 27.11 80.798 0.233 7.9 153 0
7/15/2021 6:30:00 PM 27.02 80.636 0.233 7.88 153.5 0
7/15/2021 6:45:00 PM 26.98 80.564 0.233 7.87 153.3 0
7/15/2021 7:00:00 PM 26.91 80.438 0.234 7.84 153.6 0
7/15/2021 7:15:00 PM 26.84 80.312 0.234 7.82 153.1 0
7/15/2021 7:30:00 PM 26.79 80.222 0.234 7.79 151 0
7/15/2021 7:45:00 PM 26.73 80.114 0.234 7.77 147.1 0
7/15/2021 8:00:00 PM 26.67 80.006 0.234 7.74 139 0
7/15/2021 8:15:00 PM 26.61 79.898 0.23 7.72 134.3 0
7/15/2021 8:30:00 PM 26.56 79.808 0.235 7.68 134.3 0
7/15/2021 8:45:00 PM 26.53 79.754 0.235 7.68 128.1 0
7/15/2021 9:00:00 PM 26.48 79.664 0.235 7.66 124.4 0
7/15/2021 9:15:00 PM 26.45 79.61 0.235 7.65 124.5 0
7/15/2021 9:30:00 PM 26.43 79.574 0.235 7.62 124.3 0
7/15/2021 9:45:00 PM 26.39 79.502 0.235 7.61 127.3 0
7/15/2021 10:00:00 PM 26.35 79.43 0.235 7.59 126.5 0
7/15/2021 10:15:00 PM 26.34 79.412 0.236 7.57 126 0
7/15/2021 10:30:00 PM 26.29 79.32201 0.236 7.56 94.51 0
7/15/2021 10:45:00 PM 26.28 79.304 0.236 7.55 100.1 0
7/15/2021 11:00:00 PM 26.25 79.25 0.236 7.54 81.43 0
7/15/2021 11:15:00 PM 26.21 79.17799 0.236 7.52 80.63 0
7/15/2021 11:30:00 PM 26.19 79.142 0.236 7.52 82.34 0
7/15/2021 11:45:00 PM 26.15 79.07 0.236 7.5 82.08 0
7/16/2021 12:00:00 AM 26.12 79.016 0.236 7.5 83.02 0
7/16/2021 12:15:00 AM 26.12 79.016 0.236 7.49 95.11 0
7/16/2021 12:30:00 AM 26.09 78.962 0.236 7.48 81.86 0
7/16/2021 12:45:00 AM 26.05 78.89 0.236 7.47 84.44 0
7/16/2021 1:00:00 AM 26.02 78.836 0.236 7.46 83.97 0
7/16/2021 1:15:00 AM 25.98 78.764 0.236 7.46 84.07 0
7/16/2021 1:30:00 AM 25.95 78.71 0.236 7.45 86.2 0
7/16/2021 1:45:00 AM 25.93 78.674 0.236 7.45 86.14 0
7/16/2021 2:00:00 AM 25.89 78.602 0.236 7.44 85.52 0
7/16/2021 2:15:00 AM 25.85 78.53 0.236 7.43 86.86 0
7/16/2021 2:30:00 AM 25.81 78.458 0.235 7.43 89.38 0
7/16/2021 2:45:00 AM 25.79 78.422 0.236 7.43 88.11 0
7/16/2021 3:00:00 AM 25.75 78.35 0.236 7.42 87.98 0
7/16/2021 3:15:00 AM 25.7 78.26 0.236 7.41 189.6 0
7/16/2021 3:30:00 AM 25.64 78.152 0.214 7.41 78.91 0
7/16/2021 3:45:00 AM 25.59 78.062 0.235 7.41 82.61 0
7/16/2021 4:00:00 AM 25.54 77.972 0.236 7.39 101.2 0
7/16/2021 4:15:00 AM 25.49 77.882 0.236 7.39 93.4 0
7/16/2021 4:30:00 AM 25.44 77.792 0.227 7.38 101.7 0
7/16/2021 4:45:00 AM 25.4 77.72 0.236 7.38 75.84 0
7/16/2021 5:00:00 AM 25.36 77.648 0.237 7.39 72.66 0
7/16/2021 5:15:00 AM 25.29 77.522 0.236 7.37 75.77 0
7/16/2021 5:30:00 AM 25.23 77.414 0.236 7.36 73.91 0
7/16/2021 5:45:00 AM 25.21 77.378 0.237 7.37 69.66 0
7/16/2021 6:00:00 AM 25.16 77.288 0.237 7.36 70.6 0
7/16/2021 6:15:00 AM 25.1 77.18 0.237 7.36 70.89 0
7/16/2021 6:30:00 AM 25.06 77.108 0.237 7.35 72.53 0
7/16/2021 6:45:00 AM 25.01 77.018 0.237 7.35 71.52 0
7/16/2021 7:00:00 AM 24.97 76.946 0.237 7.35 72.01 0
7/16/2021 7:15:00 AM 24.95 76.91 0.237 7.34 73.63 0
7/16/2021 7:30:00 AM 24.91 76.838 0.237 7.34 76.71 0
7/16/2021 7:45:00 AM 24.89 76.802 0.237 7.34 79.51 0
7/16/2021 8:00:00 AM 24.87 76.766 0.237 7.34 82.41 0
7/16/2021 8:15:00 AM 24.86 76.748 0.237 7.34 84.33 0
7/16/2021 8:30:00 AM 24.84 76.712 0.238 7.34 82.89 0
7/16/2021 8:45:00 AM 24.85 76.73 0.238 7.35 84.52 0
7/16/2021 9:00:00 AM 24.85 76.73 0.238 7.35 86.27 0
7/16/2021 9:15:00 AM 24.86 76.748 0.238 7.35 88.28 0
7/16/2021 9:30:00 AM 24.89 76.802 0.238 7.36 92.97 0
7/16/2021 9:45:00 AM 24.91 76.838 0.238 7.37 95.99 0
7/16/2021 10:00:00 AM 24.96 76.92799 0.238 7.38 92.81 0
7/16/2021 10:15:00 AM 25.04 77.07201 0.231 7.4 79.2 0
7/16/2021 10:30:00 AM 25.1 77.18 0.238 7.42 82.94 0
7/16/2021 10:45:00 AM 25.23 77.414 0.239 7.45 80.01 0
7/16/2021 11:00:00 AM 25.33 77.594 0.239 7.47 81.18 0
7/16/2021 11:15:00 AM 25.46 77.828 0.239 7.5 82.34 0
7/16/2021 11:30:00 AM 25.61 78.098 0.239 7.53 83.03 0
7/16/2021 11:45:00 AM 25.81 78.458 0.239 7.56 85.14 0
7/16/2021 12:00:00 PM 26.03 78.854 0.239 7.62 84.72 0
7/16/2021 12:15:00 PM 26.25 79.25 0.239 7.66 86.23 0
7/16/2021 12:30:00 PM 26.48 79.664 0.239 7.7 87.82 0
7/16/2021 12:45:00 PM 26.74 80.132 0.24 7.74 87.25 0
7/16/2021 1:00:00 PM 26.97 80.546 0.239 7.81 92.67 0
7/16/2021 1:15:00 PM 27.22 80.996 0.24 7.87 779.4 0
7/16/2021 1:30:00 PM 27.45 81.41 0.24 7.94 681.7 0
7/16/2021 1:45:00 PM 27.67 81.806 0.24 8 388.6 0
7/16/2021 2:00:00 PM 27.88 82.184 0.24 8.06 534.6 0
7/16/2021 2:15:00 PM 28.06 82.508 0.24 8.1 184.4 0
7/16/2021 2:30:00 PM 28.28 82.904 0.24 8.15 81.09 0
7/16/2021 2:45:00 PM 28.47 83.24599 0.24 8.18 82.49 0
7/16/2021 3:00:00 PM 28.65 83.57 0.24 8.22 79.53 0
7/16/2021 3:15:00 PM 28.79 83.82201 0.24 8.27 68.34 0
7/16/2021 3:30:00 PM 28.73 83.714 0.24 8.28 71.77 0
7/16/2021 3:45:00 PM 28.66 83.588 0.241 8.28 88.43 0
7/16/2021 4:00:00 PM 28.56 83.408 0.239 8.28 100.1 0
7/16/2021 4:15:00 PM 28.57 83.426 0.223 8.28 83.9 0
7/16/2021 4:30:00 PM 28.65 83.57 0.234 8.31 78.99 0
7/16/2021 4:45:00 PM 28.63 83.534 0.227 8.31 74.57 0
7/16/2021 5:00:00 PM 28.56 83.408 0.215 8.3 76.17 0
7/16/2021 5:15:00 PM 28.52 83.336 0.231 8.26 73.38 0
7/16/2021 5:30:00 PM 28.44 83.192 0.242 8.25 65.57 0
7/16/2021 5:45:00 PM 28.39 83.102 0.243 8.24 62.15 0
7/16/2021 6:00:00 PM 28.44 83.192 0.24 8.25 56.6 0
7/16/2021 6:15:00 PM 28.4 83.12 0.243 8.24 46.84 0
7/16/2021 6:30:00 PM 28.33 82.994 0.238 8.2 73.5 0
7/16/2021 6:45:00 PM 28.26 82.868 0.234 8.18 76.4 0
7/16/2021 7:00:00 PM 28.18 82.724 0.238 8.13 77.26 0
7/16/2021 7:15:00 PM 28.1 82.58 0.241 8.11 82.98 0
7/16/2021 7:30:00 PM 28.02 82.436 0.241 8.06 78.64 0
7/16/2021 7:45:00 PM 27.93 82.274 0.24 8.03 81.26 0
7/16/2021 8:00:00 PM 27.85 82.13 0.239 7.99 83.46 0
7/16/2021 8:15:00 PM 27.77 81.986 0.24 7.95 82.3 0
7/16/2021 8:30:00 PM 27.67 81.806 0.238 7.9 84.82 0
7/16/2021 8:45:00 PM 27.59 81.662 0.227 7.86 83.88 0
7/16/2021 9:00:00 PM 27.51 81.518 0.244 7.83 83.45 0
7/16/2021 9:15:00 PM 27.44 81.392 0.222 7.79 72.73 0
7/16/2021 9:30:00 PM 27.37 81.266 0.228 7.76 72.61 0
7/16/2021 9:45:00 PM 27.29 81.122 0.232 7.73 75.59 0
7/16/2021 10:00:00 PM 27.23 81.014 0.223 7.71 96.11 0
7/16/2021 10:15:00 PM 27.18 80.924 0.225 7.7 75.38 0
7/16/2021 10:30:00 PM 27.13 80.834 0.227 7.68 75.92 0
7/16/2021 10:45:00 PM 27.09 80.762 0.233 7.66 77.42 0
7/16/2021 11:00:00 PM 27.04 80.672 0.221 7.64 78.98 0
7/16/2021 11:15:00 PM 26.98 80.564 0.229 7.62 79.66 0
7/16/2021 11:30:00 PM 26.9 80.42 0.242 7.6 81.91 0
7/16/2021 11:45:00 PM 26.86 80.348 0.23 7.6 84.63 0
7/17/2021 12:00:00 AM 26.82 80.276 0.225 7.58 85.93 0
7/17/2021 12:15:00 AM 26.77 80.186 0.232 7.57 89.62 0
7/17/2021 12:30:00 AM 26.73 80.114 0.241 7.55 91.64 0
7/17/2021 12:45:00 AM 26.68 80.024 0.241 7.56 89.91 0
7/17/2021 1:00:00 AM 26.63 79.934 0.236 7.54 92.86 0
7/17/2021 1:15:00 AM 26.58 79.844 0.233 7.55 89.67 0
7/17/2021 1:30:00 AM 26.54 79.772 0.244 7.54 92.93 0
7/17/2021 1:45:00 AM 26.48 79.664 0.244 7.52 92.44 0
7/17/2021 2:00:00 AM 26.45 79.61 0.244 7.52 83.29 0
7/17/2021 2:15:00 AM 26.4 79.52 0.244 7.52 83.37 0
7/17/2021 2:30:00 AM 26.37 79.466 0.244 7.51 84.62 0
7/17/2021 2:45:00 AM 26.32 79.376 0.244 7.5 87.46 0
7/17/2021 3:00:00 AM 26.28 79.304 0.244 7.5 89.26 0
7/17/2021 3:15:00 AM 26.25 79.25 0.244 7.49 77.6 0
7/17/2021 3:30:00 AM 26.2 79.16 0.244 7.49 70.28 0
7/17/2021 3:45:00 AM 26.16 79.088 0.244 7.49 69.22 0
7/17/2021 4:00:00 AM 26.12 79.016 0.244 7.49 67.98 0
7/17/2021 4:15:00 AM 26.07 78.926 0.244 7.47 75.34 0
7/17/2021 4:30:00 AM 26 78.8 0.244 7.48 64.68 0
7/17/2021 4:45:00 AM 25.95 78.71 0.244 7.46 69.95 0
7/17/2021 5:00:00 AM 25.89 78.602 0.244 7.45 69.73 0
7/17/2021 5:15:00 AM 25.83 78.494 0.244 7.46 68.82 0
7/17/2021 5:30:00 AM 25.78 78.404 0.244 7.44 71.27 0
7/17/2021 5:45:00 AM 25.71 78.278 0.244 7.44 73.39 0
7/17/2021 6:00:00 AM 25.68 78.224 0.244 7.44 73.17 0
7/17/2021 6:15:00 AM 25.62 78.116 0.244 7.43 68.24 0
7/17/2021 6:30:00 AM 25.56 78.008 0.244 7.42 68.82 0
7/17/2021 6:45:00 AM 25.52 77.936 0.244 7.42 68 0
7/17/2021 7:00:00 AM 25.48 77.864 0.244 7.42 69.87 0
7/17/2021 7:15:00 AM 25.44 77.792 0.244 7.4 70.54 0
7/17/2021 7:30:00 AM 25.42 77.756 0.244 7.41 68.8 0
7/17/2021 7:45:00 AM 25.38 77.684 0.244 7.4 69.03 0
7/17/2021 8:00:00 AM 25.36 77.648 0.244 7.41 67.47 0
7/17/2021 8:15:00 AM 25.33 77.594 0.244 7.41 67.89 0
7/17/2021 8:30:00 AM 25.32 77.576 0.245 7.41 69.36 0
7/17/2021 8:45:00 AM 25.31 77.558 0.245 7.41 69.49 0
7/17/2021 9:00:00 AM 25.29 77.522 0.245 7.41 69.64 0
7/17/2021 9:15:00 AM 25.31 77.558 0.245 7.42 70.29 0
7/17/2021 9:30:00 AM 25.37 77.666 0.245 7.44 77.19 0
7/17/2021 9:45:00 AM 25.4 77.72 0.245 7.45 79.08 0
7/17/2021 10:00:00 AM 25.46 77.828 0.245 7.47 68.74 0
7/17/2021 10:15:00 AM 25.49 77.882 0.245 7.49 70.73 0
7/17/2021 10:30:00 AM 25.56 78.008 0.245 7.51 69.64 0
7/17/2021 10:45:00 AM 25.64 78.152 0.245 7.54 68.88 0
7/17/2021 11:00:00 AM 25.74 78.332 0.245 7.57 69.65 0
7/17/2021 11:15:00 AM 25.89 78.602 0.245 7.61 69.02 0
7/17/2021 11:30:00 AM 26.05 78.89 0.246 7.67 70.15 0
7/17/2021 11:45:00 AM 26.2 79.16 0.246 7.7 72.55 0
7/17/2021 12:00:00 PM 26.44 79.592 0.246 7.77 105.4 0
7/17/2021 12:15:00 PM 26.66 79.988 0.246 7.83 75.86 0
7/17/2021 12:30:00 PM 26.95 80.51 0.246 7.89 75.24 0
7/17/2021 12:45:00 PM 27.19 80.942 0.241 7.97 65.43 0
7/17/2021 1:00:00 PM 27.49 81.482 0.246 8.07 58.35 0
7/17/2021 1:15:00 PM 27.79 82.022 0.246 8.15 60.24 0
7/17/2021 1:30:00 PM 27.96 82.328 0.247 8.19 53.2 0
7/17/2021 1:45:00 PM 28.2 82.76 0.246 8.26 54 0
7/17/2021 2:00:00 PM 28.49 83.282 0.246 8.31 56.24 0
7/17/2021 2:15:00 PM 28.64 83.552 0.246 8.36 57.42 0
7/17/2021 2:30:00 PM 28.69 83.642 0.246 8.38 78.87 0
7/17/2021 2:45:00 PM 28.65 83.57 0.247 8.4 244.7 0
7/17/2021 3:00:00 PM 28.63 83.534 0.247 8.42 349.6 0
7/17/2021 3:15:00 PM 28.78 83.804 0.247 8.46 495.5 0
7/17/2021 3:30:00 PM 28.83 83.894 0.247 8.48 1797 0
7/17/2021 3:45:00 PM 28.92 84.056 0.247 8.49 2284 0
7/17/2021 4:00:00 PM 28.93 84.074 0.247 8.51 91.56 0
7/17/2021 4:15:00 PM 28.88 83.98399 0.247 8.51 159.5 0
7/17/2021 4:30:00 PM 28.81 83.858 0.248 8.51 3829 0
7/17/2021 4:45:00 PM 28.74 83.732 0.247 8.49 325.5 0
7/17/2021 5:00:00 PM 28.69 83.642 0.248 8.48 1022 0
7/17/2021 5:15:00 PM 28.73 83.714 0.248 8.48 1716 0
7/17/2021 5:30:00 PM 28.65 83.57 0.248 8.47 1494 0
7/17/2021 5:45:00 PM 28.59 83.462 0.249 8.44 2098 0
7/17/2021 6:00:00 PM 28.53 83.354 0.25 8.4 2750 0
7/17/2021 6:15:00 PM 28.48 83.264 0.25 8.38 3577 0
7/17/2021 6:30:00 PM 28.42 83.156 0.251 8.34 125.8 0
7/17/2021 6:45:00 PM 28.33 82.994 0.251 8.31 102.1 0
7/17/2021 7:00:00 PM 28.17 82.706 0.251 8.27 102.7 0
7/17/2021 7:15:00 PM 28.06 82.508 0.251 8.22 176.5 0
7/17/2021 7:30:00 PM 27.96 82.328 0.25 8.17 171.1 0
7/17/2021 7:45:00 PM 27.84 82.112 0.251 8.12 383.2 0
7/17/2021 8:00:00 PM 27.72 81.896 0.25 8.06 328.2 0
7/17/2021 8:15:00 PM 27.62 81.716 0.25 8.02 386.5 0
7/17/2021 8:30:00 PM 27.5 81.5 0.249 7.97 390.1 0
7/17/2021 8:45:00 PM 27.38 81.284 0.249 7.92 377.9 0
7/17/2021 9:00:00 PM 27.26 81.068 0.248 7.86 387.6 0
7/17/2021 9:15:00 PM 27.19 80.942 0.249 7.82 374.6 0
7/17/2021 9:30:00 PM 27.11 80.798 0.249 7.78 325.2 0
7/17/2021 9:45:00 PM 27.01 80.618 0.248 7.75 289.8 0
7/17/2021 10:00:00 PM 26.93 80.474 0.248 7.71 294.3 0
7/17/2021 10:15:00 PM 26.85 80.33 0.248 7.69 228.9 0
7/17/2021 10:30:00 PM 26.79 80.222 0.248 7.66 157.7 0
7/17/2021 10:45:00 PM 26.73 80.114 0.248 7.64 152.4 0
7/17/2021 11:00:00 PM 26.66 79.988 0.248 7.61 160 0
7/17/2021 11:15:00 PM 26.6 79.88 0.248 7.6 146.5 0
7/17/2021 11:30:00 PM 26.53 79.754 0.248 7.59 133.6 0
7/17/2021 11:45:00 PM 26.48 79.664 0.248 7.57 129 0
7/18/2021 12:00:00 AM 26.42 79.556 0.247 7.56 125.1 0
7/18/2021 12:15:00 AM 26.37 79.466 0.248 7.55 125.1 0
7/18/2021 12:30:00 AM 26.33 79.394 0.248 7.56 3913 0
7/18/2021 12:45:00 AM 26.28 79.304 0.248 7.54 1059 0
7/18/2021 1:00:00 AM 26.24 79.232 0.248 7.54 1430 0
7/18/2021 1:15:00 AM 26.21 79.17799 0.248 7.54 2819 0
7/18/2021 1:30:00 AM 26.17 79.106 0.248 7.54 1680 0
7/18/2021 1:45:00 AM 26.13 79.034 0.248 7.53 51.61 0
7/18/2021 2:00:00 AM 26.12 79.016 0.248 7.52 2308 0
7/18/2021 2:15:00 AM 26.06 78.908 0.248 7.51 3543 0
7/18/2021 2:30:00 AM